<?xml version="1.0" encoding="UTF-8" standalone="no" ?>
<gpx xmlns="http://www.topografix.com/GPX/1/1" xmlns:xsi="http://www.w3.org/2001/XMLSchema-instance" xsi:schemaLocation="http://www.topografix.com/GPX/1/1 http://www.topografix.com/GPX/1/1/gpx.xsd" version="1.1" creator="VisuGPX - https://www.visugpx.com">
  <metadata>
    <name>2023-03-18 M. Ciotto Mieu</name>
  </metadata>
  <trk>
    <name><![CDATA[2023-03-18 12:55:55]]></name>
    <trkseg>
      <trkpt lat="44.16561" lon="7.55177">
        <ele>1361.36</ele>
        <time>2023-03-18T07:35:20Z</time>
      </trkpt>
      <trkpt lat="44.16563" lon="7.55174">
        <ele>1362.33</ele>
        <time>2023-03-18T07:35:42Z</time>
      </trkpt>
      <trkpt lat="44.16566" lon="7.55174">
        <ele>1346.46</ele>
        <time>2023-03-18T07:35:59Z</time>
      </trkpt>
      <trkpt lat="44.16566" lon="7.55179">
        <ele>1354.63</ele>
        <time>2023-03-18T07:36:28Z</time>
      </trkpt>
      <trkpt lat="44.16566" lon="7.55174">
        <ele>1369.54</ele>
        <time>2023-03-18T07:37:03Z</time>
      </trkpt>
      <trkpt lat="44.16566" lon="7.55179">
        <ele>1362.33</ele>
        <time>2023-03-18T07:37:41Z</time>
      </trkpt>
      <trkpt lat="44.16566" lon="7.55178">
        <ele>1362.81</ele>
        <time>2023-03-18T07:38:05Z</time>
      </trkpt>
      <trkpt lat="44.16565" lon="7.55179">
        <ele>1364.25</ele>
        <time>2023-03-18T07:38:23Z</time>
      </trkpt>
      <trkpt lat="44.16565" lon="7.55181">
        <ele>1367.13</ele>
        <time>2023-03-18T07:38:35Z</time>
      </trkpt>
      <trkpt lat="44.16563" lon="7.5518">
        <ele>1368.57</ele>
        <time>2023-03-18T07:38:50Z</time>
      </trkpt>
      <trkpt lat="44.16561" lon="7.5518">
        <ele>1368.57</ele>
        <time>2023-03-18T07:39:15Z</time>
      </trkpt>
      <trkpt lat="44.16563" lon="7.5518">
        <ele>1369.54</ele>
        <time>2023-03-18T07:39:41Z</time>
      </trkpt>
      <trkpt lat="44.16563" lon="7.5518">
        <ele>1368.09</ele>
        <time>2023-03-18T07:40:05Z</time>
      </trkpt>
      <trkpt lat="44.16562" lon="7.55179">
        <ele>1369.05</ele>
        <time>2023-03-18T07:40:25Z</time>
      </trkpt>
      <trkpt lat="44.16563" lon="7.55178">
        <ele>1371.46</ele>
        <time>2023-03-18T07:40:47Z</time>
      </trkpt>
      <trkpt lat="44.16564" lon="7.55176">
        <ele>1372.42</ele>
        <time>2023-03-18T07:41:06Z</time>
      </trkpt>
      <trkpt lat="44.16565" lon="7.55182">
        <ele>1372.42</ele>
        <time>2023-03-18T07:41:16Z</time>
      </trkpt>
      <trkpt lat="44.16564" lon="7.5518">
        <ele>1370.98</ele>
        <time>2023-03-18T07:41:28Z</time>
      </trkpt>
      <trkpt lat="44.16566" lon="7.55182">
        <ele>1370.98</ele>
        <time>2023-03-18T07:41:40Z</time>
      </trkpt>
      <trkpt lat="44.16564" lon="7.55182">
        <ele>1371.46</ele>
        <time>2023-03-18T07:41:52Z</time>
      </trkpt>
      <trkpt lat="44.16564" lon="7.5518">
        <ele>1371.94</ele>
        <time>2023-03-18T07:42:03Z</time>
      </trkpt>
      <trkpt lat="44.16563" lon="7.5518">
        <ele>1372.9</ele>
        <time>2023-03-18T07:42:14Z</time>
      </trkpt>
      <trkpt lat="44.16563" lon="7.55182">
        <ele>1373.86</ele>
        <time>2023-03-18T07:42:31Z</time>
      </trkpt>
      <trkpt lat="44.16562" lon="7.55182">
        <ele>1373.38</ele>
        <time>2023-03-18T07:42:43Z</time>
      </trkpt>
      <trkpt lat="44.16561" lon="7.55182">
        <ele>1374.34</ele>
        <time>2023-03-18T07:42:55Z</time>
      </trkpt>
      <trkpt lat="44.1656" lon="7.55181">
        <ele>1374.82</ele>
        <time>2023-03-18T07:43:09Z</time>
      </trkpt>
      <trkpt lat="44.16564" lon="7.55178">
        <ele>1375.3</ele>
        <time>2023-03-18T07:43:15Z</time>
      </trkpt>
      <trkpt lat="44.16569" lon="7.55152">
        <ele>1373.86</ele>
        <time>2023-03-18T07:43:32Z</time>
      </trkpt>
      <trkpt lat="44.1657" lon="7.55131">
        <ele>1372.42</ele>
        <time>2023-03-18T07:43:46Z</time>
      </trkpt>
      <trkpt lat="44.16569" lon="7.55126">
        <ele>1372.42</ele>
        <time>2023-03-18T07:43:49Z</time>
      </trkpt>
      <trkpt lat="44.16566" lon="7.55123">
        <ele>1372.42</ele>
        <time>2023-03-18T07:43:52Z</time>
      </trkpt>
      <trkpt lat="44.16562" lon="7.55124">
        <ele>1372.42</ele>
        <time>2023-03-18T07:43:55Z</time>
      </trkpt>
      <trkpt lat="44.16552" lon="7.55142">
        <ele>1376.26</ele>
        <time>2023-03-18T07:44:11Z</time>
      </trkpt>
      <trkpt lat="44.1655" lon="7.55144">
        <ele>1377.23</ele>
        <time>2023-03-18T07:44:14Z</time>
      </trkpt>
      <trkpt lat="44.16548" lon="7.55146">
        <ele>1377.71</ele>
        <time>2023-03-18T07:44:16Z</time>
      </trkpt>
      <trkpt lat="44.16546" lon="7.55149">
        <ele>1378.19</ele>
        <time>2023-03-18T07:44:19Z</time>
      </trkpt>
      <trkpt lat="44.16544" lon="7.55151">
        <ele>1378.67</ele>
        <time>2023-03-18T07:44:21Z</time>
      </trkpt>
      <trkpt lat="44.16533" lon="7.55162">
        <ele>1381.07</ele>
        <time>2023-03-18T07:44:35Z</time>
      </trkpt>
      <trkpt lat="44.16531" lon="7.5516">
        <ele>1381.55</ele>
        <time>2023-03-18T07:44:37Z</time>
      </trkpt>
      <trkpt lat="44.1653" lon="7.55159">
        <ele>1382.03</ele>
        <time>2023-03-18T07:44:39Z</time>
      </trkpt>
      <trkpt lat="44.1652" lon="7.55155">
        <ele>1383.96</ele>
        <time>2023-03-18T07:44:51Z</time>
      </trkpt>
      <trkpt lat="44.16516" lon="7.55144">
        <ele>1385.88</ele>
        <time>2023-03-18T07:45:01Z</time>
      </trkpt>
      <trkpt lat="44.16514" lon="7.55141">
        <ele>1386.36</ele>
        <time>2023-03-18T07:45:03Z</time>
      </trkpt>
      <trkpt lat="44.1651" lon="7.55129">
        <ele>1386.84</ele>
        <time>2023-03-18T07:45:14Z</time>
      </trkpt>
      <trkpt lat="44.16506" lon="7.55124">
        <ele>1386.84</ele>
        <time>2023-03-18T07:45:20Z</time>
      </trkpt>
      <trkpt lat="44.16494" lon="7.55122">
        <ele>1389.72</ele>
        <time>2023-03-18T07:45:35Z</time>
      </trkpt>
      <trkpt lat="44.16485" lon="7.55121">
        <ele>1393.09</ele>
        <time>2023-03-18T07:45:49Z</time>
      </trkpt>
      <trkpt lat="44.16483" lon="7.5512">
        <ele>1393.57</ele>
        <time>2023-03-18T07:46:03Z</time>
      </trkpt>
      <trkpt lat="44.16481" lon="7.55119">
        <ele>1391.65</ele>
        <time>2023-03-18T07:46:28Z</time>
      </trkpt>
      <trkpt lat="44.16481" lon="7.5512">
        <ele>1392.13</ele>
        <time>2023-03-18T07:46:40Z</time>
      </trkpt>
      <trkpt lat="44.16481" lon="7.5512">
        <ele>1393.09</ele>
        <time>2023-03-18T07:46:54Z</time>
      </trkpt>
      <trkpt lat="44.16482" lon="7.55121">
        <ele>1392.13</ele>
        <time>2023-03-18T07:47:14Z</time>
      </trkpt>
      <trkpt lat="44.16484" lon="7.55119">
        <ele>1387.8</ele>
        <time>2023-03-18T07:47:34Z</time>
      </trkpt>
      <trkpt lat="44.16483" lon="7.55118">
        <ele>1388.28</ele>
        <time>2023-03-18T07:47:47Z</time>
      </trkpt>
      <trkpt lat="44.16483" lon="7.55119">
        <ele>1389.24</ele>
        <time>2023-03-18T07:48:04Z</time>
      </trkpt>
      <trkpt lat="44.16477" lon="7.55114">
        <ele>1391.17</ele>
        <time>2023-03-18T07:48:21Z</time>
      </trkpt>
      <trkpt lat="44.16475" lon="7.55112">
        <ele>1391.17</ele>
        <time>2023-03-18T07:48:24Z</time>
      </trkpt>
      <trkpt lat="44.16466" lon="7.55105">
        <ele>1394.05</ele>
        <time>2023-03-18T07:48:38Z</time>
      </trkpt>
      <trkpt lat="44.16457" lon="7.55097">
        <ele>1398.86</ele>
        <time>2023-03-18T07:48:52Z</time>
      </trkpt>
      <trkpt lat="44.16449" lon="7.55093">
        <ele>1404.14</ele>
        <time>2023-03-18T07:49:07Z</time>
      </trkpt>
      <trkpt lat="44.16438" lon="7.55087">
        <ele>1407.51</ele>
        <time>2023-03-18T07:49:22Z</time>
      </trkpt>
      <trkpt lat="44.16434" lon="7.55084">
        <ele>1408.47</ele>
        <time>2023-03-18T07:49:29Z</time>
      </trkpt>
      <trkpt lat="44.16425" lon="7.55082">
        <ele>1411.83</ele>
        <time>2023-03-18T07:49:44Z</time>
      </trkpt>
      <trkpt lat="44.16419" lon="7.55079">
        <ele>1412.79</ele>
        <time>2023-03-18T07:49:56Z</time>
      </trkpt>
      <trkpt lat="44.16411" lon="7.55076">
        <ele>1415.68</ele>
        <time>2023-03-18T07:50:09Z</time>
      </trkpt>
      <trkpt lat="44.16401" lon="7.55076">
        <ele>1420.49</ele>
        <time>2023-03-18T07:50:28Z</time>
      </trkpt>
      <trkpt lat="44.16395" lon="7.55074">
        <ele>1421.93</ele>
        <time>2023-03-18T07:50:40Z</time>
      </trkpt>
      <trkpt lat="44.16385" lon="7.55072">
        <ele>1422.89</ele>
        <time>2023-03-18T07:50:57Z</time>
      </trkpt>
      <trkpt lat="44.16378" lon="7.55073">
        <ele>1422.41</ele>
        <time>2023-03-18T07:51:11Z</time>
      </trkpt>
      <trkpt lat="44.16372" lon="7.55065">
        <ele>1423.37</ele>
        <time>2023-03-18T07:51:26Z</time>
      </trkpt>
      <trkpt lat="44.1637" lon="7.55056">
        <ele>1425.29</ele>
        <time>2023-03-18T07:51:40Z</time>
      </trkpt>
      <trkpt lat="44.16366" lon="7.55042">
        <ele>1430.58</ele>
        <time>2023-03-18T07:51:56Z</time>
      </trkpt>
      <trkpt lat="44.16362" lon="7.55034">
        <ele>1432.02</ele>
        <time>2023-03-18T07:52:07Z</time>
      </trkpt>
      <trkpt lat="44.16359" lon="7.55026">
        <ele>1435.87</ele>
        <time>2023-03-18T07:52:20Z</time>
      </trkpt>
      <trkpt lat="44.16358" lon="7.55018">
        <ele>1440.19</ele>
        <time>2023-03-18T07:52:35Z</time>
      </trkpt>
      <trkpt lat="44.16354" lon="7.55008">
        <ele>1442.11</ele>
        <time>2023-03-18T07:52:50Z</time>
      </trkpt>
      <trkpt lat="44.16352" lon="7.54997">
        <ele>1442.11</ele>
        <time>2023-03-18T07:53:03Z</time>
      </trkpt>
      <trkpt lat="44.16351" lon="7.54985">
        <ele>1444.04</ele>
        <time>2023-03-18T07:53:16Z</time>
      </trkpt>
      <trkpt lat="44.16348" lon="7.5497">
        <ele>1446.92</ele>
        <time>2023-03-18T07:53:31Z</time>
      </trkpt>
      <trkpt lat="44.16344" lon="7.5496">
        <ele>1449.32</ele>
        <time>2023-03-18T07:53:44Z</time>
      </trkpt>
      <trkpt lat="44.16341" lon="7.54945">
        <ele>1453.17</ele>
        <time>2023-03-18T07:54:00Z</time>
      </trkpt>
      <trkpt lat="44.16337" lon="7.54933">
        <ele>1455.57</ele>
        <time>2023-03-18T07:54:16Z</time>
      </trkpt>
      <trkpt lat="44.16333" lon="7.54925">
        <ele>1456.05</ele>
        <time>2023-03-18T07:54:29Z</time>
      </trkpt>
      <trkpt lat="44.16331" lon="7.54918">
        <ele>1459.42</ele>
        <time>2023-03-18T07:54:39Z</time>
      </trkpt>
      <trkpt lat="44.16328" lon="7.54908">
        <ele>1461.82</ele>
        <time>2023-03-18T07:54:52Z</time>
      </trkpt>
      <trkpt lat="44.16325" lon="7.54894">
        <ele>1463.74</ele>
        <time>2023-03-18T07:55:09Z</time>
      </trkpt>
      <trkpt lat="44.16321" lon="7.54884">
        <ele>1466.63</ele>
        <time>2023-03-18T07:55:23Z</time>
      </trkpt>
      <trkpt lat="44.16317" lon="7.54875">
        <ele>1468.07</ele>
        <time>2023-03-18T07:55:34Z</time>
      </trkpt>
      <trkpt lat="44.16315" lon="7.54869">
        <ele>1468.55</ele>
        <time>2023-03-18T07:55:46Z</time>
      </trkpt>
      <trkpt lat="44.16312" lon="7.54862">
        <ele>1468.55</ele>
        <time>2023-03-18T07:55:57Z</time>
      </trkpt>
      <trkpt lat="44.16308" lon="7.54852">
        <ele>1470.47</ele>
        <time>2023-03-18T07:56:08Z</time>
      </trkpt>
      <trkpt lat="44.16304" lon="7.54838">
        <ele>1472.88</ele>
        <time>2023-03-18T07:56:23Z</time>
      </trkpt>
      <trkpt lat="44.163" lon="7.54824">
        <ele>1474.8</ele>
        <time>2023-03-18T07:56:37Z</time>
      </trkpt>
      <trkpt lat="44.16296" lon="7.54814">
        <ele>1475.76</ele>
        <time>2023-03-18T07:56:49Z</time>
      </trkpt>
      <trkpt lat="44.16293" lon="7.54803">
        <ele>1475.28</ele>
        <time>2023-03-18T07:57:03Z</time>
      </trkpt>
      <trkpt lat="44.16291" lon="7.54793">
        <ele>1474.8</ele>
        <time>2023-03-18T07:57:16Z</time>
      </trkpt>
      <trkpt lat="44.1629" lon="7.54781">
        <ele>1474.8</ele>
        <time>2023-03-18T07:57:30Z</time>
      </trkpt>
      <trkpt lat="44.16287" lon="7.54769">
        <ele>1473.84</ele>
        <time>2023-03-18T07:57:44Z</time>
      </trkpt>
      <trkpt lat="44.16283" lon="7.54756">
        <ele>1474.8</ele>
        <time>2023-03-18T07:57:57Z</time>
      </trkpt>
      <trkpt lat="44.16276" lon="7.54748">
        <ele>1473.36</ele>
        <time>2023-03-18T07:58:10Z</time>
      </trkpt>
      <trkpt lat="44.1627" lon="7.54737">
        <ele>1474.8</ele>
        <time>2023-03-18T07:58:24Z</time>
      </trkpt>
      <trkpt lat="44.16259" lon="7.54721">
        <ele>1480.09</ele>
        <time>2023-03-18T07:58:41Z</time>
      </trkpt>
      <trkpt lat="44.16253" lon="7.54711">
        <ele>1484.89</ele>
        <time>2023-03-18T07:58:52Z</time>
      </trkpt>
      <trkpt lat="44.16248" lon="7.54696">
        <ele>1491.14</ele>
        <time>2023-03-18T07:59:05Z</time>
      </trkpt>
      <trkpt lat="44.16243" lon="7.54681">
        <ele>1494.03</ele>
        <time>2023-03-18T07:59:20Z</time>
      </trkpt>
      <trkpt lat="44.16239" lon="7.54671">
        <ele>1496.43</ele>
        <time>2023-03-18T07:59:30Z</time>
      </trkpt>
      <trkpt lat="44.16235" lon="7.5466">
        <ele>1496.91</ele>
        <time>2023-03-18T07:59:42Z</time>
      </trkpt>
      <trkpt lat="44.16232" lon="7.54647">
        <ele>1497.87</ele>
        <time>2023-03-18T07:59:55Z</time>
      </trkpt>
      <trkpt lat="44.16231" lon="7.54631">
        <ele>1499.31</ele>
        <time>2023-03-18T08:00:10Z</time>
      </trkpt>
      <trkpt lat="44.16226" lon="7.5462">
        <ele>1498.83</ele>
        <time>2023-03-18T08:00:24Z</time>
      </trkpt>
      <trkpt lat="44.16221" lon="7.54602">
        <ele>1500.27</ele>
        <time>2023-03-18T08:00:41Z</time>
      </trkpt>
      <trkpt lat="44.16215" lon="7.54591">
        <ele>1503.16</ele>
        <time>2023-03-18T08:00:57Z</time>
      </trkpt>
      <trkpt lat="44.16212" lon="7.54577">
        <ele>1504.6</ele>
        <time>2023-03-18T08:01:12Z</time>
      </trkpt>
      <trkpt lat="44.16204" lon="7.54566">
        <ele>1507</ele>
        <time>2023-03-18T08:01:27Z</time>
      </trkpt>
      <trkpt lat="44.16199" lon="7.54557">
        <ele>1507.48</ele>
        <time>2023-03-18T08:01:42Z</time>
      </trkpt>
      <trkpt lat="44.16191" lon="7.54548">
        <ele>1509.89</ele>
        <time>2023-03-18T08:01:56Z</time>
      </trkpt>
      <trkpt lat="44.16184" lon="7.54536">
        <ele>1512.29</ele>
        <time>2023-03-18T08:02:11Z</time>
      </trkpt>
      <trkpt lat="44.16176" lon="7.54531">
        <ele>1512.77</ele>
        <time>2023-03-18T08:02:25Z</time>
      </trkpt>
      <trkpt lat="44.16169" lon="7.54524">
        <ele>1514.21</ele>
        <time>2023-03-18T08:02:37Z</time>
      </trkpt>
      <trkpt lat="44.1616" lon="7.54518">
        <ele>1514.21</ele>
        <time>2023-03-18T08:02:51Z</time>
      </trkpt>
      <trkpt lat="44.16155" lon="7.54514">
        <ele>1513.73</ele>
        <time>2023-03-18T08:03:00Z</time>
      </trkpt>
      <trkpt lat="44.16145" lon="7.54497">
        <ele>1517.1</ele>
        <time>2023-03-18T08:03:15Z</time>
      </trkpt>
      <trkpt lat="44.16139" lon="7.54482">
        <ele>1519.98</ele>
        <time>2023-03-18T08:03:29Z</time>
      </trkpt>
      <trkpt lat="44.16135" lon="7.5447">
        <ele>1521.9</ele>
        <time>2023-03-18T08:03:40Z</time>
      </trkpt>
      <trkpt lat="44.16135" lon="7.54468">
        <ele>1521.9</ele>
        <time>2023-03-18T08:03:41Z</time>
      </trkpt>
      <trkpt lat="44.16134" lon="7.54459">
        <ele>1522.87</ele>
        <time>2023-03-18T08:03:49Z</time>
      </trkpt>
      <trkpt lat="44.16132" lon="7.54451">
        <ele>1522.87</ele>
        <time>2023-03-18T08:03:58Z</time>
      </trkpt>
      <trkpt lat="44.16131" lon="7.54436">
        <ele>1523.35</ele>
        <time>2023-03-18T08:04:11Z</time>
      </trkpt>
      <trkpt lat="44.16131" lon="7.54435">
        <ele>1523.35</ele>
        <time>2023-03-18T08:04:12Z</time>
      </trkpt>
      <trkpt lat="44.1613" lon="7.5443">
        <ele>1523.35</ele>
        <time>2023-03-18T08:04:16Z</time>
      </trkpt>
      <trkpt lat="44.16128" lon="7.54416">
        <ele>1523.35</ele>
        <time>2023-03-18T08:04:27Z</time>
      </trkpt>
      <trkpt lat="44.16128" lon="7.54413">
        <ele>1523.83</ele>
        <time>2023-03-18T08:04:29Z</time>
      </trkpt>
      <trkpt lat="44.16125" lon="7.54404">
        <ele>1524.79</ele>
        <time>2023-03-18T08:04:37Z</time>
      </trkpt>
      <trkpt lat="44.16123" lon="7.54386">
        <ele>1524.79</ele>
        <time>2023-03-18T08:04:51Z</time>
      </trkpt>
      <trkpt lat="44.16123" lon="7.54369">
        <ele>1524.79</ele>
        <time>2023-03-18T08:05:04Z</time>
      </trkpt>
      <trkpt lat="44.16122" lon="7.5435">
        <ele>1525.27</ele>
        <time>2023-03-18T08:05:19Z</time>
      </trkpt>
      <trkpt lat="44.1612" lon="7.54332">
        <ele>1525.27</ele>
        <time>2023-03-18T08:05:35Z</time>
      </trkpt>
      <trkpt lat="44.16121" lon="7.54308">
        <ele>1524.79</ele>
        <time>2023-03-18T08:05:52Z</time>
      </trkpt>
      <trkpt lat="44.16121" lon="7.54289">
        <ele>1525.27</ele>
        <time>2023-03-18T08:06:05Z</time>
      </trkpt>
      <trkpt lat="44.16119" lon="7.54281">
        <ele>1526.23</ele>
        <time>2023-03-18T08:06:12Z</time>
      </trkpt>
      <trkpt lat="44.16113" lon="7.54265">
        <ele>1527.19</ele>
        <time>2023-03-18T08:06:27Z</time>
      </trkpt>
      <trkpt lat="44.16104" lon="7.54246">
        <ele>1526.71</ele>
        <time>2023-03-18T08:06:42Z</time>
      </trkpt>
      <trkpt lat="44.16097" lon="7.54233">
        <ele>1524.79</ele>
        <time>2023-03-18T08:06:55Z</time>
      </trkpt>
      <trkpt lat="44.16087" lon="7.54217">
        <ele>1527.67</ele>
        <time>2023-03-18T08:07:09Z</time>
      </trkpt>
      <trkpt lat="44.16078" lon="7.54201">
        <ele>1529.11</ele>
        <time>2023-03-18T08:07:24Z</time>
      </trkpt>
      <trkpt lat="44.1607" lon="7.54186">
        <ele>1532.96</ele>
        <time>2023-03-18T08:07:37Z</time>
      </trkpt>
      <trkpt lat="44.16069" lon="7.54185">
        <ele>1533.44</ele>
        <time>2023-03-18T08:07:38Z</time>
      </trkpt>
      <trkpt lat="44.16065" lon="7.5418">
        <ele>1533.92</ele>
        <time>2023-03-18T08:07:45Z</time>
      </trkpt>
      <trkpt lat="44.16056" lon="7.5416">
        <ele>1530.56</ele>
        <time>2023-03-18T08:08:02Z</time>
      </trkpt>
      <trkpt lat="44.16055" lon="7.54156">
        <ele>1530.08</ele>
        <time>2023-03-18T08:08:05Z</time>
      </trkpt>
      <trkpt lat="44.16051" lon="7.54128">
        <ele>1527.67</ele>
        <time>2023-03-18T08:08:23Z</time>
      </trkpt>
      <trkpt lat="44.16042" lon="7.54111">
        <ele>1526.71</ele>
        <time>2023-03-18T08:08:38Z</time>
      </trkpt>
      <trkpt lat="44.16033" lon="7.54101">
        <ele>1527.67</ele>
        <time>2023-03-18T08:08:50Z</time>
      </trkpt>
      <trkpt lat="44.1602" lon="7.54093">
        <ele>1530.08</ele>
        <time>2023-03-18T08:09:04Z</time>
      </trkpt>
      <trkpt lat="44.16009" lon="7.54088">
        <ele>1532</ele>
        <time>2023-03-18T08:09:16Z</time>
      </trkpt>
      <trkpt lat="44.15997" lon="7.54084">
        <ele>1534.4</ele>
        <time>2023-03-18T08:09:28Z</time>
      </trkpt>
      <trkpt lat="44.15992" lon="7.54077">
        <ele>1536.32</ele>
        <time>2023-03-18T08:09:37Z</time>
      </trkpt>
      <trkpt lat="44.15984" lon="7.54061">
        <ele>1538.73</ele>
        <time>2023-03-18T08:09:52Z</time>
      </trkpt>
      <trkpt lat="44.15982" lon="7.54047">
        <ele>1538.73</ele>
        <time>2023-03-18T08:10:04Z</time>
      </trkpt>
      <trkpt lat="44.15988" lon="7.54028">
        <ele>1539.69</ele>
        <time>2023-03-18T08:10:20Z</time>
      </trkpt>
      <trkpt lat="44.15991" lon="7.54022">
        <ele>1539.21</ele>
        <time>2023-03-18T08:10:25Z</time>
      </trkpt>
      <trkpt lat="44.15998" lon="7.54004">
        <ele>1537.77</ele>
        <time>2023-03-18T08:10:39Z</time>
      </trkpt>
      <trkpt lat="44.16001" lon="7.53992">
        <ele>1538.25</ele>
        <time>2023-03-18T08:10:52Z</time>
      </trkpt>
      <trkpt lat="44.16002" lon="7.53975">
        <ele>1540.65</ele>
        <time>2023-03-18T08:11:06Z</time>
      </trkpt>
      <trkpt lat="44.15999" lon="7.53963">
        <ele>1539.21</ele>
        <time>2023-03-18T08:11:18Z</time>
      </trkpt>
      <trkpt lat="44.15991" lon="7.53955">
        <ele>1539.21</ele>
        <time>2023-03-18T08:11:31Z</time>
      </trkpt>
      <trkpt lat="44.15986" lon="7.53949">
        <ele>1538.73</ele>
        <time>2023-03-18T08:11:40Z</time>
      </trkpt>
      <trkpt lat="44.15981" lon="7.53944">
        <ele>1538.73</ele>
        <time>2023-03-18T08:11:48Z</time>
      </trkpt>
      <trkpt lat="44.15974" lon="7.53934">
        <ele>1537.77</ele>
        <time>2023-03-18T08:12:01Z</time>
      </trkpt>
      <trkpt lat="44.15965" lon="7.53923">
        <ele>1540.65</ele>
        <time>2023-03-18T08:12:15Z</time>
      </trkpt>
      <trkpt lat="44.15956" lon="7.53913">
        <ele>1543.53</ele>
        <time>2023-03-18T08:12:28Z</time>
      </trkpt>
      <trkpt lat="44.15946" lon="7.53903">
        <ele>1546.9</ele>
        <time>2023-03-18T08:12:42Z</time>
      </trkpt>
      <trkpt lat="44.15941" lon="7.53896">
        <ele>1548.82</ele>
        <time>2023-03-18T08:12:49Z</time>
      </trkpt>
      <trkpt lat="44.15932" lon="7.53883">
        <ele>1550.74</ele>
        <time>2023-03-18T08:13:04Z</time>
      </trkpt>
      <trkpt lat="44.15922" lon="7.53872">
        <ele>1554.59</ele>
        <time>2023-03-18T08:13:19Z</time>
      </trkpt>
      <trkpt lat="44.15914" lon="7.53862">
        <ele>1558.43</ele>
        <time>2023-03-18T08:13:32Z</time>
      </trkpt>
      <trkpt lat="44.15905" lon="7.53854">
        <ele>1560.84</ele>
        <time>2023-03-18T08:13:47Z</time>
      </trkpt>
      <trkpt lat="44.15897" lon="7.53849">
        <ele>1560.84</ele>
        <time>2023-03-18T08:14:01Z</time>
      </trkpt>
      <trkpt lat="44.15889" lon="7.53848">
        <ele>1557.95</ele>
        <time>2023-03-18T08:14:14Z</time>
      </trkpt>
      <trkpt lat="44.1588" lon="7.53849">
        <ele>1556.51</ele>
        <time>2023-03-18T08:14:29Z</time>
      </trkpt>
      <trkpt lat="44.15872" lon="7.53851">
        <ele>1555.55</ele>
        <time>2023-03-18T08:14:43Z</time>
      </trkpt>
      <trkpt lat="44.15864" lon="7.53847">
        <ele>1556.03</ele>
        <time>2023-03-18T08:14:56Z</time>
      </trkpt>
      <trkpt lat="44.15855" lon="7.53842">
        <ele>1557.47</ele>
        <time>2023-03-18T08:15:10Z</time>
      </trkpt>
      <trkpt lat="44.15845" lon="7.53841">
        <ele>1563.72</ele>
        <time>2023-03-18T08:15:22Z</time>
      </trkpt>
      <trkpt lat="44.15837" lon="7.5384">
        <ele>1568.53</ele>
        <time>2023-03-18T08:15:30Z</time>
      </trkpt>
      <trkpt lat="44.15826" lon="7.53841">
        <ele>1568.53</ele>
        <time>2023-03-18T08:15:44Z</time>
      </trkpt>
      <trkpt lat="44.15815" lon="7.53839">
        <ele>1570.93</ele>
        <time>2023-03-18T08:15:59Z</time>
      </trkpt>
      <trkpt lat="44.15804" lon="7.53839">
        <ele>1570.45</ele>
        <time>2023-03-18T08:16:12Z</time>
      </trkpt>
      <trkpt lat="44.15792" lon="7.53836">
        <ele>1567.57</ele>
        <time>2023-03-18T08:16:26Z</time>
      </trkpt>
      <trkpt lat="44.15782" lon="7.53832">
        <ele>1563.72</ele>
        <time>2023-03-18T08:16:39Z</time>
      </trkpt>
      <trkpt lat="44.15773" lon="7.5383">
        <ele>1562.28</ele>
        <time>2023-03-18T08:16:52Z</time>
      </trkpt>
      <trkpt lat="44.15768" lon="7.53828">
        <ele>1561.32</ele>
        <time>2023-03-18T08:17:06Z</time>
      </trkpt>
      <trkpt lat="44.15759" lon="7.53828">
        <ele>1561.32</ele>
        <time>2023-03-18T08:17:20Z</time>
      </trkpt>
      <trkpt lat="44.15751" lon="7.5382">
        <ele>1563.24</ele>
        <time>2023-03-18T08:17:34Z</time>
      </trkpt>
      <trkpt lat="44.15747" lon="7.53807">
        <ele>1566.12</ele>
        <time>2023-03-18T08:17:49Z</time>
      </trkpt>
      <trkpt lat="44.15737" lon="7.53801">
        <ele>1565.64</ele>
        <time>2023-03-18T08:18:04Z</time>
      </trkpt>
      <trkpt lat="44.15728" lon="7.53807">
        <ele>1564.2</ele>
        <time>2023-03-18T08:18:17Z</time>
      </trkpt>
      <trkpt lat="44.15716" lon="7.53816">
        <ele>1571.41</ele>
        <time>2023-03-18T08:18:31Z</time>
      </trkpt>
      <trkpt lat="44.157" lon="7.53816">
        <ele>1577.66</ele>
        <time>2023-03-18T08:18:46Z</time>
      </trkpt>
      <trkpt lat="44.15696" lon="7.53814">
        <ele>1579.1</ele>
        <time>2023-03-18T08:18:52Z</time>
      </trkpt>
      <trkpt lat="44.15682" lon="7.53807">
        <ele>1581.51</ele>
        <time>2023-03-18T08:19:08Z</time>
      </trkpt>
      <trkpt lat="44.15676" lon="7.53802">
        <ele>1583.91</ele>
        <time>2023-03-18T08:19:17Z</time>
      </trkpt>
      <trkpt lat="44.15666" lon="7.53791">
        <ele>1587.75</ele>
        <time>2023-03-18T08:19:32Z</time>
      </trkpt>
      <trkpt lat="44.15659" lon="7.5378">
        <ele>1589.2</ele>
        <time>2023-03-18T08:19:47Z</time>
      </trkpt>
      <trkpt lat="44.15661" lon="7.53778">
        <ele>1588.24</ele>
        <time>2023-03-18T08:19:50Z</time>
      </trkpt>
      <trkpt lat="44.15673" lon="7.53768">
        <ele>1587.27</ele>
        <time>2023-03-18T08:20:05Z</time>
      </trkpt>
      <trkpt lat="44.15685" lon="7.53767">
        <ele>1588.72</ele>
        <time>2023-03-18T08:20:19Z</time>
      </trkpt>
      <trkpt lat="44.15694" lon="7.53765">
        <ele>1590.16</ele>
        <time>2023-03-18T08:20:32Z</time>
      </trkpt>
      <trkpt lat="44.15702" lon="7.53759">
        <ele>1591.6</ele>
        <time>2023-03-18T08:20:44Z</time>
      </trkpt>
      <trkpt lat="44.15702" lon="7.53748">
        <ele>1591.6</ele>
        <time>2023-03-18T08:20:58Z</time>
      </trkpt>
      <trkpt lat="44.15691" lon="7.5374">
        <ele>1593.52</ele>
        <time>2023-03-18T08:21:13Z</time>
      </trkpt>
      <trkpt lat="44.15681" lon="7.53736">
        <ele>1596.89</ele>
        <time>2023-03-18T08:21:27Z</time>
      </trkpt>
      <trkpt lat="44.15671" lon="7.53734">
        <ele>1601.21</ele>
        <time>2023-03-18T08:21:41Z</time>
      </trkpt>
      <trkpt lat="44.15662" lon="7.53725">
        <ele>1605.06</ele>
        <time>2023-03-18T08:21:56Z</time>
      </trkpt>
      <trkpt lat="44.15656" lon="7.53716">
        <ele>1606.02</ele>
        <time>2023-03-18T08:22:08Z</time>
      </trkpt>
      <trkpt lat="44.15652" lon="7.53709">
        <ele>1606.02</ele>
        <time>2023-03-18T08:22:20Z</time>
      </trkpt>
      <trkpt lat="44.15651" lon="7.53708">
        <ele>1606.02</ele>
        <time>2023-03-18T08:22:24Z</time>
      </trkpt>
      <trkpt lat="44.15647" lon="7.53704">
        <ele>1606.5</ele>
        <time>2023-03-18T08:22:31Z</time>
      </trkpt>
      <trkpt lat="44.15644" lon="7.53699">
        <ele>1606.98</ele>
        <time>2023-03-18T08:22:38Z</time>
      </trkpt>
      <trkpt lat="44.15641" lon="7.53695">
        <ele>1606.5</ele>
        <time>2023-03-18T08:22:44Z</time>
      </trkpt>
      <trkpt lat="44.15638" lon="7.53687">
        <ele>1607.46</ele>
        <time>2023-03-18T08:22:56Z</time>
      </trkpt>
      <trkpt lat="44.15635" lon="7.53674">
        <ele>1608.9</ele>
        <time>2023-03-18T08:23:10Z</time>
      </trkpt>
      <trkpt lat="44.15632" lon="7.53666">
        <ele>1609.86</ele>
        <time>2023-03-18T08:23:19Z</time>
      </trkpt>
      <trkpt lat="44.15624" lon="7.53657">
        <ele>1611.31</ele>
        <time>2023-03-18T08:23:33Z</time>
      </trkpt>
      <trkpt lat="44.15622" lon="7.53655">
        <ele>1612.27</ele>
        <time>2023-03-18T08:23:36Z</time>
      </trkpt>
      <trkpt lat="44.15619" lon="7.53643">
        <ele>1614.67</ele>
        <time>2023-03-18T08:23:50Z</time>
      </trkpt>
      <trkpt lat="44.15621" lon="7.53636">
        <ele>1615.15</ele>
        <time>2023-03-18T08:24:02Z</time>
      </trkpt>
      <trkpt lat="44.15626" lon="7.53634">
        <ele>1615.63</ele>
        <time>2023-03-18T08:24:15Z</time>
      </trkpt>
      <trkpt lat="44.15635" lon="7.53635">
        <ele>1616.11</ele>
        <time>2023-03-18T08:24:26Z</time>
      </trkpt>
      <trkpt lat="44.15644" lon="7.53641">
        <ele>1617.07</ele>
        <time>2023-03-18T08:24:38Z</time>
      </trkpt>
      <trkpt lat="44.15646" lon="7.53642">
        <ele>1617.07</ele>
        <time>2023-03-18T08:24:40Z</time>
      </trkpt>
      <trkpt lat="44.15655" lon="7.53645">
        <ele>1617.56</ele>
        <time>2023-03-18T08:24:53Z</time>
      </trkpt>
      <trkpt lat="44.15665" lon="7.53651">
        <ele>1618.04</ele>
        <time>2023-03-18T08:25:06Z</time>
      </trkpt>
      <trkpt lat="44.15674" lon="7.53656">
        <ele>1619</ele>
        <time>2023-03-18T08:25:19Z</time>
      </trkpt>
      <trkpt lat="44.15685" lon="7.53661">
        <ele>1622.84</ele>
        <time>2023-03-18T08:25:32Z</time>
      </trkpt>
      <trkpt lat="44.15694" lon="7.5365">
        <ele>1621.88</ele>
        <time>2023-03-18T08:25:45Z</time>
      </trkpt>
      <trkpt lat="44.15686" lon="7.5364">
        <ele>1623.32</ele>
        <time>2023-03-18T08:25:59Z</time>
      </trkpt>
      <trkpt lat="44.15676" lon="7.53632">
        <ele>1626.21</ele>
        <time>2023-03-18T08:26:13Z</time>
      </trkpt>
      <trkpt lat="44.15668" lon="7.53619">
        <ele>1629.57</ele>
        <time>2023-03-18T08:26:29Z</time>
      </trkpt>
      <trkpt lat="44.15665" lon="7.53617">
        <ele>1629.57</ele>
        <time>2023-03-18T08:26:34Z</time>
      </trkpt>
      <trkpt lat="44.15658" lon="7.53608">
        <ele>1632.46</ele>
        <time>2023-03-18T08:26:46Z</time>
      </trkpt>
      <trkpt lat="44.15656" lon="7.53605">
        <ele>1633.42</ele>
        <time>2023-03-18T08:26:50Z</time>
      </trkpt>
      <trkpt lat="44.15652" lon="7.53597">
        <ele>1634.38</ele>
        <time>2023-03-18T08:27:01Z</time>
      </trkpt>
      <trkpt lat="44.15651" lon="7.53595">
        <ele>1634.86</ele>
        <time>2023-03-18T08:27:04Z</time>
      </trkpt>
      <trkpt lat="44.15642" lon="7.5359">
        <ele>1635.82</ele>
        <time>2023-03-18T08:27:15Z</time>
      </trkpt>
      <trkpt lat="44.15638" lon="7.53583">
        <ele>1636.78</ele>
        <time>2023-03-18T08:27:23Z</time>
      </trkpt>
      <trkpt lat="44.15639" lon="7.53577">
        <ele>1637.26</ele>
        <time>2023-03-18T08:27:29Z</time>
      </trkpt>
      <trkpt lat="44.15639" lon="7.53563">
        <ele>1638.22</ele>
        <time>2023-03-18T08:27:41Z</time>
      </trkpt>
      <trkpt lat="44.15637" lon="7.53556">
        <ele>1639.19</ele>
        <time>2023-03-18T08:27:47Z</time>
      </trkpt>
      <trkpt lat="44.15637" lon="7.53553">
        <ele>1639.19</ele>
        <time>2023-03-18T08:27:49Z</time>
      </trkpt>
      <trkpt lat="44.15631" lon="7.53554">
        <ele>1638.7</ele>
        <time>2023-03-18T08:27:53Z</time>
      </trkpt>
      <trkpt lat="44.15632" lon="7.53542">
        <ele>1640.63</ele>
        <time>2023-03-18T08:28:03Z</time>
      </trkpt>
      <trkpt lat="44.15628" lon="7.53541">
        <ele>1641.59</ele>
        <time>2023-03-18T08:28:08Z</time>
      </trkpt>
      <trkpt lat="44.15627" lon="7.53539">
        <ele>1641.59</ele>
        <time>2023-03-18T08:28:10Z</time>
      </trkpt>
      <trkpt lat="44.15623" lon="7.5353">
        <ele>1641.59</ele>
        <time>2023-03-18T08:28:20Z</time>
      </trkpt>
      <trkpt lat="44.15624" lon="7.53524">
        <ele>1643.03</ele>
        <time>2023-03-18T08:28:26Z</time>
      </trkpt>
      <trkpt lat="44.15625" lon="7.53519">
        <ele>1645.43</ele>
        <time>2023-03-18T08:28:31Z</time>
      </trkpt>
      <trkpt lat="44.15625" lon="7.53505">
        <ele>1644.47</ele>
        <time>2023-03-18T08:28:43Z</time>
      </trkpt>
      <trkpt lat="44.15622" lon="7.53493">
        <ele>1644.95</ele>
        <time>2023-03-18T08:28:55Z</time>
      </trkpt>
      <trkpt lat="44.1562" lon="7.53485">
        <ele>1645.43</ele>
        <time>2023-03-18T08:29:03Z</time>
      </trkpt>
      <trkpt lat="44.1562" lon="7.5348">
        <ele>1646.4</ele>
        <time>2023-03-18T08:29:08Z</time>
      </trkpt>
      <trkpt lat="44.15621" lon="7.53475">
        <ele>1646.88</ele>
        <time>2023-03-18T08:29:12Z</time>
      </trkpt>
      <trkpt lat="44.15622" lon="7.5346">
        <ele>1646.88</ele>
        <time>2023-03-18T08:29:24Z</time>
      </trkpt>
      <trkpt lat="44.15622" lon="7.53455">
        <ele>1645.91</ele>
        <time>2023-03-18T08:29:28Z</time>
      </trkpt>
      <trkpt lat="44.15622" lon="7.53449">
        <ele>1645.91</ele>
        <time>2023-03-18T08:29:33Z</time>
      </trkpt>
      <trkpt lat="44.15622" lon="7.53439">
        <ele>1646.88</ele>
        <time>2023-03-18T08:29:41Z</time>
      </trkpt>
      <trkpt lat="44.1562" lon="7.53428">
        <ele>1647.36</ele>
        <time>2023-03-18T08:29:49Z</time>
      </trkpt>
      <trkpt lat="44.15619" lon="7.53411">
        <ele>1648.8</ele>
        <time>2023-03-18T08:30:03Z</time>
      </trkpt>
      <trkpt lat="44.15621" lon="7.53393">
        <ele>1648.8</ele>
        <time>2023-03-18T08:30:20Z</time>
      </trkpt>
      <trkpt lat="44.15621" lon="7.53375">
        <ele>1649.28</ele>
        <time>2023-03-18T08:30:34Z</time>
      </trkpt>
      <trkpt lat="44.15619" lon="7.53359">
        <ele>1647.36</ele>
        <time>2023-03-18T08:30:49Z</time>
      </trkpt>
      <trkpt lat="44.1563" lon="7.5335">
        <ele>1644.95</ele>
        <time>2023-03-18T08:31:03Z</time>
      </trkpt>
      <trkpt lat="44.15632" lon="7.53351">
        <ele>1646.4</ele>
        <time>2023-03-18T08:31:18Z</time>
      </trkpt>
      <trkpt lat="44.15631" lon="7.53348">
        <ele>1642.07</ele>
        <time>2023-03-18T08:31:35Z</time>
      </trkpt>
      <trkpt lat="44.15631" lon="7.53348">
        <ele>1639.19</ele>
        <time>2023-03-18T08:31:58Z</time>
      </trkpt>
      <trkpt lat="44.15627" lon="7.53352">
        <ele>1642.07</ele>
        <time>2023-03-18T08:32:32Z</time>
      </trkpt>
      <trkpt lat="44.15627" lon="7.53349">
        <ele>1641.59</ele>
        <time>2023-03-18T08:32:56Z</time>
      </trkpt>
      <trkpt lat="44.15627" lon="7.5335">
        <ele>1642.07</ele>
        <time>2023-03-18T08:33:15Z</time>
      </trkpt>
      <trkpt lat="44.15627" lon="7.53349">
        <ele>1643.03</ele>
        <time>2023-03-18T08:33:43Z</time>
      </trkpt>
      <trkpt lat="44.15629" lon="7.53348">
        <ele>1643.99</ele>
        <time>2023-03-18T08:34:05Z</time>
      </trkpt>
      <trkpt lat="44.15628" lon="7.5335">
        <ele>1644.47</ele>
        <time>2023-03-18T08:34:27Z</time>
      </trkpt>
      <trkpt lat="44.15628" lon="7.5335">
        <ele>1645.43</ele>
        <time>2023-03-18T08:34:41Z</time>
      </trkpt>
      <trkpt lat="44.15629" lon="7.5335">
        <ele>1644.47</ele>
        <time>2023-03-18T08:34:55Z</time>
      </trkpt>
      <trkpt lat="44.15631" lon="7.53352">
        <ele>1645.43</ele>
        <time>2023-03-18T08:35:10Z</time>
      </trkpt>
      <trkpt lat="44.15636" lon="7.53354">
        <ele>1649.28</ele>
        <time>2023-03-18T08:35:22Z</time>
      </trkpt>
      <trkpt lat="44.1564" lon="7.53358">
        <ele>1651.2</ele>
        <time>2023-03-18T08:35:36Z</time>
      </trkpt>
      <trkpt lat="44.15646" lon="7.53353">
        <ele>1651.68</ele>
        <time>2023-03-18T08:35:52Z</time>
      </trkpt>
      <trkpt lat="44.15646" lon="7.53365">
        <ele>1652.16</ele>
        <time>2023-03-18T08:36:05Z</time>
      </trkpt>
      <trkpt lat="44.15651" lon="7.53371">
        <ele>1654.57</ele>
        <time>2023-03-18T08:36:21Z</time>
      </trkpt>
      <trkpt lat="44.15655" lon="7.53357">
        <ele>1656.97</ele>
        <time>2023-03-18T08:36:37Z</time>
      </trkpt>
      <trkpt lat="44.15661" lon="7.53354">
        <ele>1656.49</ele>
        <time>2023-03-18T08:36:54Z</time>
      </trkpt>
      <trkpt lat="44.15664" lon="7.53362">
        <ele>1656.01</ele>
        <time>2023-03-18T08:37:06Z</time>
      </trkpt>
      <trkpt lat="44.15667" lon="7.53368">
        <ele>1657.45</ele>
        <time>2023-03-18T08:37:20Z</time>
      </trkpt>
      <trkpt lat="44.1567" lon="7.53375">
        <ele>1658.41</ele>
        <time>2023-03-18T08:37:32Z</time>
      </trkpt>
      <trkpt lat="44.15675" lon="7.53383">
        <ele>1660.81</ele>
        <time>2023-03-18T08:37:43Z</time>
      </trkpt>
      <trkpt lat="44.15681" lon="7.53374">
        <ele>1664.18</ele>
        <time>2023-03-18T08:37:57Z</time>
      </trkpt>
      <trkpt lat="44.15686" lon="7.53369">
        <ele>1666.58</ele>
        <time>2023-03-18T08:38:14Z</time>
      </trkpt>
      <trkpt lat="44.15693" lon="7.53369">
        <ele>1669.47</ele>
        <time>2023-03-18T08:38:30Z</time>
      </trkpt>
      <trkpt lat="44.15699" lon="7.53373">
        <ele>1671.39</ele>
        <time>2023-03-18T08:38:44Z</time>
      </trkpt>
      <trkpt lat="44.15703" lon="7.53369">
        <ele>1672.83</ele>
        <time>2023-03-18T08:38:56Z</time>
      </trkpt>
      <trkpt lat="44.15706" lon="7.53376">
        <ele>1673.31</ele>
        <time>2023-03-18T08:39:07Z</time>
      </trkpt>
      <trkpt lat="44.15709" lon="7.53381">
        <ele>1673.79</ele>
        <time>2023-03-18T08:39:20Z</time>
      </trkpt>
      <trkpt lat="44.15712" lon="7.53388">
        <ele>1673.31</ele>
        <time>2023-03-18T08:39:32Z</time>
      </trkpt>
      <trkpt lat="44.15716" lon="7.53392">
        <ele>1673.79</ele>
        <time>2023-03-18T08:39:43Z</time>
      </trkpt>
      <trkpt lat="44.1572" lon="7.53396">
        <ele>1676.2</ele>
        <time>2023-03-18T08:39:55Z</time>
      </trkpt>
      <trkpt lat="44.15728" lon="7.53404">
        <ele>1680.52</ele>
        <time>2023-03-18T08:40:13Z</time>
      </trkpt>
      <trkpt lat="44.15735" lon="7.53409">
        <ele>1682.44</ele>
        <time>2023-03-18T08:40:26Z</time>
      </trkpt>
      <trkpt lat="44.15741" lon="7.53415">
        <ele>1683.89</ele>
        <time>2023-03-18T08:40:39Z</time>
      </trkpt>
      <trkpt lat="44.15748" lon="7.53416">
        <ele>1687.25</ele>
        <time>2023-03-18T08:40:54Z</time>
      </trkpt>
      <trkpt lat="44.15754" lon="7.53414">
        <ele>1689.17</ele>
        <time>2023-03-18T08:41:06Z</time>
      </trkpt>
      <trkpt lat="44.15758" lon="7.53406">
        <ele>1690.62</ele>
        <time>2023-03-18T08:41:18Z</time>
      </trkpt>
      <trkpt lat="44.15764" lon="7.53407">
        <ele>1692.54</ele>
        <time>2023-03-18T08:41:31Z</time>
      </trkpt>
      <trkpt lat="44.15768" lon="7.53407">
        <ele>1694.46</ele>
        <time>2023-03-18T08:41:46Z</time>
      </trkpt>
      <trkpt lat="44.15772" lon="7.53412">
        <ele>1693.98</ele>
        <time>2023-03-18T08:42:02Z</time>
      </trkpt>
      <trkpt lat="44.15777" lon="7.53409">
        <ele>1693.98</ele>
        <time>2023-03-18T08:42:21Z</time>
      </trkpt>
      <trkpt lat="44.15782" lon="7.53408">
        <ele>1695.42</ele>
        <time>2023-03-18T08:42:33Z</time>
      </trkpt>
      <trkpt lat="44.15791" lon="7.53413">
        <ele>1696.38</ele>
        <time>2023-03-18T08:42:49Z</time>
      </trkpt>
      <trkpt lat="44.15795" lon="7.53415">
        <ele>1696.86</ele>
        <time>2023-03-18T08:42:55Z</time>
      </trkpt>
      <trkpt lat="44.15804" lon="7.53415">
        <ele>1695.42</ele>
        <time>2023-03-18T08:43:09Z</time>
      </trkpt>
      <trkpt lat="44.1581" lon="7.53412">
        <ele>1697.83</ele>
        <time>2023-03-18T08:43:24Z</time>
      </trkpt>
      <trkpt lat="44.15807" lon="7.534">
        <ele>1699.75</ele>
        <time>2023-03-18T08:43:37Z</time>
      </trkpt>
      <trkpt lat="44.15813" lon="7.53389">
        <ele>1701.19</ele>
        <time>2023-03-18T08:43:52Z</time>
      </trkpt>
      <trkpt lat="44.15821" lon="7.53381">
        <ele>1700.71</ele>
        <time>2023-03-18T08:44:04Z</time>
      </trkpt>
      <trkpt lat="44.15836" lon="7.53377">
        <ele>1700.71</ele>
        <time>2023-03-18T08:44:21Z</time>
      </trkpt>
      <trkpt lat="44.15845" lon="7.53378">
        <ele>1701.67</ele>
        <time>2023-03-18T08:44:36Z</time>
      </trkpt>
      <trkpt lat="44.15852" lon="7.5338">
        <ele>1702.63</ele>
        <time>2023-03-18T08:44:49Z</time>
      </trkpt>
      <trkpt lat="44.15859" lon="7.53384">
        <ele>1704.07</ele>
        <time>2023-03-18T08:45:03Z</time>
      </trkpt>
      <trkpt lat="44.15866" lon="7.53379">
        <ele>1704.55</ele>
        <time>2023-03-18T08:45:18Z</time>
      </trkpt>
      <trkpt lat="44.1587" lon="7.5338">
        <ele>1706.48</ele>
        <time>2023-03-18T08:45:31Z</time>
      </trkpt>
      <trkpt lat="44.15875" lon="7.53383">
        <ele>1707.44</ele>
        <time>2023-03-18T08:45:45Z</time>
      </trkpt>
      <trkpt lat="44.15881" lon="7.53386">
        <ele>1709.84</ele>
        <time>2023-03-18T08:46:00Z</time>
      </trkpt>
      <trkpt lat="44.15888" lon="7.53393">
        <ele>1711.28</ele>
        <time>2023-03-18T08:46:15Z</time>
      </trkpt>
      <trkpt lat="44.15893" lon="7.53397">
        <ele>1713.69</ele>
        <time>2023-03-18T08:46:27Z</time>
      </trkpt>
      <trkpt lat="44.15898" lon="7.53401">
        <ele>1714.65</ele>
        <time>2023-03-18T08:46:40Z</time>
      </trkpt>
      <trkpt lat="44.15905" lon="7.53406">
        <ele>1715.61</ele>
        <time>2023-03-18T08:46:54Z</time>
      </trkpt>
      <trkpt lat="44.15911" lon="7.53412">
        <ele>1718.01</ele>
        <time>2023-03-18T08:47:09Z</time>
      </trkpt>
      <trkpt lat="44.15918" lon="7.53418">
        <ele>1719.94</ele>
        <time>2023-03-18T08:47:25Z</time>
      </trkpt>
      <trkpt lat="44.15924" lon="7.53421">
        <ele>1721.86</ele>
        <time>2023-03-18T08:47:42Z</time>
      </trkpt>
      <trkpt lat="44.1593" lon="7.53421">
        <ele>1723.78</ele>
        <time>2023-03-18T08:47:57Z</time>
      </trkpt>
      <trkpt lat="44.1594" lon="7.53421">
        <ele>1725.7</ele>
        <time>2023-03-18T08:48:11Z</time>
      </trkpt>
      <trkpt lat="44.15949" lon="7.53423">
        <ele>1726.67</ele>
        <time>2023-03-18T08:48:24Z</time>
      </trkpt>
      <trkpt lat="44.15955" lon="7.53425">
        <ele>1730.03</ele>
        <time>2023-03-18T08:48:39Z</time>
      </trkpt>
      <trkpt lat="44.15964" lon="7.53427">
        <ele>1730.51</ele>
        <time>2023-03-18T08:48:54Z</time>
      </trkpt>
      <trkpt lat="44.15973" lon="7.53428">
        <ele>1732.43</ele>
        <time>2023-03-18T08:49:08Z</time>
      </trkpt>
      <trkpt lat="44.15977" lon="7.53424">
        <ele>1735.8</ele>
        <time>2023-03-18T08:49:22Z</time>
      </trkpt>
      <trkpt lat="44.15984" lon="7.53421">
        <ele>1738.68</ele>
        <time>2023-03-18T08:49:35Z</time>
      </trkpt>
      <trkpt lat="44.1599" lon="7.53415">
        <ele>1738.2</ele>
        <time>2023-03-18T08:49:50Z</time>
      </trkpt>
      <trkpt lat="44.16" lon="7.53412">
        <ele>1741.08</ele>
        <time>2023-03-18T08:50:06Z</time>
      </trkpt>
      <trkpt lat="44.16007" lon="7.5341">
        <ele>1742.53</ele>
        <time>2023-03-18T08:50:19Z</time>
      </trkpt>
      <trkpt lat="44.16011" lon="7.53404">
        <ele>1743.97</ele>
        <time>2023-03-18T08:50:33Z</time>
      </trkpt>
      <trkpt lat="44.16018" lon="7.53403">
        <ele>1743.49</ele>
        <time>2023-03-18T08:50:47Z</time>
      </trkpt>
      <trkpt lat="44.16022" lon="7.53399">
        <ele>1743.01</ele>
        <time>2023-03-18T08:51:02Z</time>
      </trkpt>
      <trkpt lat="44.16028" lon="7.53395">
        <ele>1745.41</ele>
        <time>2023-03-18T08:51:16Z</time>
      </trkpt>
      <trkpt lat="44.16034" lon="7.53389">
        <ele>1747.81</ele>
        <time>2023-03-18T08:51:31Z</time>
      </trkpt>
      <trkpt lat="44.16038" lon="7.53382">
        <ele>1750.22</ele>
        <time>2023-03-18T08:51:46Z</time>
      </trkpt>
      <trkpt lat="44.16046" lon="7.53378">
        <ele>1753.1</ele>
        <time>2023-03-18T08:52:01Z</time>
      </trkpt>
      <trkpt lat="44.16052" lon="7.53372">
        <ele>1755.5</ele>
        <time>2023-03-18T08:52:17Z</time>
      </trkpt>
      <trkpt lat="44.16055" lon="7.53364">
        <ele>1756.95</ele>
        <time>2023-03-18T08:52:30Z</time>
      </trkpt>
      <trkpt lat="44.16059" lon="7.53358">
        <ele>1759.83</ele>
        <time>2023-03-18T08:52:47Z</time>
      </trkpt>
      <trkpt lat="44.16062" lon="7.53353">
        <ele>1763.2</ele>
        <time>2023-03-18T08:53:03Z</time>
      </trkpt>
      <trkpt lat="44.16067" lon="7.53351">
        <ele>1763.2</ele>
        <time>2023-03-18T08:53:21Z</time>
      </trkpt>
      <trkpt lat="44.16069" lon="7.5335">
        <ele>1763.2</ele>
        <time>2023-03-18T08:53:29Z</time>
      </trkpt>
      <trkpt lat="44.16078" lon="7.53349">
        <ele>1762.71</ele>
        <time>2023-03-18T08:53:43Z</time>
      </trkpt>
      <trkpt lat="44.16082" lon="7.53346">
        <ele>1763.68</ele>
        <time>2023-03-18T08:53:55Z</time>
      </trkpt>
      <trkpt lat="44.16086" lon="7.53342">
        <ele>1765.12</ele>
        <time>2023-03-18T08:54:09Z</time>
      </trkpt>
      <trkpt lat="44.16091" lon="7.53339">
        <ele>1767.52</ele>
        <time>2023-03-18T08:54:21Z</time>
      </trkpt>
      <trkpt lat="44.16095" lon="7.53331">
        <ele>1769.92</ele>
        <time>2023-03-18T08:54:36Z</time>
      </trkpt>
      <trkpt lat="44.16104" lon="7.53329">
        <ele>1771.85</ele>
        <time>2023-03-18T08:54:55Z</time>
      </trkpt>
      <trkpt lat="44.16112" lon="7.53332">
        <ele>1771.37</ele>
        <time>2023-03-18T08:55:08Z</time>
      </trkpt>
      <trkpt lat="44.16117" lon="7.53328">
        <ele>1772.33</ele>
        <time>2023-03-18T08:55:21Z</time>
      </trkpt>
      <trkpt lat="44.16121" lon="7.53323">
        <ele>1775.21</ele>
        <time>2023-03-18T08:55:35Z</time>
      </trkpt>
      <trkpt lat="44.16122" lon="7.53322">
        <ele>1776.17</ele>
        <time>2023-03-18T08:55:49Z</time>
      </trkpt>
      <trkpt lat="44.16122" lon="7.53322">
        <ele>1775.69</ele>
        <time>2023-03-18T08:56:14Z</time>
      </trkpt>
      <trkpt lat="44.1612" lon="7.53323">
        <ele>1774.25</ele>
        <time>2023-03-18T08:56:25Z</time>
      </trkpt>
      <trkpt lat="44.16117" lon="7.53326">
        <ele>1775.21</ele>
        <time>2023-03-18T08:56:52Z</time>
      </trkpt>
      <trkpt lat="44.1612" lon="7.53326">
        <ele>1775.21</ele>
        <time>2023-03-18T08:57:13Z</time>
      </trkpt>
      <trkpt lat="44.16119" lon="7.53322">
        <ele>1773.77</ele>
        <time>2023-03-18T08:57:31Z</time>
      </trkpt>
      <trkpt lat="44.16121" lon="7.53319">
        <ele>1774.73</ele>
        <time>2023-03-18T08:57:50Z</time>
      </trkpt>
      <trkpt lat="44.16125" lon="7.53322">
        <ele>1774.73</ele>
        <time>2023-03-18T08:58:07Z</time>
      </trkpt>
      <trkpt lat="44.16125" lon="7.53324">
        <ele>1774.73</ele>
        <time>2023-03-18T08:58:30Z</time>
      </trkpt>
      <trkpt lat="44.16127" lon="7.53321">
        <ele>1774.25</ele>
        <time>2023-03-18T08:58:53Z</time>
      </trkpt>
      <trkpt lat="44.16129" lon="7.53324">
        <ele>1774.73</ele>
        <time>2023-03-18T08:59:15Z</time>
      </trkpt>
      <trkpt lat="44.16129" lon="7.53319">
        <ele>1778.1</ele>
        <time>2023-03-18T08:59:37Z</time>
      </trkpt>
      <trkpt lat="44.16132" lon="7.53306">
        <ele>1779.06</ele>
        <time>2023-03-18T08:59:54Z</time>
      </trkpt>
      <trkpt lat="44.16135" lon="7.53302">
        <ele>1780.98</ele>
        <time>2023-03-18T09:00:11Z</time>
      </trkpt>
      <trkpt lat="44.16141" lon="7.53293">
        <ele>1780.98</ele>
        <time>2023-03-18T09:00:26Z</time>
      </trkpt>
      <trkpt lat="44.16147" lon="7.5328">
        <ele>1780.5</ele>
        <time>2023-03-18T09:00:43Z</time>
      </trkpt>
      <trkpt lat="44.16153" lon="7.53272">
        <ele>1779.54</ele>
        <time>2023-03-18T09:00:57Z</time>
      </trkpt>
      <trkpt lat="44.16157" lon="7.53269">
        <ele>1779.06</ele>
        <time>2023-03-18T09:01:03Z</time>
      </trkpt>
      <trkpt lat="44.1617" lon="7.53267">
        <ele>1778.1</ele>
        <time>2023-03-18T09:01:18Z</time>
      </trkpt>
      <trkpt lat="44.16185" lon="7.53265">
        <ele>1777.13</ele>
        <time>2023-03-18T09:01:34Z</time>
      </trkpt>
      <trkpt lat="44.16197" lon="7.53263">
        <ele>1777.61</ele>
        <time>2023-03-18T09:01:50Z</time>
      </trkpt>
      <trkpt lat="44.1621" lon="7.53255">
        <ele>1778.58</ele>
        <time>2023-03-18T09:02:04Z</time>
      </trkpt>
      <trkpt lat="44.1622" lon="7.53241">
        <ele>1780.5</ele>
        <time>2023-03-18T09:02:20Z</time>
      </trkpt>
      <trkpt lat="44.16227" lon="7.53228">
        <ele>1780.98</ele>
        <time>2023-03-18T09:02:35Z</time>
      </trkpt>
      <trkpt lat="44.16229" lon="7.53214">
        <ele>1780.5</ele>
        <time>2023-03-18T09:02:50Z</time>
      </trkpt>
      <trkpt lat="44.16232" lon="7.53196">
        <ele>1780.5</ele>
        <time>2023-03-18T09:03:07Z</time>
      </trkpt>
      <trkpt lat="44.16237" lon="7.53181">
        <ele>1781.94</ele>
        <time>2023-03-18T09:03:22Z</time>
      </trkpt>
      <trkpt lat="44.16242" lon="7.53164">
        <ele>1783.38</ele>
        <time>2023-03-18T09:03:38Z</time>
      </trkpt>
      <trkpt lat="44.16242" lon="7.53153">
        <ele>1785.31</ele>
        <time>2023-03-18T09:03:51Z</time>
      </trkpt>
      <trkpt lat="44.16245" lon="7.53141">
        <ele>1787.23</ele>
        <time>2023-03-18T09:04:06Z</time>
      </trkpt>
      <trkpt lat="44.16246" lon="7.53128">
        <ele>1788.67</ele>
        <time>2023-03-18T09:04:22Z</time>
      </trkpt>
      <trkpt lat="44.16248" lon="7.53117">
        <ele>1787.23</ele>
        <time>2023-03-18T09:04:46Z</time>
      </trkpt>
      <trkpt lat="44.1625" lon="7.53111">
        <ele>1787.23</ele>
        <time>2023-03-18T09:04:51Z</time>
      </trkpt>
      <trkpt lat="44.16258" lon="7.53097">
        <ele>1786.27</ele>
        <time>2023-03-18T09:05:06Z</time>
      </trkpt>
      <trkpt lat="44.16264" lon="7.53085">
        <ele>1787.71</ele>
        <time>2023-03-18T09:05:19Z</time>
      </trkpt>
      <trkpt lat="44.16272" lon="7.53074">
        <ele>1788.67</ele>
        <time>2023-03-18T09:05:34Z</time>
      </trkpt>
      <trkpt lat="44.16279" lon="7.53063">
        <ele>1789.63</ele>
        <time>2023-03-18T09:05:48Z</time>
      </trkpt>
      <trkpt lat="44.16286" lon="7.53054">
        <ele>1791.55</ele>
        <time>2023-03-18T09:06:02Z</time>
      </trkpt>
      <trkpt lat="44.16295" lon="7.53043">
        <ele>1791.07</ele>
        <time>2023-03-18T09:06:17Z</time>
      </trkpt>
      <trkpt lat="44.16305" lon="7.53033">
        <ele>1791.07</ele>
        <time>2023-03-18T09:06:32Z</time>
      </trkpt>
      <trkpt lat="44.16312" lon="7.53026">
        <ele>1793.96</ele>
        <time>2023-03-18T09:06:46Z</time>
      </trkpt>
      <trkpt lat="44.16322" lon="7.53016">
        <ele>1796.36</ele>
        <time>2023-03-18T09:07:01Z</time>
      </trkpt>
      <trkpt lat="44.16324" lon="7.53013">
        <ele>1796.84</ele>
        <time>2023-03-18T09:07:05Z</time>
      </trkpt>
      <trkpt lat="44.16333" lon="7.53003">
        <ele>1797.8</ele>
        <time>2023-03-18T09:07:21Z</time>
      </trkpt>
      <trkpt lat="44.16336" lon="7.52995">
        <ele>1799.24</ele>
        <time>2023-03-18T09:07:35Z</time>
      </trkpt>
      <trkpt lat="44.16341" lon="7.52987">
        <ele>1801.65</ele>
        <time>2023-03-18T09:07:49Z</time>
      </trkpt>
      <trkpt lat="44.16344" lon="7.52978">
        <ele>1804.05</ele>
        <time>2023-03-18T09:08:02Z</time>
      </trkpt>
      <trkpt lat="44.16343" lon="7.52966">
        <ele>1806.94</ele>
        <time>2023-03-18T09:08:18Z</time>
      </trkpt>
      <trkpt lat="44.1634" lon="7.52956">
        <ele>1810.3</ele>
        <time>2023-03-18T09:08:36Z</time>
      </trkpt>
      <trkpt lat="44.1634" lon="7.52943">
        <ele>1813.66</ele>
        <time>2023-03-18T09:08:51Z</time>
      </trkpt>
      <trkpt lat="44.16342" lon="7.52933">
        <ele>1816.07</ele>
        <time>2023-03-18T09:09:06Z</time>
      </trkpt>
      <trkpt lat="44.16349" lon="7.52925">
        <ele>1818.47</ele>
        <time>2023-03-18T09:09:23Z</time>
      </trkpt>
      <trkpt lat="44.16349" lon="7.52911">
        <ele>1819.91</ele>
        <time>2023-03-18T09:09:41Z</time>
      </trkpt>
      <trkpt lat="44.16348" lon="7.52898">
        <ele>1823.28</ele>
        <time>2023-03-18T09:10:01Z</time>
      </trkpt>
      <trkpt lat="44.16349" lon="7.5289">
        <ele>1826.64</ele>
        <time>2023-03-18T09:10:16Z</time>
      </trkpt>
      <trkpt lat="44.16346" lon="7.5288">
        <ele>1831.45</ele>
        <time>2023-03-18T09:10:32Z</time>
      </trkpt>
      <trkpt lat="44.16345" lon="7.52872">
        <ele>1834.33</ele>
        <time>2023-03-18T09:10:46Z</time>
      </trkpt>
      <trkpt lat="44.16343" lon="7.5286">
        <ele>1835.77</ele>
        <time>2023-03-18T09:11:05Z</time>
      </trkpt>
      <trkpt lat="44.16342" lon="7.52853">
        <ele>1836.26</ele>
        <time>2023-03-18T09:11:23Z</time>
      </trkpt>
      <trkpt lat="44.16343" lon="7.52846">
        <ele>1836.74</ele>
        <time>2023-03-18T09:11:38Z</time>
      </trkpt>
      <trkpt lat="44.16337" lon="7.52836">
        <ele>1838.66</ele>
        <time>2023-03-18T09:11:55Z</time>
      </trkpt>
      <trkpt lat="44.16335" lon="7.52829">
        <ele>1842.5</ele>
        <time>2023-03-18T09:12:10Z</time>
      </trkpt>
      <trkpt lat="44.16329" lon="7.5282">
        <ele>1844.91</ele>
        <time>2023-03-18T09:12:26Z</time>
      </trkpt>
      <trkpt lat="44.16326" lon="7.52813">
        <ele>1848.75</ele>
        <time>2023-03-18T09:12:44Z</time>
      </trkpt>
      <trkpt lat="44.16328" lon="7.52813">
        <ele>1852.6</ele>
        <time>2023-03-18T09:13:01Z</time>
      </trkpt>
      <trkpt lat="44.16325" lon="7.52801">
        <ele>1854.52</ele>
        <time>2023-03-18T09:13:18Z</time>
      </trkpt>
      <trkpt lat="44.1632" lon="7.52792">
        <ele>1856.92</ele>
        <time>2023-03-18T09:13:30Z</time>
      </trkpt>
      <trkpt lat="44.1632" lon="7.52784">
        <ele>1858.37</ele>
        <time>2023-03-18T09:13:45Z</time>
      </trkpt>
      <trkpt lat="44.16317" lon="7.52774">
        <ele>1858.85</ele>
        <time>2023-03-18T09:14:00Z</time>
      </trkpt>
      <trkpt lat="44.1632" lon="7.52768">
        <ele>1862.69</ele>
        <time>2023-03-18T09:14:15Z</time>
      </trkpt>
      <trkpt lat="44.1632" lon="7.52761">
        <ele>1866.06</ele>
        <time>2023-03-18T09:14:29Z</time>
      </trkpt>
      <trkpt lat="44.16323" lon="7.52757">
        <ele>1867.98</ele>
        <time>2023-03-18T09:14:43Z</time>
      </trkpt>
      <trkpt lat="44.16319" lon="7.52749">
        <ele>1868.46</ele>
        <time>2023-03-18T09:14:57Z</time>
      </trkpt>
      <trkpt lat="44.16322" lon="7.52744">
        <ele>1869.9</ele>
        <time>2023-03-18T09:15:11Z</time>
      </trkpt>
      <trkpt lat="44.16329" lon="7.52731">
        <ele>1872.79</ele>
        <time>2023-03-18T09:15:27Z</time>
      </trkpt>
      <trkpt lat="44.16324" lon="7.52718">
        <ele>1874.23</ele>
        <time>2023-03-18T09:15:42Z</time>
      </trkpt>
      <trkpt lat="44.16317" lon="7.52707">
        <ele>1874.71</ele>
        <time>2023-03-18T09:15:58Z</time>
      </trkpt>
      <trkpt lat="44.16314" lon="7.52693">
        <ele>1876.15</ele>
        <time>2023-03-18T09:16:15Z</time>
      </trkpt>
      <trkpt lat="44.16309" lon="7.52691">
        <ele>1874.23</ele>
        <time>2023-03-18T09:16:37Z</time>
      </trkpt>
      <trkpt lat="44.16305" lon="7.52684">
        <ele>1873.75</ele>
        <time>2023-03-18T09:17:01Z</time>
      </trkpt>
      <trkpt lat="44.16308" lon="7.52671">
        <ele>1874.71</ele>
        <time>2023-03-18T09:17:20Z</time>
      </trkpt>
      <trkpt lat="44.16303" lon="7.52659">
        <ele>1877.11</ele>
        <time>2023-03-18T09:17:32Z</time>
      </trkpt>
      <trkpt lat="44.163" lon="7.52646">
        <ele>1880</ele>
        <time>2023-03-18T09:17:46Z</time>
      </trkpt>
      <trkpt lat="44.16295" lon="7.52633">
        <ele>1880</ele>
        <time>2023-03-18T09:18:01Z</time>
      </trkpt>
      <trkpt lat="44.16288" lon="7.52622">
        <ele>1881.44</ele>
        <time>2023-03-18T09:18:15Z</time>
      </trkpt>
      <trkpt lat="44.16279" lon="7.52605">
        <ele>1880.96</ele>
        <time>2023-03-18T09:18:31Z</time>
      </trkpt>
      <trkpt lat="44.16278" lon="7.52603">
        <ele>1880.48</ele>
        <time>2023-03-18T09:18:33Z</time>
      </trkpt>
      <trkpt lat="44.16272" lon="7.52591">
        <ele>1881.92</ele>
        <time>2023-03-18T09:18:48Z</time>
      </trkpt>
      <trkpt lat="44.16264" lon="7.52577">
        <ele>1881.44</ele>
        <time>2023-03-18T09:19:04Z</time>
      </trkpt>
      <trkpt lat="44.16259" lon="7.52565">
        <ele>1881.92</ele>
        <time>2023-03-18T09:19:21Z</time>
      </trkpt>
      <trkpt lat="44.16251" lon="7.5255">
        <ele>1883.36</ele>
        <time>2023-03-18T09:19:39Z</time>
      </trkpt>
      <trkpt lat="44.16245" lon="7.52539">
        <ele>1884.8</ele>
        <time>2023-03-18T09:19:53Z</time>
      </trkpt>
      <trkpt lat="44.1624" lon="7.52527">
        <ele>1886.24</ele>
        <time>2023-03-18T09:20:08Z</time>
      </trkpt>
      <trkpt lat="44.16236" lon="7.52517">
        <ele>1887.21</ele>
        <time>2023-03-18T09:20:24Z</time>
      </trkpt>
      <trkpt lat="44.16231" lon="7.52504">
        <ele>1888.65</ele>
        <time>2023-03-18T09:20:40Z</time>
      </trkpt>
      <trkpt lat="44.16224" lon="7.5249">
        <ele>1893.93</ele>
        <time>2023-03-18T09:21:04Z</time>
      </trkpt>
      <trkpt lat="44.16218" lon="7.52482">
        <ele>1894.9</ele>
        <time>2023-03-18T09:21:19Z</time>
      </trkpt>
      <trkpt lat="44.16215" lon="7.52475">
        <ele>1897.78</ele>
        <time>2023-03-18T09:21:35Z</time>
      </trkpt>
      <trkpt lat="44.1622" lon="7.52468">
        <ele>1901.63</ele>
        <time>2023-03-18T09:21:50Z</time>
      </trkpt>
      <trkpt lat="44.16221" lon="7.52457">
        <ele>1903.55</ele>
        <time>2023-03-18T09:22:06Z</time>
      </trkpt>
      <trkpt lat="44.16217" lon="7.52449">
        <ele>1904.51</ele>
        <time>2023-03-18T09:22:18Z</time>
      </trkpt>
      <trkpt lat="44.1621" lon="7.52446">
        <ele>1907.39</ele>
        <time>2023-03-18T09:22:35Z</time>
      </trkpt>
      <trkpt lat="44.16209" lon="7.5244">
        <ele>1912.2</ele>
        <time>2023-03-18T09:22:50Z</time>
      </trkpt>
      <trkpt lat="44.16213" lon="7.5243">
        <ele>1917.01</ele>
        <time>2023-03-18T09:23:06Z</time>
      </trkpt>
      <trkpt lat="44.16208" lon="7.52425">
        <ele>1918.93</ele>
        <time>2023-03-18T09:23:21Z</time>
      </trkpt>
      <trkpt lat="44.16206" lon="7.5242">
        <ele>1920.85</ele>
        <time>2023-03-18T09:23:37Z</time>
      </trkpt>
      <trkpt lat="44.16211" lon="7.5241">
        <ele>1926.62</ele>
        <time>2023-03-18T09:23:56Z</time>
      </trkpt>
      <trkpt lat="44.16209" lon="7.524">
        <ele>1931.43</ele>
        <time>2023-03-18T09:24:10Z</time>
      </trkpt>
      <trkpt lat="44.16208" lon="7.52397">
        <ele>1932.87</ele>
        <time>2023-03-18T09:24:25Z</time>
      </trkpt>
      <trkpt lat="44.16207" lon="7.52387">
        <ele>1935.27</ele>
        <time>2023-03-18T09:24:44Z</time>
      </trkpt>
      <trkpt lat="44.16203" lon="7.52382">
        <ele>1934.79</ele>
        <time>2023-03-18T09:24:58Z</time>
      </trkpt>
      <trkpt lat="44.16204" lon="7.52377">
        <ele>1937.19</ele>
        <time>2023-03-18T09:25:11Z</time>
      </trkpt>
      <trkpt lat="44.16201" lon="7.52367">
        <ele>1937.67</ele>
        <time>2023-03-18T09:25:26Z</time>
      </trkpt>
      <trkpt lat="44.16195" lon="7.52363">
        <ele>1938.16</ele>
        <time>2023-03-18T09:25:39Z</time>
      </trkpt>
      <trkpt lat="44.16195" lon="7.52356">
        <ele>1940.08</ele>
        <time>2023-03-18T09:25:53Z</time>
      </trkpt>
      <trkpt lat="44.16198" lon="7.5235">
        <ele>1940.56</ele>
        <time>2023-03-18T09:26:07Z</time>
      </trkpt>
      <trkpt lat="44.1619" lon="7.5234">
        <ele>1941.04</ele>
        <time>2023-03-18T09:26:22Z</time>
      </trkpt>
      <trkpt lat="44.16192" lon="7.52335">
        <ele>1942.96</ele>
        <time>2023-03-18T09:26:37Z</time>
      </trkpt>
      <trkpt lat="44.16199" lon="7.52327">
        <ele>1946.81</ele>
        <time>2023-03-18T09:26:54Z</time>
      </trkpt>
      <trkpt lat="44.16194" lon="7.52316">
        <ele>1949.69</ele>
        <time>2023-03-18T09:27:10Z</time>
      </trkpt>
      <trkpt lat="44.16192" lon="7.52308">
        <ele>1953.54</ele>
        <time>2023-03-18T09:27:26Z</time>
      </trkpt>
      <trkpt lat="44.16196" lon="7.52307">
        <ele>1951.61</ele>
        <time>2023-03-18T09:27:46Z</time>
      </trkpt>
      <trkpt lat="44.162" lon="7.52303">
        <ele>1952.57</ele>
        <time>2023-03-18T09:28:06Z</time>
      </trkpt>
      <trkpt lat="44.16193" lon="7.52294">
        <ele>1954.98</ele>
        <time>2023-03-18T09:28:19Z</time>
      </trkpt>
      <trkpt lat="44.16199" lon="7.52291">
        <ele>1957.38</ele>
        <time>2023-03-18T09:28:33Z</time>
      </trkpt>
      <trkpt lat="44.16204" lon="7.52282">
        <ele>1961.23</ele>
        <time>2023-03-18T09:28:49Z</time>
      </trkpt>
      <trkpt lat="44.16198" lon="7.52273">
        <ele>1965.07</ele>
        <time>2023-03-18T09:29:04Z</time>
      </trkpt>
      <trkpt lat="44.16204" lon="7.52267">
        <ele>1966.03</ele>
        <time>2023-03-18T09:29:21Z</time>
      </trkpt>
      <trkpt lat="44.16212" lon="7.52265">
        <ele>1968.44</ele>
        <time>2023-03-18T09:29:38Z</time>
      </trkpt>
      <trkpt lat="44.1621" lon="7.52255">
        <ele>1971.8</ele>
        <time>2023-03-18T09:29:53Z</time>
      </trkpt>
      <trkpt lat="44.16207" lon="7.52252">
        <ele>1974.2</ele>
        <time>2023-03-18T09:30:11Z</time>
      </trkpt>
      <trkpt lat="44.16211" lon="7.52254">
        <ele>1972.76</ele>
        <time>2023-03-18T09:30:26Z</time>
      </trkpt>
      <trkpt lat="44.16217" lon="7.52251">
        <ele>1975.17</ele>
        <time>2023-03-18T09:30:41Z</time>
      </trkpt>
      <trkpt lat="44.16222" lon="7.52251">
        <ele>1975.65</ele>
        <time>2023-03-18T09:30:53Z</time>
      </trkpt>
      <trkpt lat="44.16224" lon="7.52249">
        <ele>1976.13</ele>
        <time>2023-03-18T09:31:09Z</time>
      </trkpt>
      <trkpt lat="44.16222" lon="7.5225">
        <ele>1975.65</ele>
        <time>2023-03-18T09:31:25Z</time>
      </trkpt>
      <trkpt lat="44.16221" lon="7.52252">
        <ele>1975.65</ele>
        <time>2023-03-18T09:32:00Z</time>
      </trkpt>
      <trkpt lat="44.16222" lon="7.5225">
        <ele>1978.05</ele>
        <time>2023-03-18T09:32:30Z</time>
      </trkpt>
      <trkpt lat="44.16223" lon="7.52252">
        <ele>1979.49</ele>
        <time>2023-03-18T09:33:06Z</time>
      </trkpt>
      <trkpt lat="44.16221" lon="7.5225">
        <ele>1979.01</ele>
        <time>2023-03-18T09:33:41Z</time>
      </trkpt>
      <trkpt lat="44.16222" lon="7.52249">
        <ele>1979.97</ele>
        <time>2023-03-18T09:34:03Z</time>
      </trkpt>
      <trkpt lat="44.16223" lon="7.52249">
        <ele>1979.97</ele>
        <time>2023-03-18T09:34:21Z</time>
      </trkpt>
      <trkpt lat="44.16219" lon="7.52243">
        <ele>1980.93</ele>
        <time>2023-03-18T09:34:36Z</time>
      </trkpt>
      <trkpt lat="44.16219" lon="7.52244">
        <ele>1980.93</ele>
        <time>2023-03-18T09:34:50Z</time>
      </trkpt>
      <trkpt lat="44.16229" lon="7.52244">
        <ele>1982.86</ele>
        <time>2023-03-18T09:35:05Z</time>
      </trkpt>
      <trkpt lat="44.16225" lon="7.52236">
        <ele>1984.3</ele>
        <time>2023-03-18T09:35:19Z</time>
      </trkpt>
      <trkpt lat="44.16221" lon="7.52233">
        <ele>1983.82</ele>
        <time>2023-03-18T09:35:37Z</time>
      </trkpt>
      <trkpt lat="44.16226" lon="7.52233">
        <ele>1984.3</ele>
        <time>2023-03-18T09:35:49Z</time>
      </trkpt>
      <trkpt lat="44.1623" lon="7.52233">
        <ele>1986.7</ele>
        <time>2023-03-18T09:36:03Z</time>
      </trkpt>
      <trkpt lat="44.16228" lon="7.52227">
        <ele>1987.66</ele>
        <time>2023-03-18T09:36:20Z</time>
      </trkpt>
      <trkpt lat="44.16229" lon="7.52226">
        <ele>1988.14</ele>
        <time>2023-03-18T09:36:36Z</time>
      </trkpt>
      <trkpt lat="44.16237" lon="7.52224">
        <ele>1992.95</ele>
        <time>2023-03-18T09:36:54Z</time>
      </trkpt>
      <trkpt lat="44.16239" lon="7.52226">
        <ele>1996.8</ele>
        <time>2023-03-18T09:37:09Z</time>
      </trkpt>
      <trkpt lat="44.16234" lon="7.5222">
        <ele>1996.32</ele>
        <time>2023-03-18T09:37:24Z</time>
      </trkpt>
      <trkpt lat="44.16231" lon="7.52215">
        <ele>1997.28</ele>
        <time>2023-03-18T09:37:40Z</time>
      </trkpt>
      <trkpt lat="44.16236" lon="7.52214">
        <ele>2001.6</ele>
        <time>2023-03-18T09:37:55Z</time>
      </trkpt>
      <trkpt lat="44.16243" lon="7.52215">
        <ele>2006.41</ele>
        <time>2023-03-18T09:38:06Z</time>
      </trkpt>
      <trkpt lat="44.16238" lon="7.52207">
        <ele>2008.33</ele>
        <time>2023-03-18T09:38:23Z</time>
      </trkpt>
      <trkpt lat="44.16229" lon="7.52201">
        <ele>2007.37</ele>
        <time>2023-03-18T09:38:38Z</time>
      </trkpt>
      <trkpt lat="44.16224" lon="7.52202">
        <ele>2009.29</ele>
        <time>2023-03-18T09:39:00Z</time>
      </trkpt>
      <trkpt lat="44.16225" lon="7.52196">
        <ele>2005.45</ele>
        <time>2023-03-18T09:39:15Z</time>
      </trkpt>
      <trkpt lat="44.16232" lon="7.52193">
        <ele>2006.41</ele>
        <time>2023-03-18T09:39:32Z</time>
      </trkpt>
      <trkpt lat="44.16231" lon="7.52188">
        <ele>2007.85</ele>
        <time>2023-03-18T09:39:47Z</time>
      </trkpt>
      <trkpt lat="44.16228" lon="7.52183">
        <ele>2009.29</ele>
        <time>2023-03-18T09:39:57Z</time>
      </trkpt>
      <trkpt lat="44.16223" lon="7.52181">
        <ele>2012.18</ele>
        <time>2023-03-18T09:40:12Z</time>
      </trkpt>
      <trkpt lat="44.1622" lon="7.52179">
        <ele>2015.06</ele>
        <time>2023-03-18T09:40:31Z</time>
      </trkpt>
      <trkpt lat="44.16221" lon="7.52173">
        <ele>2012.18</ele>
        <time>2023-03-18T09:40:47Z</time>
      </trkpt>
      <trkpt lat="44.16228" lon="7.52167">
        <ele>2014.58</ele>
        <time>2023-03-18T09:41:04Z</time>
      </trkpt>
      <trkpt lat="44.16226" lon="7.52163">
        <ele>2017.46</ele>
        <time>2023-03-18T09:41:18Z</time>
      </trkpt>
      <trkpt lat="44.16221" lon="7.52158">
        <ele>2019.39</ele>
        <time>2023-03-18T09:41:34Z</time>
      </trkpt>
      <trkpt lat="44.16221" lon="7.52159">
        <ele>2019.39</ele>
        <time>2023-03-18T09:41:59Z</time>
      </trkpt>
      <trkpt lat="44.16219" lon="7.52157">
        <ele>2020.35</ele>
        <time>2023-03-18T09:42:13Z</time>
      </trkpt>
      <trkpt lat="44.16225" lon="7.5215">
        <ele>2020.35</ele>
        <time>2023-03-18T09:42:24Z</time>
      </trkpt>
      <trkpt lat="44.16228" lon="7.52144">
        <ele>2021.79</ele>
        <time>2023-03-18T09:42:37Z</time>
      </trkpt>
      <trkpt lat="44.16224" lon="7.52139">
        <ele>2024.19</ele>
        <time>2023-03-18T09:42:50Z</time>
      </trkpt>
      <trkpt lat="44.16223" lon="7.52138">
        <ele>2025.64</ele>
        <time>2023-03-18T09:43:11Z</time>
      </trkpt>
      <trkpt lat="44.16225" lon="7.52132">
        <ele>2025.15</ele>
        <time>2023-03-18T09:43:25Z</time>
      </trkpt>
      <trkpt lat="44.16224" lon="7.52126">
        <ele>2025.64</ele>
        <time>2023-03-18T09:43:39Z</time>
      </trkpt>
      <trkpt lat="44.16223" lon="7.52124">
        <ele>2026.6</ele>
        <time>2023-03-18T09:43:58Z</time>
      </trkpt>
      <trkpt lat="44.1622" lon="7.52113">
        <ele>2027.08</ele>
        <time>2023-03-18T09:44:14Z</time>
      </trkpt>
      <trkpt lat="44.16217" lon="7.52103">
        <ele>2028.52</ele>
        <time>2023-03-18T09:44:29Z</time>
      </trkpt>
      <trkpt lat="44.16216" lon="7.52093">
        <ele>2031.4</ele>
        <time>2023-03-18T09:44:43Z</time>
      </trkpt>
      <trkpt lat="44.16217" lon="7.52086">
        <ele>2036.21</ele>
        <time>2023-03-18T09:45:01Z</time>
      </trkpt>
      <trkpt lat="44.16222" lon="7.52079">
        <ele>2037.17</ele>
        <time>2023-03-18T09:45:15Z</time>
      </trkpt>
      <trkpt lat="44.16228" lon="7.52074">
        <ele>2040.54</ele>
        <time>2023-03-18T09:45:31Z</time>
      </trkpt>
      <trkpt lat="44.16229" lon="7.52061">
        <ele>2044.38</ele>
        <time>2023-03-18T09:45:48Z</time>
      </trkpt>
      <trkpt lat="44.16225" lon="7.52053">
        <ele>2047.26</ele>
        <time>2023-03-18T09:46:03Z</time>
      </trkpt>
      <trkpt lat="44.16228" lon="7.52044">
        <ele>2047.26</ele>
        <time>2023-03-18T09:46:20Z</time>
      </trkpt>
      <trkpt lat="44.16235" lon="7.52034">
        <ele>2050.63</ele>
        <time>2023-03-18T09:46:38Z</time>
      </trkpt>
      <trkpt lat="44.16232" lon="7.52026">
        <ele>2053.03</ele>
        <time>2023-03-18T09:46:53Z</time>
      </trkpt>
      <trkpt lat="44.16236" lon="7.52025">
        <ele>2054.47</ele>
        <time>2023-03-18T09:47:05Z</time>
      </trkpt>
      <trkpt lat="44.16239" lon="7.52025">
        <ele>2054.96</ele>
        <time>2023-03-18T09:47:26Z</time>
      </trkpt>
      <trkpt lat="44.16246" lon="7.52024">
        <ele>2055.92</ele>
        <time>2023-03-18T09:47:41Z</time>
      </trkpt>
      <trkpt lat="44.16242" lon="7.52013">
        <ele>2056.4</ele>
        <time>2023-03-18T09:47:57Z</time>
      </trkpt>
      <trkpt lat="44.16247" lon="7.52015">
        <ele>2058.32</ele>
        <time>2023-03-18T09:48:10Z</time>
      </trkpt>
      <trkpt lat="44.16254" lon="7.52016">
        <ele>2060.72</ele>
        <time>2023-03-18T09:48:25Z</time>
      </trkpt>
      <trkpt lat="44.16254" lon="7.52009">
        <ele>2061.2</ele>
        <time>2023-03-18T09:48:40Z</time>
      </trkpt>
      <trkpt lat="44.16253" lon="7.52004">
        <ele>2061.68</ele>
        <time>2023-03-18T09:48:55Z</time>
      </trkpt>
      <trkpt lat="44.16262" lon="7.52004">
        <ele>2065.05</ele>
        <time>2023-03-18T09:49:13Z</time>
      </trkpt>
      <trkpt lat="44.16266" lon="7.51998">
        <ele>2066.49</ele>
        <time>2023-03-18T09:49:27Z</time>
      </trkpt>
      <trkpt lat="44.16274" lon="7.51995">
        <ele>2067.93</ele>
        <time>2023-03-18T09:49:43Z</time>
      </trkpt>
      <trkpt lat="44.1628" lon="7.51992">
        <ele>2069.86</ele>
        <time>2023-03-18T09:49:57Z</time>
      </trkpt>
      <trkpt lat="44.16283" lon="7.51991">
        <ele>2071.78</ele>
        <time>2023-03-18T09:50:16Z</time>
      </trkpt>
      <trkpt lat="44.16286" lon="7.51985">
        <ele>2072.26</ele>
        <time>2023-03-18T09:50:30Z</time>
      </trkpt>
      <trkpt lat="44.16288" lon="7.5198">
        <ele>2076.1</ele>
        <time>2023-03-18T09:50:46Z</time>
      </trkpt>
      <trkpt lat="44.16285" lon="7.51973">
        <ele>2079.95</ele>
        <time>2023-03-18T09:51:03Z</time>
      </trkpt>
      <trkpt lat="44.16287" lon="7.51973">
        <ele>2078.99</ele>
        <time>2023-03-18T09:51:24Z</time>
      </trkpt>
      <trkpt lat="44.16285" lon="7.51972">
        <ele>2081.39</ele>
        <time>2023-03-18T09:51:39Z</time>
      </trkpt>
      <trkpt lat="44.1628" lon="7.51966">
        <ele>2080.91</ele>
        <time>2023-03-18T09:51:56Z</time>
      </trkpt>
      <trkpt lat="44.1628" lon="7.51964">
        <ele>2081.87</ele>
        <time>2023-03-18T09:52:10Z</time>
      </trkpt>
      <trkpt lat="44.16282" lon="7.51956">
        <ele>2082.35</ele>
        <time>2023-03-18T09:52:25Z</time>
      </trkpt>
      <trkpt lat="44.16284" lon="7.51949">
        <ele>2085.24</ele>
        <time>2023-03-18T09:52:42Z</time>
      </trkpt>
      <trkpt lat="44.16285" lon="7.51941">
        <ele>2086.68</ele>
        <time>2023-03-18T09:52:55Z</time>
      </trkpt>
      <trkpt lat="44.16282" lon="7.51929">
        <ele>2088.12</ele>
        <time>2023-03-18T09:53:12Z</time>
      </trkpt>
      <trkpt lat="44.16283" lon="7.51919">
        <ele>2090.04</ele>
        <time>2023-03-18T09:53:27Z</time>
      </trkpt>
      <trkpt lat="44.16291" lon="7.51913">
        <ele>2091.49</ele>
        <time>2023-03-18T09:53:42Z</time>
      </trkpt>
      <trkpt lat="44.16291" lon="7.51907">
        <ele>2094.37</ele>
        <time>2023-03-18T09:53:55Z</time>
      </trkpt>
      <trkpt lat="44.1629" lon="7.51908">
        <ele>2094.85</ele>
        <time>2023-03-18T09:54:12Z</time>
      </trkpt>
      <trkpt lat="44.16292" lon="7.51903">
        <ele>2093.89</ele>
        <time>2023-03-18T09:54:24Z</time>
      </trkpt>
      <trkpt lat="44.16291" lon="7.51897">
        <ele>2097.25</ele>
        <time>2023-03-18T09:54:40Z</time>
      </trkpt>
      <trkpt lat="44.1629" lon="7.51894">
        <ele>2097.25</ele>
        <time>2023-03-18T09:54:55Z</time>
      </trkpt>
      <trkpt lat="44.16294" lon="7.51885">
        <ele>2098.7</ele>
        <time>2023-03-18T09:55:12Z</time>
      </trkpt>
      <trkpt lat="44.16289" lon="7.51877">
        <ele>2102.06</ele>
        <time>2023-03-18T09:55:30Z</time>
      </trkpt>
      <trkpt lat="44.16291" lon="7.51875">
        <ele>2104.94</ele>
        <time>2023-03-18T09:55:46Z</time>
      </trkpt>
      <trkpt lat="44.16292" lon="7.51865">
        <ele>2106.87</ele>
        <time>2023-03-18T09:56:02Z</time>
      </trkpt>
      <trkpt lat="44.16289" lon="7.51859">
        <ele>2109.27</ele>
        <time>2023-03-18T09:56:21Z</time>
      </trkpt>
      <trkpt lat="44.16289" lon="7.51847">
        <ele>2110.23</ele>
        <time>2023-03-18T09:56:36Z</time>
      </trkpt>
      <trkpt lat="44.16288" lon="7.51835">
        <ele>2111.67</ele>
        <time>2023-03-18T09:56:53Z</time>
      </trkpt>
      <trkpt lat="44.1629" lon="7.51819">
        <ele>2113.12</ele>
        <time>2023-03-18T09:57:10Z</time>
      </trkpt>
      <trkpt lat="44.16293" lon="7.51807">
        <ele>2114.08</ele>
        <time>2023-03-18T09:57:25Z</time>
      </trkpt>
      <trkpt lat="44.16296" lon="7.51794">
        <ele>2116</ele>
        <time>2023-03-18T09:57:42Z</time>
      </trkpt>
      <trkpt lat="44.163" lon="7.5178">
        <ele>2116.96</ele>
        <time>2023-03-18T09:57:58Z</time>
      </trkpt>
      <trkpt lat="44.16302" lon="7.51772">
        <ele>2120.32</ele>
        <time>2023-03-18T09:58:14Z</time>
      </trkpt>
      <trkpt lat="44.16302" lon="7.51769">
        <ele>2120.81</ele>
        <time>2023-03-18T09:58:27Z</time>
      </trkpt>
      <trkpt lat="44.16304" lon="7.51769">
        <ele>2120.81</ele>
        <time>2023-03-18T09:58:46Z</time>
      </trkpt>
      <trkpt lat="44.16304" lon="7.51771">
        <ele>2115.04</ele>
        <time>2023-03-18T09:58:57Z</time>
      </trkpt>
      <trkpt lat="44.16301" lon="7.51771">
        <ele>2114.08</ele>
        <time>2023-03-18T09:59:37Z</time>
      </trkpt>
      <trkpt lat="44.16301" lon="7.51771">
        <ele>2118.88</ele>
        <time>2023-03-18T10:00:16Z</time>
      </trkpt>
      <trkpt lat="44.16301" lon="7.51772">
        <ele>2123.69</ele>
        <time>2023-03-18T10:00:33Z</time>
      </trkpt>
      <trkpt lat="44.163" lon="7.51771">
        <ele>2124.17</ele>
        <time>2023-03-18T10:00:48Z</time>
      </trkpt>
      <trkpt lat="44.16303" lon="7.51764">
        <ele>2122.25</ele>
        <time>2023-03-18T10:01:07Z</time>
      </trkpt>
      <trkpt lat="44.16301" lon="7.51759">
        <ele>2123.21</ele>
        <time>2023-03-18T10:01:20Z</time>
      </trkpt>
      <trkpt lat="44.16306" lon="7.51757">
        <ele>2122.73</ele>
        <time>2023-03-18T10:01:33Z</time>
      </trkpt>
      <trkpt lat="44.16307" lon="7.51748">
        <ele>2125.13</ele>
        <time>2023-03-18T10:01:43Z</time>
      </trkpt>
      <trkpt lat="44.16308" lon="7.51738">
        <ele>2128.02</ele>
        <time>2023-03-18T10:02:00Z</time>
      </trkpt>
      <trkpt lat="44.16311" lon="7.51728">
        <ele>2130.9</ele>
        <time>2023-03-18T10:02:21Z</time>
      </trkpt>
      <trkpt lat="44.16309" lon="7.51718">
        <ele>2131.86</ele>
        <time>2023-03-18T10:02:37Z</time>
      </trkpt>
      <trkpt lat="44.1631" lon="7.51708">
        <ele>2133.78</ele>
        <time>2023-03-18T10:02:54Z</time>
      </trkpt>
      <trkpt lat="44.16312" lon="7.51699">
        <ele>2134.74</ele>
        <time>2023-03-18T10:03:09Z</time>
      </trkpt>
      <trkpt lat="44.16311" lon="7.51695">
        <ele>2135.71</ele>
        <time>2023-03-18T10:03:33Z</time>
      </trkpt>
      <trkpt lat="44.16308" lon="7.5169">
        <ele>2138.59</ele>
        <time>2023-03-18T10:03:54Z</time>
      </trkpt>
      <trkpt lat="44.16304" lon="7.5168">
        <ele>2138.59</ele>
        <time>2023-03-18T10:04:11Z</time>
      </trkpt>
      <trkpt lat="44.16308" lon="7.51672">
        <ele>2141.47</ele>
        <time>2023-03-18T10:04:27Z</time>
      </trkpt>
      <trkpt lat="44.16306" lon="7.51664">
        <ele>2143.88</ele>
        <time>2023-03-18T10:04:41Z</time>
      </trkpt>
      <trkpt lat="44.16308" lon="7.51659">
        <ele>2144.84</ele>
        <time>2023-03-18T10:04:53Z</time>
      </trkpt>
      <trkpt lat="44.16306" lon="7.51652">
        <ele>2146.76</ele>
        <time>2023-03-18T10:05:05Z</time>
      </trkpt>
      <trkpt lat="44.16304" lon="7.51646">
        <ele>2147.24</ele>
        <time>2023-03-18T10:05:19Z</time>
      </trkpt>
      <trkpt lat="44.16305" lon="7.5164">
        <ele>2148.68</ele>
        <time>2023-03-18T10:05:32Z</time>
      </trkpt>
      <trkpt lat="44.16306" lon="7.51633">
        <ele>2150.61</ele>
        <time>2023-03-18T10:05:45Z</time>
      </trkpt>
      <trkpt lat="44.16305" lon="7.51626">
        <ele>2152.05</ele>
        <time>2023-03-18T10:06:06Z</time>
      </trkpt>
      <trkpt lat="44.16305" lon="7.51618">
        <ele>2155.41</ele>
        <time>2023-03-18T10:06:26Z</time>
      </trkpt>
      <trkpt lat="44.16305" lon="7.51609">
        <ele>2159.74</ele>
        <time>2023-03-18T10:06:40Z</time>
      </trkpt>
      <trkpt lat="44.16309" lon="7.51601">
        <ele>2161.66</ele>
        <time>2023-03-18T10:06:53Z</time>
      </trkpt>
      <trkpt lat="44.16312" lon="7.51596">
        <ele>2161.66</ele>
        <time>2023-03-18T10:07:09Z</time>
      </trkpt>
      <trkpt lat="44.16316" lon="7.51589">
        <ele>2163.1</ele>
        <time>2023-03-18T10:07:25Z</time>
      </trkpt>
      <trkpt lat="44.16322" lon="7.51588">
        <ele>2165.03</ele>
        <time>2023-03-18T10:07:39Z</time>
      </trkpt>
      <trkpt lat="44.16329" lon="7.51588">
        <ele>2165.51</ele>
        <time>2023-03-18T10:07:51Z</time>
      </trkpt>
      <trkpt lat="44.16337" lon="7.51589">
        <ele>2165.51</ele>
        <time>2023-03-18T10:08:05Z</time>
      </trkpt>
      <trkpt lat="44.16343" lon="7.51591">
        <ele>2164.55</ele>
        <time>2023-03-18T10:08:16Z</time>
      </trkpt>
      <trkpt lat="44.16347" lon="7.51595">
        <ele>2164.06</ele>
        <time>2023-03-18T10:08:33Z</time>
      </trkpt>
      <trkpt lat="44.16348" lon="7.51588">
        <ele>2165.03</ele>
        <time>2023-03-18T10:08:45Z</time>
      </trkpt>
      <trkpt lat="44.16349" lon="7.51578">
        <ele>2165.51</ele>
        <time>2023-03-18T10:09:02Z</time>
      </trkpt>
      <trkpt lat="44.16351" lon="7.51569">
        <ele>2166.95</ele>
        <time>2023-03-18T10:09:17Z</time>
      </trkpt>
      <trkpt lat="44.16353" lon="7.51561">
        <ele>2169.35</ele>
        <time>2023-03-18T10:09:36Z</time>
      </trkpt>
      <trkpt lat="44.16355" lon="7.51555">
        <ele>2171.27</ele>
        <time>2023-03-18T10:09:51Z</time>
      </trkpt>
      <trkpt lat="44.16354" lon="7.51553">
        <ele>2170.79</ele>
        <time>2023-03-18T10:10:09Z</time>
      </trkpt>
      <trkpt lat="44.16354" lon="7.51558">
        <ele>2172.72</ele>
        <time>2023-03-18T10:10:24Z</time>
      </trkpt>
      <trkpt lat="44.1636" lon="7.51565">
        <ele>2176.56</ele>
        <time>2023-03-18T10:10:39Z</time>
      </trkpt>
      <trkpt lat="44.16363" lon="7.51558">
        <ele>2176.08</ele>
        <time>2023-03-18T10:10:53Z</time>
      </trkpt>
      <trkpt lat="44.16364" lon="7.51548">
        <ele>2178</ele>
        <time>2023-03-18T10:11:08Z</time>
      </trkpt>
      <trkpt lat="44.16363" lon="7.51542">
        <ele>2178</ele>
        <time>2023-03-18T10:11:25Z</time>
      </trkpt>
      <trkpt lat="44.16364" lon="7.51546">
        <ele>2177.52</ele>
        <time>2023-03-18T10:11:36Z</time>
      </trkpt>
      <trkpt lat="44.16368" lon="7.51555">
        <ele>2182.33</ele>
        <time>2023-03-18T10:11:50Z</time>
      </trkpt>
      <trkpt lat="44.16375" lon="7.51567">
        <ele>2188.1</ele>
        <time>2023-03-18T10:12:05Z</time>
      </trkpt>
      <trkpt lat="44.16376" lon="7.51572">
        <ele>2192.42</ele>
        <time>2023-03-18T10:12:21Z</time>
      </trkpt>
      <trkpt lat="44.16378" lon="7.51571">
        <ele>2194.83</ele>
        <time>2023-03-18T10:12:41Z</time>
      </trkpt>
      <trkpt lat="44.16377" lon="7.51563">
        <ele>2196.75</ele>
        <time>2023-03-18T10:12:57Z</time>
      </trkpt>
      <trkpt lat="44.16382" lon="7.51551">
        <ele>2198.19</ele>
        <time>2023-03-18T10:13:12Z</time>
      </trkpt>
      <trkpt lat="44.16381" lon="7.51543">
        <ele>2201.08</ele>
        <time>2023-03-18T10:13:26Z</time>
      </trkpt>
      <trkpt lat="44.16381" lon="7.51536">
        <ele>2204.44</ele>
        <time>2023-03-18T10:13:43Z</time>
      </trkpt>
      <trkpt lat="44.16387" lon="7.51527">
        <ele>2194.35</ele>
        <time>2023-03-18T10:14:00Z</time>
      </trkpt>
      <trkpt lat="44.16386" lon="7.51528">
        <ele>2193.87</ele>
        <time>2023-03-18T10:14:33Z</time>
      </trkpt>
      <trkpt lat="44.16387" lon="7.51521">
        <ele>2193.39</ele>
        <time>2023-03-18T10:14:49Z</time>
      </trkpt>
      <trkpt lat="44.16386" lon="7.51521">
        <ele>2192.9</ele>
        <time>2023-03-18T10:15:03Z</time>
      </trkpt>
      <trkpt lat="44.16386" lon="7.51527">
        <ele>2194.83</ele>
        <time>2023-03-18T10:15:15Z</time>
      </trkpt>
      <trkpt lat="44.16393" lon="7.51533">
        <ele>2197.71</ele>
        <time>2023-03-18T10:15:30Z</time>
      </trkpt>
      <trkpt lat="44.16399" lon="7.5154">
        <ele>2200.59</ele>
        <time>2023-03-18T10:15:44Z</time>
      </trkpt>
      <trkpt lat="44.16402" lon="7.51546">
        <ele>2208.29</ele>
        <time>2023-03-18T10:16:00Z</time>
      </trkpt>
      <trkpt lat="44.16402" lon="7.51536">
        <ele>2204.92</ele>
        <time>2023-03-18T10:16:15Z</time>
      </trkpt>
      <trkpt lat="44.16403" lon="7.51528">
        <ele>2205.4</ele>
        <time>2023-03-18T10:16:31Z</time>
      </trkpt>
      <trkpt lat="44.16404" lon="7.51517">
        <ele>2205.88</ele>
        <time>2023-03-18T10:16:47Z</time>
      </trkpt>
      <trkpt lat="44.16403" lon="7.51517">
        <ele>2207.32</ele>
        <time>2023-03-18T10:17:04Z</time>
      </trkpt>
      <trkpt lat="44.16407" lon="7.51523">
        <ele>2208.29</ele>
        <time>2023-03-18T10:17:21Z</time>
      </trkpt>
      <trkpt lat="44.1641" lon="7.51518">
        <ele>2208.29</ele>
        <time>2023-03-18T10:17:36Z</time>
      </trkpt>
      <trkpt lat="44.16407" lon="7.51512">
        <ele>2207.81</ele>
        <time>2023-03-18T10:17:53Z</time>
      </trkpt>
      <trkpt lat="44.16408" lon="7.51508">
        <ele>2208.77</ele>
        <time>2023-03-18T10:18:09Z</time>
      </trkpt>
      <trkpt lat="44.16407" lon="7.51509">
        <ele>2211.17</ele>
        <time>2023-03-18T10:18:37Z</time>
      </trkpt>
      <trkpt lat="44.16408" lon="7.51508">
        <ele>2212.61</ele>
        <time>2023-03-18T10:18:52Z</time>
      </trkpt>
      <trkpt lat="44.16407" lon="7.51514">
        <ele>2214.05</ele>
        <time>2023-03-18T10:19:09Z</time>
      </trkpt>
      <trkpt lat="44.16414" lon="7.51512">
        <ele>2213.09</ele>
        <time>2023-03-18T10:19:27Z</time>
      </trkpt>
      <trkpt lat="44.16418" lon="7.51504">
        <ele>2212.13</ele>
        <time>2023-03-18T10:19:41Z</time>
      </trkpt>
      <trkpt lat="44.16415" lon="7.51494">
        <ele>2215.01</ele>
        <time>2023-03-18T10:19:55Z</time>
      </trkpt>
      <trkpt lat="44.16411" lon="7.51487">
        <ele>2218.86</ele>
        <time>2023-03-18T10:20:09Z</time>
      </trkpt>
      <trkpt lat="44.16407" lon="7.5148">
        <ele>2221.26</ele>
        <time>2023-03-18T10:20:25Z</time>
      </trkpt>
      <trkpt lat="44.1641" lon="7.51481">
        <ele>2220.78</ele>
        <time>2023-03-18T10:20:45Z</time>
      </trkpt>
      <trkpt lat="44.16417" lon="7.51479">
        <ele>2223.67</ele>
        <time>2023-03-18T10:21:00Z</time>
      </trkpt>
      <trkpt lat="44.16419" lon="7.51478">
        <ele>2226.07</ele>
        <time>2023-03-18T10:21:18Z</time>
      </trkpt>
      <trkpt lat="44.16418" lon="7.51468">
        <ele>2227.99</ele>
        <time>2023-03-18T10:21:31Z</time>
      </trkpt>
      <trkpt lat="44.16417" lon="7.51456">
        <ele>2229.43</ele>
        <time>2023-03-18T10:21:47Z</time>
      </trkpt>
      <trkpt lat="44.16415" lon="7.5145">
        <ele>2231.84</ele>
        <time>2023-03-18T10:22:07Z</time>
      </trkpt>
      <trkpt lat="44.16416" lon="7.51446">
        <ele>2232.8</ele>
        <time>2023-03-18T10:22:22Z</time>
      </trkpt>
      <trkpt lat="44.16419" lon="7.51451">
        <ele>2232.8</ele>
        <time>2023-03-18T10:22:38Z</time>
      </trkpt>
      <trkpt lat="44.16422" lon="7.51451">
        <ele>2234.72</ele>
        <time>2023-03-18T10:22:52Z</time>
      </trkpt>
      <trkpt lat="44.16427" lon="7.51451">
        <ele>2236.64</ele>
        <time>2023-03-18T10:23:12Z</time>
      </trkpt>
      <trkpt lat="44.16433" lon="7.51448">
        <ele>2238.57</ele>
        <time>2023-03-18T10:23:25Z</time>
      </trkpt>
      <trkpt lat="44.16438" lon="7.51446">
        <ele>2240.97</ele>
        <time>2023-03-18T10:23:39Z</time>
      </trkpt>
      <trkpt lat="44.16445" lon="7.51445">
        <ele>2242.89</ele>
        <time>2023-03-18T10:23:54Z</time>
      </trkpt>
      <trkpt lat="44.16451" lon="7.51444">
        <ele>2244.33</ele>
        <time>2023-03-18T10:24:08Z</time>
      </trkpt>
      <trkpt lat="44.16455" lon="7.51443">
        <ele>2246.26</ele>
        <time>2023-03-18T10:24:22Z</time>
      </trkpt>
      <trkpt lat="44.16458" lon="7.51442">
        <ele>2247.22</ele>
        <time>2023-03-18T10:24:37Z</time>
      </trkpt>
      <trkpt lat="44.16462" lon="7.51442">
        <ele>2247.22</ele>
        <time>2023-03-18T10:25:00Z</time>
      </trkpt>
      <trkpt lat="44.16459" lon="7.5144">
        <ele>2247.7</ele>
        <time>2023-03-18T10:25:14Z</time>
      </trkpt>
      <trkpt lat="44.16455" lon="7.51432">
        <ele>2250.58</ele>
        <time>2023-03-18T10:25:35Z</time>
      </trkpt>
      <trkpt lat="44.16452" lon="7.51424">
        <ele>2253.47</ele>
        <time>2023-03-18T10:25:52Z</time>
      </trkpt>
      <trkpt lat="44.16448" lon="7.51413">
        <ele>2256.83</ele>
        <time>2023-03-18T10:26:10Z</time>
      </trkpt>
      <trkpt lat="44.16444" lon="7.51405">
        <ele>2258.75</ele>
        <time>2023-03-18T10:26:27Z</time>
      </trkpt>
      <trkpt lat="44.16443" lon="7.51399">
        <ele>2260.68</ele>
        <time>2023-03-18T10:26:44Z</time>
      </trkpt>
      <trkpt lat="44.16441" lon="7.51396">
        <ele>2259.24</ele>
        <time>2023-03-18T10:26:59Z</time>
      </trkpt>
      <trkpt lat="44.16442" lon="7.51397">
        <ele>2260.2</ele>
        <time>2023-03-18T10:27:22Z</time>
      </trkpt>
      <trkpt lat="44.16442" lon="7.51396">
        <ele>2260.68</ele>
        <time>2023-03-18T10:27:39Z</time>
      </trkpt>
      <trkpt lat="44.16451" lon="7.51397">
        <ele>2260.68</ele>
        <time>2023-03-18T10:27:54Z</time>
      </trkpt>
      <trkpt lat="44.1646" lon="7.51396">
        <ele>2262.6</ele>
        <time>2023-03-18T10:28:11Z</time>
      </trkpt>
      <trkpt lat="44.16467" lon="7.51396">
        <ele>2264.52</ele>
        <time>2023-03-18T10:28:25Z</time>
      </trkpt>
      <trkpt lat="44.16473" lon="7.51396">
        <ele>2266.45</ele>
        <time>2023-03-18T10:28:39Z</time>
      </trkpt>
      <trkpt lat="44.1647" lon="7.51389">
        <ele>2266.45</ele>
        <time>2023-03-18T10:28:51Z</time>
      </trkpt>
      <trkpt lat="44.16466" lon="7.5138">
        <ele>2267.41</ele>
        <time>2023-03-18T10:29:07Z</time>
      </trkpt>
      <trkpt lat="44.16462" lon="7.51374">
        <ele>2269.81</ele>
        <time>2023-03-18T10:29:22Z</time>
      </trkpt>
      <trkpt lat="44.16458" lon="7.51367">
        <ele>2274.62</ele>
        <time>2023-03-18T10:29:38Z</time>
      </trkpt>
      <trkpt lat="44.16454" lon="7.51365">
        <ele>2274.14</ele>
        <time>2023-03-18T10:30:01Z</time>
      </trkpt>
      <trkpt lat="44.16452" lon="7.51356">
        <ele>2277.5</ele>
        <time>2023-03-18T10:30:20Z</time>
      </trkpt>
      <trkpt lat="44.16448" lon="7.51345">
        <ele>2280.38</ele>
        <time>2023-03-18T10:30:36Z</time>
      </trkpt>
      <trkpt lat="44.16443" lon="7.51336">
        <ele>2280.87</ele>
        <time>2023-03-18T10:30:54Z</time>
      </trkpt>
      <trkpt lat="44.16438" lon="7.51333">
        <ele>2281.35</ele>
        <time>2023-03-18T10:31:17Z</time>
      </trkpt>
      <trkpt lat="44.1644" lon="7.51331">
        <ele>2281.83</ele>
        <time>2023-03-18T10:31:38Z</time>
      </trkpt>
      <trkpt lat="44.16442" lon="7.51331">
        <ele>2281.83</ele>
        <time>2023-03-18T10:32:10Z</time>
      </trkpt>
      <trkpt lat="44.1644" lon="7.51327">
        <ele>2283.27</ele>
        <time>2023-03-18T10:32:24Z</time>
      </trkpt>
      <trkpt lat="44.16436" lon="7.5132">
        <ele>2286.63</ele>
        <time>2023-03-18T10:32:40Z</time>
      </trkpt>
      <trkpt lat="44.16432" lon="7.51308">
        <ele>2287.59</ele>
        <time>2023-03-18T10:32:59Z</time>
      </trkpt>
      <trkpt lat="44.1643" lon="7.51303">
        <ele>2291.44</ele>
        <time>2023-03-18T10:33:14Z</time>
      </trkpt>
      <trkpt lat="44.16426" lon="7.51297">
        <ele>2292.4</ele>
        <time>2023-03-18T10:33:31Z</time>
      </trkpt>
      <trkpt lat="44.16426" lon="7.51294">
        <ele>2293.36</ele>
        <time>2023-03-18T10:33:51Z</time>
      </trkpt>
      <trkpt lat="44.16423" lon="7.51291">
        <ele>2293.36</ele>
        <time>2023-03-18T10:34:07Z</time>
      </trkpt>
      <trkpt lat="44.16419" lon="7.51286">
        <ele>2295.28</ele>
        <time>2023-03-18T10:34:21Z</time>
      </trkpt>
      <trkpt lat="44.16415" lon="7.5128">
        <ele>2297.69</ele>
        <time>2023-03-18T10:34:42Z</time>
      </trkpt>
      <trkpt lat="44.16411" lon="7.51275">
        <ele>2298.17</ele>
        <time>2023-03-18T10:35:01Z</time>
      </trkpt>
      <trkpt lat="44.16415" lon="7.51276">
        <ele>2297.69</ele>
        <time>2023-03-18T10:35:18Z</time>
      </trkpt>
      <trkpt lat="44.1642" lon="7.5128">
        <ele>2299.61</ele>
        <time>2023-03-18T10:35:32Z</time>
      </trkpt>
      <trkpt lat="44.16425" lon="7.51279">
        <ele>2299.61</ele>
        <time>2023-03-18T10:35:45Z</time>
      </trkpt>
      <trkpt lat="44.16421" lon="7.51273">
        <ele>2301.05</ele>
        <time>2023-03-18T10:35:59Z</time>
      </trkpt>
      <trkpt lat="44.16419" lon="7.51266">
        <ele>2303.94</ele>
        <time>2023-03-18T10:36:14Z</time>
      </trkpt>
      <trkpt lat="44.16422" lon="7.51271">
        <ele>2303.46</ele>
        <time>2023-03-18T10:36:32Z</time>
      </trkpt>
      <trkpt lat="44.1643" lon="7.51271">
        <ele>2306.34</ele>
        <time>2023-03-18T10:36:46Z</time>
      </trkpt>
      <trkpt lat="44.16433" lon="7.51273">
        <ele>2306.34</ele>
        <time>2023-03-18T10:37:00Z</time>
      </trkpt>
      <trkpt lat="44.16435" lon="7.51274">
        <ele>2305.86</ele>
        <time>2023-03-18T10:37:13Z</time>
      </trkpt>
      <trkpt lat="44.16438" lon="7.51275">
        <ele>2307.3</ele>
        <time>2023-03-18T10:37:30Z</time>
      </trkpt>
      <trkpt lat="44.16439" lon="7.51277">
        <ele>2308.74</ele>
        <time>2023-03-18T10:37:48Z</time>
      </trkpt>
      <trkpt lat="44.16444" lon="7.51277">
        <ele>2308.74</ele>
        <time>2023-03-18T10:38:03Z</time>
      </trkpt>
      <trkpt lat="44.16449" lon="7.51277">
        <ele>2309.22</ele>
        <time>2023-03-18T10:38:15Z</time>
      </trkpt>
      <trkpt lat="44.16453" lon="7.5128">
        <ele>2311.15</ele>
        <time>2023-03-18T10:38:30Z</time>
      </trkpt>
      <trkpt lat="44.16458" lon="7.5128">
        <ele>2314.03</ele>
        <time>2023-03-18T10:38:44Z</time>
      </trkpt>
      <trkpt lat="44.16462" lon="7.51281">
        <ele>2315.95</ele>
        <time>2023-03-18T10:38:57Z</time>
      </trkpt>
      <trkpt lat="44.16462" lon="7.51275">
        <ele>2316.43</ele>
        <time>2023-03-18T10:39:15Z</time>
      </trkpt>
      <trkpt lat="44.16459" lon="7.51269">
        <ele>2318.36</ele>
        <time>2023-03-18T10:39:33Z</time>
      </trkpt>
      <trkpt lat="44.1646" lon="7.51275">
        <ele>2317.4</ele>
        <time>2023-03-18T10:39:50Z</time>
      </trkpt>
      <trkpt lat="44.16466" lon="7.51275">
        <ele>2319.8</ele>
        <time>2023-03-18T10:40:04Z</time>
      </trkpt>
      <trkpt lat="44.1647" lon="7.51275">
        <ele>2322.2</ele>
        <time>2023-03-18T10:40:17Z</time>
      </trkpt>
      <trkpt lat="44.16474" lon="7.51272">
        <ele>2325.09</ele>
        <time>2023-03-18T10:40:30Z</time>
      </trkpt>
      <trkpt lat="44.16476" lon="7.51272">
        <ele>2326.05</ele>
        <time>2023-03-18T10:40:48Z</time>
      </trkpt>
      <trkpt lat="44.16477" lon="7.51268">
        <ele>2326.05</ele>
        <time>2023-03-18T10:41:02Z</time>
      </trkpt>
      <trkpt lat="44.16477" lon="7.5127">
        <ele>2325.57</ele>
        <time>2023-03-18T10:41:27Z</time>
      </trkpt>
      <trkpt lat="44.16477" lon="7.51272">
        <ele>2325.09</ele>
        <time>2023-03-18T10:41:51Z</time>
      </trkpt>
      <trkpt lat="44.16476" lon="7.51267">
        <ele>2324.61</ele>
        <time>2023-03-18T10:42:07Z</time>
      </trkpt>
      <trkpt lat="44.16476" lon="7.51267">
        <ele>2327.97</ele>
        <time>2023-03-18T10:42:54Z</time>
      </trkpt>
      <trkpt lat="44.16476" lon="7.51268">
        <ele>2327.49</ele>
        <time>2023-03-18T10:43:39Z</time>
      </trkpt>
      <trkpt lat="44.16475" lon="7.51267">
        <ele>2328.45</ele>
        <time>2023-03-18T10:44:15Z</time>
      </trkpt>
      <trkpt lat="44.16476" lon="7.51265">
        <ele>2327.49</ele>
        <time>2023-03-18T10:44:57Z</time>
      </trkpt>
      <trkpt lat="44.16476" lon="7.51266">
        <ele>2325.09</ele>
        <time>2023-03-18T10:45:35Z</time>
      </trkpt>
      <trkpt lat="44.16476" lon="7.51266">
        <ele>2327.01</ele>
        <time>2023-03-18T10:46:09Z</time>
      </trkpt>
      <trkpt lat="44.16473" lon="7.51269">
        <ele>2328.93</ele>
        <time>2023-03-18T10:46:48Z</time>
      </trkpt>
      <trkpt lat="44.16473" lon="7.51269">
        <ele>2329.89</ele>
        <time>2023-03-18T10:47:21Z</time>
      </trkpt>
      <trkpt lat="44.16472" lon="7.51269">
        <ele>2329.89</ele>
        <time>2023-03-18T10:48:05Z</time>
      </trkpt>
      <trkpt lat="44.16472" lon="7.5127">
        <ele>2330.85</ele>
        <time>2023-03-18T10:48:44Z</time>
      </trkpt>
      <trkpt lat="44.16472" lon="7.5127">
        <ele>2329.89</ele>
        <time>2023-03-18T10:49:19Z</time>
      </trkpt>
      <trkpt lat="44.16472" lon="7.51269">
        <ele>2328.45</ele>
        <time>2023-03-18T10:49:57Z</time>
      </trkpt>
      <trkpt lat="44.16475" lon="7.51267">
        <ele>2327.01</ele>
        <time>2023-03-18T10:50:33Z</time>
      </trkpt>
      <trkpt lat="44.16475" lon="7.51267">
        <ele>2327.97</ele>
        <time>2023-03-18T10:51:15Z</time>
      </trkpt>
      <trkpt lat="44.16475" lon="7.51267">
        <ele>2327.49</ele>
        <time>2023-03-18T10:51:49Z</time>
      </trkpt>
      <trkpt lat="44.16475" lon="7.51266">
        <ele>2324.61</ele>
        <time>2023-03-18T10:52:30Z</time>
      </trkpt>
      <trkpt lat="44.16475" lon="7.51266">
        <ele>2324.61</ele>
        <time>2023-03-18T10:53:10Z</time>
      </trkpt>
      <trkpt lat="44.16476" lon="7.51265">
        <ele>2326.53</ele>
        <time>2023-03-18T10:53:51Z</time>
      </trkpt>
      <trkpt lat="44.16476" lon="7.51267">
        <ele>2327.01</ele>
        <time>2023-03-18T10:54:11Z</time>
      </trkpt>
      <trkpt lat="44.16474" lon="7.51268">
        <ele>2327.01</ele>
        <time>2023-03-18T10:54:33Z</time>
      </trkpt>
      <trkpt lat="44.16476" lon="7.5127">
        <ele>2327.01</ele>
        <time>2023-03-18T10:54:46Z</time>
      </trkpt>
      <trkpt lat="44.16476" lon="7.51268">
        <ele>2327.97</ele>
        <time>2023-03-18T10:55:04Z</time>
      </trkpt>
      <trkpt lat="44.16475" lon="7.51271">
        <ele>2327.01</ele>
        <time>2023-03-18T10:55:23Z</time>
      </trkpt>
      <trkpt lat="44.16475" lon="7.5127">
        <ele>2327.01</ele>
        <time>2023-03-18T10:55:45Z</time>
      </trkpt>
      <trkpt lat="44.16476" lon="7.51268">
        <ele>2327.49</ele>
        <time>2023-03-18T10:56:08Z</time>
      </trkpt>
      <trkpt lat="44.16474" lon="7.5127">
        <ele>2327.97</ele>
        <time>2023-03-18T10:56:35Z</time>
      </trkpt>
      <trkpt lat="44.16475" lon="7.51272">
        <ele>2328.45</ele>
        <time>2023-03-18T10:56:45Z</time>
      </trkpt>
      <trkpt lat="44.16477" lon="7.51275">
        <ele>2326.53</ele>
        <time>2023-03-18T10:56:52Z</time>
      </trkpt>
      <trkpt lat="44.16474" lon="7.51277">
        <ele>2325.09</ele>
        <time>2023-03-18T10:56:55Z</time>
      </trkpt>
      <trkpt lat="44.16471" lon="7.51276">
        <ele>2323.64</ele>
        <time>2023-03-18T10:57:05Z</time>
      </trkpt>
      <trkpt lat="44.16467" lon="7.51276">
        <ele>2324.61</ele>
        <time>2023-03-18T10:57:35Z</time>
      </trkpt>
      <trkpt lat="44.16466" lon="7.5128">
        <ele>2324.12</ele>
        <time>2023-03-18T10:57:36Z</time>
      </trkpt>
      <trkpt lat="44.16467" lon="7.51284">
        <ele>2322.68</ele>
        <time>2023-03-18T10:57:37Z</time>
      </trkpt>
      <trkpt lat="44.16467" lon="7.51285">
        <ele>2321.72</ele>
        <time>2023-03-18T10:57:38Z</time>
      </trkpt>
      <trkpt lat="44.16462" lon="7.51299">
        <ele>2314.03</ele>
        <time>2023-03-18T10:57:44Z</time>
      </trkpt>
      <trkpt lat="44.16458" lon="7.51311">
        <ele>2307.78</ele>
        <time>2023-03-18T10:57:49Z</time>
      </trkpt>
      <trkpt lat="44.16458" lon="7.51313">
        <ele>2300.57</ele>
        <time>2023-03-18T10:58:00Z</time>
      </trkpt>
      <trkpt lat="44.1645" lon="7.51324">
        <ele>2295.28</ele>
        <time>2023-03-18T10:58:06Z</time>
      </trkpt>
      <trkpt lat="44.16445" lon="7.51333">
        <ele>2289.04</ele>
        <time>2023-03-18T10:58:11Z</time>
      </trkpt>
      <trkpt lat="44.16442" lon="7.5134">
        <ele>2286.15</ele>
        <time>2023-03-18T10:58:13Z</time>
      </trkpt>
      <trkpt lat="44.16433" lon="7.51356">
        <ele>2277.5</ele>
        <time>2023-03-18T10:58:20Z</time>
      </trkpt>
      <trkpt lat="44.16425" lon="7.51369">
        <ele>2271.73</ele>
        <time>2023-03-18T10:58:25Z</time>
      </trkpt>
      <trkpt lat="44.16416" lon="7.51383">
        <ele>2264.04</ele>
        <time>2023-03-18T10:58:30Z</time>
      </trkpt>
      <trkpt lat="44.16416" lon="7.51386">
        <ele>2262.6</ele>
        <time>2023-03-18T10:58:31Z</time>
      </trkpt>
      <trkpt lat="44.16413" lon="7.51403">
        <ele>2257.79</ele>
        <time>2023-03-18T10:58:34Z</time>
      </trkpt>
      <trkpt lat="44.16416" lon="7.51408">
        <ele>2255.87</ele>
        <time>2023-03-18T10:58:35Z</time>
      </trkpt>
      <trkpt lat="44.16421" lon="7.51408">
        <ele>2248.66</ele>
        <time>2023-03-18T10:58:47Z</time>
      </trkpt>
      <trkpt lat="44.16422" lon="7.51409">
        <ele>2246.74</ele>
        <time>2023-03-18T10:59:08Z</time>
      </trkpt>
      <trkpt lat="44.16423" lon="7.51411">
        <ele>2246.74</ele>
        <time>2023-03-18T10:59:15Z</time>
      </trkpt>
      <trkpt lat="44.16423" lon="7.51414">
        <ele>2246.26</ele>
        <time>2023-03-18T10:59:16Z</time>
      </trkpt>
      <trkpt lat="44.16425" lon="7.51416">
        <ele>2246.26</ele>
        <time>2023-03-18T10:59:17Z</time>
      </trkpt>
      <trkpt lat="44.16427" lon="7.51422">
        <ele>2244.82</ele>
        <time>2023-03-18T10:59:19Z</time>
      </trkpt>
      <trkpt lat="44.16424" lon="7.51424">
        <ele>2244.33</ele>
        <time>2023-03-18T10:59:20Z</time>
      </trkpt>
      <trkpt lat="44.1642" lon="7.51428">
        <ele>2242.89</ele>
        <time>2023-03-18T10:59:21Z</time>
      </trkpt>
      <trkpt lat="44.1642" lon="7.51433">
        <ele>2241.45</ele>
        <time>2023-03-18T10:59:22Z</time>
      </trkpt>
      <trkpt lat="44.16421" lon="7.51438">
        <ele>2240.01</ele>
        <time>2023-03-18T10:59:23Z</time>
      </trkpt>
      <trkpt lat="44.16421" lon="7.51443">
        <ele>2238.57</ele>
        <time>2023-03-18T10:59:24Z</time>
      </trkpt>
      <trkpt lat="44.16418" lon="7.51445">
        <ele>2237.13</ele>
        <time>2023-03-18T10:59:25Z</time>
      </trkpt>
      <trkpt lat="44.16411" lon="7.51449">
        <ele>2234.24</ele>
        <time>2023-03-18T10:59:27Z</time>
      </trkpt>
      <trkpt lat="44.1641" lon="7.51455">
        <ele>2232.8</ele>
        <time>2023-03-18T10:59:28Z</time>
      </trkpt>
      <trkpt lat="44.16412" lon="7.51461">
        <ele>2231.36</ele>
        <time>2023-03-18T10:59:29Z</time>
      </trkpt>
      <trkpt lat="44.16414" lon="7.51466">
        <ele>2229.92</ele>
        <time>2023-03-18T10:59:30Z</time>
      </trkpt>
      <trkpt lat="44.16414" lon="7.5147">
        <ele>2228.47</ele>
        <time>2023-03-18T10:59:31Z</time>
      </trkpt>
      <trkpt lat="44.16411" lon="7.51473">
        <ele>2227.03</ele>
        <time>2023-03-18T10:59:32Z</time>
      </trkpt>
      <trkpt lat="44.16408" lon="7.51478">
        <ele>2225.59</ele>
        <time>2023-03-18T10:59:33Z</time>
      </trkpt>
      <trkpt lat="44.16412" lon="7.51487">
        <ele>2222.71</ele>
        <time>2023-03-18T10:59:35Z</time>
      </trkpt>
      <trkpt lat="44.16413" lon="7.51491">
        <ele>2221.26</ele>
        <time>2023-03-18T10:59:36Z</time>
      </trkpt>
      <trkpt lat="44.16413" lon="7.5149">
        <ele>2215.98</ele>
        <time>2023-03-18T10:59:44Z</time>
      </trkpt>
      <trkpt lat="44.16412" lon="7.5149">
        <ele>2215.01</ele>
        <time>2023-03-18T10:59:55Z</time>
      </trkpt>
      <trkpt lat="44.1641" lon="7.51491">
        <ele>2214.53</ele>
        <time>2023-03-18T10:59:56Z</time>
      </trkpt>
      <trkpt lat="44.16409" lon="7.51495">
        <ele>2214.53</ele>
        <time>2023-03-18T10:59:57Z</time>
      </trkpt>
      <trkpt lat="44.1641" lon="7.515">
        <ele>2213.57</ele>
        <time>2023-03-18T10:59:58Z</time>
      </trkpt>
      <trkpt lat="44.16411" lon="7.51504">
        <ele>2213.09</ele>
        <time>2023-03-18T10:59:59Z</time>
      </trkpt>
      <trkpt lat="44.16411" lon="7.51511">
        <ele>2212.13</ele>
        <time>2023-03-18T11:00:01Z</time>
      </trkpt>
      <trkpt lat="44.16409" lon="7.51513">
        <ele>2211.65</ele>
        <time>2023-03-18T11:00:02Z</time>
      </trkpt>
      <trkpt lat="44.16406" lon="7.51513">
        <ele>2210.69</ele>
        <time>2023-03-18T11:00:03Z</time>
      </trkpt>
      <trkpt lat="44.16403" lon="7.51516">
        <ele>2209.25</ele>
        <time>2023-03-18T11:00:04Z</time>
      </trkpt>
      <trkpt lat="44.16403" lon="7.5152">
        <ele>2208.29</ele>
        <time>2023-03-18T11:00:05Z</time>
      </trkpt>
      <trkpt lat="44.16403" lon="7.51523">
        <ele>2207.32</ele>
        <time>2023-03-18T11:00:06Z</time>
      </trkpt>
      <trkpt lat="44.16401" lon="7.51526">
        <ele>2205.88</ele>
        <time>2023-03-18T11:00:07Z</time>
      </trkpt>
      <trkpt lat="44.16399" lon="7.51525">
        <ele>2204.44</ele>
        <time>2023-03-18T11:00:08Z</time>
      </trkpt>
      <trkpt lat="44.16398" lon="7.51523">
        <ele>2203</ele>
        <time>2023-03-18T11:00:09Z</time>
      </trkpt>
      <trkpt lat="44.16395" lon="7.51522">
        <ele>2202.04</ele>
        <time>2023-03-18T11:00:10Z</time>
      </trkpt>
      <trkpt lat="44.16392" lon="7.51525">
        <ele>2200.59</ele>
        <time>2023-03-18T11:00:11Z</time>
      </trkpt>
      <trkpt lat="44.16392" lon="7.51529">
        <ele>2198.67</ele>
        <time>2023-03-18T11:00:12Z</time>
      </trkpt>
      <trkpt lat="44.16392" lon="7.51532">
        <ele>2197.23</ele>
        <time>2023-03-18T11:00:13Z</time>
      </trkpt>
      <trkpt lat="44.1639" lon="7.51534">
        <ele>2195.79</ele>
        <time>2023-03-18T11:00:14Z</time>
      </trkpt>
      <trkpt lat="44.16387" lon="7.51533">
        <ele>2194.35</ele>
        <time>2023-03-18T11:00:15Z</time>
      </trkpt>
      <trkpt lat="44.16385" lon="7.51532">
        <ele>2192.9</ele>
        <time>2023-03-18T11:00:16Z</time>
      </trkpt>
      <trkpt lat="44.16383" lon="7.51535">
        <ele>2190.98</ele>
        <time>2023-03-18T11:00:17Z</time>
      </trkpt>
      <trkpt lat="44.16382" lon="7.5154">
        <ele>2189.06</ele>
        <time>2023-03-18T11:00:18Z</time>
      </trkpt>
      <trkpt lat="44.16382" lon="7.51544">
        <ele>2187.14</ele>
        <time>2023-03-18T11:00:19Z</time>
      </trkpt>
      <trkpt lat="44.16375" lon="7.51543">
        <ele>2182.81</ele>
        <time>2023-03-18T11:00:22Z</time>
      </trkpt>
      <trkpt lat="44.16365" lon="7.51556">
        <ele>2171.76</ele>
        <time>2023-03-18T11:00:28Z</time>
      </trkpt>
      <trkpt lat="44.16351" lon="7.5156">
        <ele>2165.99</ele>
        <time>2023-03-18T11:00:32Z</time>
      </trkpt>
      <trkpt lat="44.1635" lon="7.51565">
        <ele>2165.03</ele>
        <time>2023-03-18T11:00:33Z</time>
      </trkpt>
      <trkpt lat="44.1635" lon="7.51569">
        <ele>2163.58</ele>
        <time>2023-03-18T11:00:34Z</time>
      </trkpt>
      <trkpt lat="44.16351" lon="7.51571">
        <ele>2162.14</ele>
        <time>2023-03-18T11:00:35Z</time>
      </trkpt>
      <trkpt lat="44.1635" lon="7.51571">
        <ele>2160.7</ele>
        <time>2023-03-18T11:00:49Z</time>
      </trkpt>
      <trkpt lat="44.16349" lon="7.51575">
        <ele>2159.26</ele>
        <time>2023-03-18T11:00:50Z</time>
      </trkpt>
      <trkpt lat="44.16338" lon="7.51571">
        <ele>2156.86</ele>
        <time>2023-03-18T11:00:53Z</time>
      </trkpt>
      <trkpt lat="44.16323" lon="7.51574">
        <ele>2155.41</ele>
        <time>2023-03-18T11:00:56Z</time>
      </trkpt>
      <trkpt lat="44.16321" lon="7.5158">
        <ele>2154.93</ele>
        <time>2023-03-18T11:00:57Z</time>
      </trkpt>
      <trkpt lat="44.16319" lon="7.51586">
        <ele>2153.97</ele>
        <time>2023-03-18T11:00:58Z</time>
      </trkpt>
      <trkpt lat="44.16305" lon="7.51602">
        <ele>2151.09</ele>
        <time>2023-03-18T11:01:03Z</time>
      </trkpt>
      <trkpt lat="44.16302" lon="7.51608">
        <ele>2150.13</ele>
        <time>2023-03-18T11:01:04Z</time>
      </trkpt>
      <trkpt lat="44.16294" lon="7.51619">
        <ele>2150.13</ele>
        <time>2023-03-18T11:01:12Z</time>
      </trkpt>
      <trkpt lat="44.16292" lon="7.5162">
        <ele>2152.05</ele>
        <time>2023-03-18T11:01:36Z</time>
      </trkpt>
      <trkpt lat="44.16296" lon="7.51624">
        <ele>2151.57</ele>
        <time>2023-03-18T11:01:39Z</time>
      </trkpt>
      <trkpt lat="44.16301" lon="7.51621">
        <ele>2150.61</ele>
        <time>2023-03-18T11:01:51Z</time>
      </trkpt>
      <trkpt lat="44.16305" lon="7.51623">
        <ele>2148.2</ele>
        <time>2023-03-18T11:01:58Z</time>
      </trkpt>
      <trkpt lat="44.16302" lon="7.51651">
        <ele>2144.84</ele>
        <time>2023-03-18T11:02:04Z</time>
      </trkpt>
      <trkpt lat="44.16303" lon="7.51679">
        <ele>2138.59</ele>
        <time>2023-03-18T11:02:08Z</time>
      </trkpt>
      <trkpt lat="44.16304" lon="7.51686">
        <ele>2136.67</ele>
        <time>2023-03-18T11:02:09Z</time>
      </trkpt>
      <trkpt lat="44.16306" lon="7.51725">
        <ele>2125.13</ele>
        <time>2023-03-18T11:02:16Z</time>
      </trkpt>
      <trkpt lat="44.16307" lon="7.5173">
        <ele>2123.69</ele>
        <time>2023-03-18T11:02:17Z</time>
      </trkpt>
      <trkpt lat="44.16305" lon="7.51735">
        <ele>2122.73</ele>
        <time>2023-03-18T11:02:18Z</time>
      </trkpt>
      <trkpt lat="44.16303" lon="7.5174">
        <ele>2121.77</ele>
        <time>2023-03-18T11:02:19Z</time>
      </trkpt>
      <trkpt lat="44.16304" lon="7.51746">
        <ele>2120.81</ele>
        <time>2023-03-18T11:02:20Z</time>
      </trkpt>
      <trkpt lat="44.16306" lon="7.51752">
        <ele>2119.36</ele>
        <time>2023-03-18T11:02:21Z</time>
      </trkpt>
      <trkpt lat="44.16305" lon="7.51755">
        <ele>2118.4</ele>
        <time>2023-03-18T11:02:22Z</time>
      </trkpt>
      <trkpt lat="44.16301" lon="7.51759">
        <ele>2117.92</ele>
        <time>2023-03-18T11:02:23Z</time>
      </trkpt>
      <trkpt lat="44.16298" lon="7.51764">
        <ele>2116.96</ele>
        <time>2023-03-18T11:02:24Z</time>
      </trkpt>
      <trkpt lat="44.16297" lon="7.5177">
        <ele>2116</ele>
        <time>2023-03-18T11:02:25Z</time>
      </trkpt>
      <trkpt lat="44.16299" lon="7.51774">
        <ele>2115.04</ele>
        <time>2023-03-18T11:02:26Z</time>
      </trkpt>
      <trkpt lat="44.16299" lon="7.51779">
        <ele>2113.6</ele>
        <time>2023-03-18T11:02:27Z</time>
      </trkpt>
      <trkpt lat="44.16299" lon="7.51785">
        <ele>2112.63</ele>
        <time>2023-03-18T11:02:28Z</time>
      </trkpt>
      <trkpt lat="44.163" lon="7.51792">
        <ele>2111.19</ele>
        <time>2023-03-18T11:02:29Z</time>
      </trkpt>
      <trkpt lat="44.16304" lon="7.51799">
        <ele>2108.79</ele>
        <time>2023-03-18T11:02:31Z</time>
      </trkpt>
      <trkpt lat="44.16302" lon="7.51805">
        <ele>2107.83</ele>
        <time>2023-03-18T11:02:32Z</time>
      </trkpt>
      <trkpt lat="44.16299" lon="7.51812">
        <ele>2106.87</ele>
        <time>2023-03-18T11:02:33Z</time>
      </trkpt>
      <trkpt lat="44.16297" lon="7.51819">
        <ele>2105.91</ele>
        <time>2023-03-18T11:02:34Z</time>
      </trkpt>
      <trkpt lat="44.16303" lon="7.51824">
        <ele>2104.94</ele>
        <time>2023-03-18T11:02:36Z</time>
      </trkpt>
      <trkpt lat="44.1631" lon="7.51821">
        <ele>2102.54</ele>
        <time>2023-03-18T11:02:38Z</time>
      </trkpt>
      <trkpt lat="44.16307" lon="7.51825">
        <ele>2100.14</ele>
        <time>2023-03-18T11:02:48Z</time>
      </trkpt>
      <trkpt lat="44.16304" lon="7.51826">
        <ele>2102.06</ele>
        <time>2023-03-18T11:03:03Z</time>
      </trkpt>
      <trkpt lat="44.16304" lon="7.51825">
        <ele>2102.06</ele>
        <time>2023-03-18T11:03:18Z</time>
      </trkpt>
      <trkpt lat="44.16308" lon="7.51817">
        <ele>2101.58</ele>
        <time>2023-03-18T11:03:31Z</time>
      </trkpt>
      <trkpt lat="44.16309" lon="7.51813">
        <ele>2103.98</ele>
        <time>2023-03-18T11:03:43Z</time>
      </trkpt>
      <trkpt lat="44.16307" lon="7.5181">
        <ele>2104.94</ele>
        <time>2023-03-18T11:03:57Z</time>
      </trkpt>
      <trkpt lat="44.16299" lon="7.51817">
        <ele>2104.46</ele>
        <time>2023-03-18T11:04:11Z</time>
      </trkpt>
      <trkpt lat="44.16294" lon="7.5182">
        <ele>2107.35</ele>
        <time>2023-03-18T11:04:24Z</time>
      </trkpt>
      <trkpt lat="44.16292" lon="7.51826">
        <ele>2107.35</ele>
        <time>2023-03-18T11:04:39Z</time>
      </trkpt>
      <trkpt lat="44.1629" lon="7.5183">
        <ele>2106.87</ele>
        <time>2023-03-18T11:04:53Z</time>
      </trkpt>
      <trkpt lat="44.16287" lon="7.51834">
        <ele>2107.35</ele>
        <time>2023-03-18T11:05:07Z</time>
      </trkpt>
      <trkpt lat="44.16288" lon="7.51831">
        <ele>2106.87</ele>
        <time>2023-03-18T11:05:18Z</time>
      </trkpt>
      <trkpt lat="44.1628" lon="7.51847">
        <ele>2104.94</ele>
        <time>2023-03-18T11:05:28Z</time>
      </trkpt>
      <trkpt lat="44.16281" lon="7.51849">
        <ele>2105.91</ele>
        <time>2023-03-18T11:05:43Z</time>
      </trkpt>
      <trkpt lat="44.16284" lon="7.51854">
        <ele>2105.91</ele>
        <time>2023-03-18T11:05:45Z</time>
      </trkpt>
      <trkpt lat="44.16289" lon="7.51877">
        <ele>2102.06</ele>
        <time>2023-03-18T11:05:51Z</time>
      </trkpt>
      <trkpt lat="44.1629" lon="7.51901">
        <ele>2097.73</ele>
        <time>2023-03-18T11:05:57Z</time>
      </trkpt>
      <trkpt lat="44.16295" lon="7.51918">
        <ele>2092.93</ele>
        <time>2023-03-18T11:06:02Z</time>
      </trkpt>
      <trkpt lat="44.16286" lon="7.51938">
        <ele>2088.6</ele>
        <time>2023-03-18T11:06:06Z</time>
      </trkpt>
      <trkpt lat="44.16279" lon="7.51946">
        <ele>2086.68</ele>
        <time>2023-03-18T11:06:14Z</time>
      </trkpt>
      <trkpt lat="44.16265" lon="7.51964">
        <ele>2081.87</ele>
        <time>2023-03-18T11:06:21Z</time>
      </trkpt>
      <trkpt lat="44.16264" lon="7.51963">
        <ele>2080.91</ele>
        <time>2023-03-18T11:06:33Z</time>
      </trkpt>
      <trkpt lat="44.16257" lon="7.5198">
        <ele>2075.62</ele>
        <time>2023-03-18T11:06:40Z</time>
      </trkpt>
      <trkpt lat="44.1625" lon="7.51999">
        <ele>2069.38</ele>
        <time>2023-03-18T11:06:45Z</time>
      </trkpt>
      <trkpt lat="44.16234" lon="7.52017">
        <ele>2062.17</ele>
        <time>2023-03-18T11:06:51Z</time>
      </trkpt>
      <trkpt lat="44.16225" lon="7.5204">
        <ele>2052.55</ele>
        <time>2023-03-18T11:06:57Z</time>
      </trkpt>
      <trkpt lat="44.16224" lon="7.52046">
        <ele>2051.11</ele>
        <time>2023-03-18T11:06:58Z</time>
      </trkpt>
      <trkpt lat="44.16217" lon="7.52087">
        <ele>2041.98</ele>
        <time>2023-03-18T11:07:04Z</time>
      </trkpt>
      <trkpt lat="44.16218" lon="7.52114">
        <ele>2035.25</ele>
        <time>2023-03-18T11:07:08Z</time>
      </trkpt>
      <trkpt lat="44.16222" lon="7.52121">
        <ele>2030.44</ele>
        <time>2023-03-18T11:07:12Z</time>
      </trkpt>
      <trkpt lat="44.16223" lon="7.52119">
        <ele>2027.08</ele>
        <time>2023-03-18T11:07:26Z</time>
      </trkpt>
      <trkpt lat="44.16223" lon="7.52119">
        <ele>2030.44</ele>
        <time>2023-03-18T11:08:00Z</time>
      </trkpt>
      <trkpt lat="44.16223" lon="7.52119">
        <ele>2031.4</ele>
        <time>2023-03-18T11:08:12Z</time>
      </trkpt>
      <trkpt lat="44.16225" lon="7.52126">
        <ele>2030.92</ele>
        <time>2023-03-18T11:08:15Z</time>
      </trkpt>
      <trkpt lat="44.16223" lon="7.52149">
        <ele>2026.12</ele>
        <time>2023-03-18T11:08:21Z</time>
      </trkpt>
      <trkpt lat="44.16225" lon="7.52156">
        <ele>2023.71</ele>
        <time>2023-03-18T11:08:23Z</time>
      </trkpt>
      <trkpt lat="44.16219" lon="7.52178">
        <ele>2015.06</ele>
        <time>2023-03-18T11:08:29Z</time>
      </trkpt>
      <trkpt lat="44.16229" lon="7.52194">
        <ele>2008.81</ele>
        <time>2023-03-18T11:08:33Z</time>
      </trkpt>
      <trkpt lat="44.16231" lon="7.52196">
        <ele>2007.37</ele>
        <time>2023-03-18T11:08:34Z</time>
      </trkpt>
      <trkpt lat="44.16234" lon="7.52199">
        <ele>2004.97</ele>
        <time>2023-03-18T11:08:36Z</time>
      </trkpt>
      <trkpt lat="44.16229" lon="7.52217">
        <ele>1994.39</ele>
        <time>2023-03-18T11:08:42Z</time>
      </trkpt>
      <trkpt lat="44.16218" lon="7.52233">
        <ele>1985.26</ele>
        <time>2023-03-18T11:08:47Z</time>
      </trkpt>
      <trkpt lat="44.16212" lon="7.5225">
        <ele>1976.61</ele>
        <time>2023-03-18T11:08:52Z</time>
      </trkpt>
      <trkpt lat="44.16192" lon="7.52248">
        <ele>1972.28</ele>
        <time>2023-03-18T11:08:57Z</time>
      </trkpt>
      <trkpt lat="44.16189" lon="7.52256">
        <ele>1970.36</ele>
        <time>2023-03-18T11:09:00Z</time>
      </trkpt>
      <trkpt lat="44.16193" lon="7.52256">
        <ele>1970.36</ele>
        <time>2023-03-18T11:09:14Z</time>
      </trkpt>
      <trkpt lat="44.16194" lon="7.52258">
        <ele>1971.32</ele>
        <time>2023-03-18T11:09:26Z</time>
      </trkpt>
      <trkpt lat="44.16194" lon="7.52256">
        <ele>1970.84</ele>
        <time>2023-03-18T11:09:33Z</time>
      </trkpt>
      <trkpt lat="44.16189" lon="7.52264">
        <ele>1970.36</ele>
        <time>2023-03-18T11:09:37Z</time>
      </trkpt>
      <trkpt lat="44.16172" lon="7.52278">
        <ele>1967.96</ele>
        <time>2023-03-18T11:09:44Z</time>
      </trkpt>
      <trkpt lat="44.16177" lon="7.52299">
        <ele>1966.51</ele>
        <time>2023-03-18T11:09:48Z</time>
      </trkpt>
      <trkpt lat="44.1618" lon="7.52312">
        <ele>1965.07</ele>
        <time>2023-03-18T11:09:50Z</time>
      </trkpt>
      <trkpt lat="44.1618" lon="7.52319">
        <ele>1964.59</ele>
        <time>2023-03-18T11:09:51Z</time>
      </trkpt>
      <trkpt lat="44.16182" lon="7.52325">
        <ele>1964.59</ele>
        <time>2023-03-18T11:09:52Z</time>
      </trkpt>
      <trkpt lat="44.16184" lon="7.5233">
        <ele>1963.63</ele>
        <time>2023-03-18T11:09:53Z</time>
      </trkpt>
      <trkpt lat="44.16187" lon="7.52335">
        <ele>1963.15</ele>
        <time>2023-03-18T11:09:54Z</time>
      </trkpt>
      <trkpt lat="44.16186" lon="7.52342">
        <ele>1963.15</ele>
        <time>2023-03-18T11:09:55Z</time>
      </trkpt>
      <trkpt lat="44.16184" lon="7.52349">
        <ele>1962.67</ele>
        <time>2023-03-18T11:09:56Z</time>
      </trkpt>
      <trkpt lat="44.16184" lon="7.52355">
        <ele>1961.71</ele>
        <time>2023-03-18T11:09:57Z</time>
      </trkpt>
      <trkpt lat="44.16184" lon="7.52361">
        <ele>1960.75</ele>
        <time>2023-03-18T11:09:58Z</time>
      </trkpt>
      <trkpt lat="44.16184" lon="7.52367">
        <ele>1959.78</ele>
        <time>2023-03-18T11:09:59Z</time>
      </trkpt>
      <trkpt lat="44.16184" lon="7.52373">
        <ele>1958.34</ele>
        <time>2023-03-18T11:10:00Z</time>
      </trkpt>
      <trkpt lat="44.16186" lon="7.52379">
        <ele>1956.9</ele>
        <time>2023-03-18T11:10:01Z</time>
      </trkpt>
      <trkpt lat="44.1619" lon="7.52383">
        <ele>1955.46</ele>
        <time>2023-03-18T11:10:02Z</time>
      </trkpt>
      <trkpt lat="44.16194" lon="7.52387">
        <ele>1953.54</ele>
        <time>2023-03-18T11:10:03Z</time>
      </trkpt>
      <trkpt lat="44.16195" lon="7.52392">
        <ele>1951.61</ele>
        <time>2023-03-18T11:10:04Z</time>
      </trkpt>
      <trkpt lat="44.16193" lon="7.52396">
        <ele>1950.17</ele>
        <time>2023-03-18T11:10:05Z</time>
      </trkpt>
      <trkpt lat="44.16191" lon="7.52401">
        <ele>1948.73</ele>
        <time>2023-03-18T11:10:06Z</time>
      </trkpt>
      <trkpt lat="44.16191" lon="7.52407">
        <ele>1947.29</ele>
        <time>2023-03-18T11:10:07Z</time>
      </trkpt>
      <trkpt lat="44.16194" lon="7.52413">
        <ele>1945.85</ele>
        <time>2023-03-18T11:10:08Z</time>
      </trkpt>
      <trkpt lat="44.16196" lon="7.52418">
        <ele>1943.92</ele>
        <time>2023-03-18T11:10:09Z</time>
      </trkpt>
      <trkpt lat="44.16198" lon="7.52424">
        <ele>1942.48</ele>
        <time>2023-03-18T11:10:10Z</time>
      </trkpt>
      <trkpt lat="44.16198" lon="7.52431">
        <ele>1940.56</ele>
        <time>2023-03-18T11:10:11Z</time>
      </trkpt>
      <trkpt lat="44.16196" lon="7.52438">
        <ele>1939.12</ele>
        <time>2023-03-18T11:10:12Z</time>
      </trkpt>
      <trkpt lat="44.16199" lon="7.52443">
        <ele>1936.71</ele>
        <time>2023-03-18T11:10:13Z</time>
      </trkpt>
      <trkpt lat="44.16202" lon="7.52443">
        <ele>1934.79</ele>
        <time>2023-03-18T11:10:14Z</time>
      </trkpt>
      <trkpt lat="44.16205" lon="7.5244">
        <ele>1932.39</ele>
        <time>2023-03-18T11:10:15Z</time>
      </trkpt>
      <trkpt lat="44.16208" lon="7.52433">
        <ele>1923.74</ele>
        <time>2023-03-18T11:10:25Z</time>
      </trkpt>
      <trkpt lat="44.16209" lon="7.52435">
        <ele>1921.81</ele>
        <time>2023-03-18T11:10:40Z</time>
      </trkpt>
      <trkpt lat="44.1621" lon="7.52438">
        <ele>1921.81</ele>
        <time>2023-03-18T11:10:41Z</time>
      </trkpt>
      <trkpt lat="44.1621" lon="7.52443">
        <ele>1921.33</ele>
        <time>2023-03-18T11:10:42Z</time>
      </trkpt>
      <trkpt lat="44.16208" lon="7.52448">
        <ele>1920.85</ele>
        <time>2023-03-18T11:10:43Z</time>
      </trkpt>
      <trkpt lat="44.16208" lon="7.52454">
        <ele>1919.89</ele>
        <time>2023-03-18T11:10:44Z</time>
      </trkpt>
      <trkpt lat="44.1621" lon="7.52458">
        <ele>1919.41</ele>
        <time>2023-03-18T11:10:45Z</time>
      </trkpt>
      <trkpt lat="44.16215" lon="7.52459">
        <ele>1918.93</ele>
        <time>2023-03-18T11:10:46Z</time>
      </trkpt>
      <trkpt lat="44.1622" lon="7.52461">
        <ele>1917.97</ele>
        <time>2023-03-18T11:10:47Z</time>
      </trkpt>
      <trkpt lat="44.16223" lon="7.52465">
        <ele>1917.01</ele>
        <time>2023-03-18T11:10:48Z</time>
      </trkpt>
      <trkpt lat="44.16223" lon="7.52472">
        <ele>1915.56</ele>
        <time>2023-03-18T11:10:49Z</time>
      </trkpt>
      <trkpt lat="44.16221" lon="7.52479">
        <ele>1914.6</ele>
        <time>2023-03-18T11:10:50Z</time>
      </trkpt>
      <trkpt lat="44.16221" lon="7.52488">
        <ele>1913.64</ele>
        <time>2023-03-18T11:10:51Z</time>
      </trkpt>
      <trkpt lat="44.16224" lon="7.52495">
        <ele>1912.68</ele>
        <time>2023-03-18T11:10:52Z</time>
      </trkpt>
      <trkpt lat="44.16228" lon="7.52502">
        <ele>1911.72</ele>
        <time>2023-03-18T11:10:53Z</time>
      </trkpt>
      <trkpt lat="44.1623" lon="7.52509">
        <ele>1910.76</ele>
        <time>2023-03-18T11:10:54Z</time>
      </trkpt>
      <trkpt lat="44.16228" lon="7.52526">
        <ele>1908.83</ele>
        <time>2023-03-18T11:10:56Z</time>
      </trkpt>
      <trkpt lat="44.16214" lon="7.52597">
        <ele>1901.14</ele>
        <time>2023-03-18T11:11:06Z</time>
      </trkpt>
      <trkpt lat="44.162" lon="7.52663">
        <ele>1896.82</ele>
        <time>2023-03-18T11:11:18Z</time>
      </trkpt>
      <trkpt lat="44.16192" lon="7.52678">
        <ele>1895.38</ele>
        <time>2023-03-18T11:11:29Z</time>
      </trkpt>
      <trkpt lat="44.16192" lon="7.52677">
        <ele>1895.38</ele>
        <time>2023-03-18T11:11:34Z</time>
      </trkpt>
      <trkpt lat="44.16198" lon="7.52692">
        <ele>1894.9</ele>
        <time>2023-03-18T11:11:38Z</time>
      </trkpt>
      <trkpt lat="44.16223" lon="7.52716">
        <ele>1888.17</ele>
        <time>2023-03-18T11:11:44Z</time>
      </trkpt>
      <trkpt lat="44.16229" lon="7.52732">
        <ele>1885.28</ele>
        <time>2023-03-18T11:11:47Z</time>
      </trkpt>
      <trkpt lat="44.1624" lon="7.52771">
        <ele>1878.07</ele>
        <time>2023-03-18T11:11:54Z</time>
      </trkpt>
      <trkpt lat="44.16253" lon="7.52798">
        <ele>1871.82</ele>
        <time>2023-03-18T11:11:58Z</time>
      </trkpt>
      <trkpt lat="44.16262" lon="7.52824">
        <ele>1867.02</ele>
        <time>2023-03-18T11:12:02Z</time>
      </trkpt>
      <trkpt lat="44.16265" lon="7.52858">
        <ele>1863.17</ele>
        <time>2023-03-18T11:12:06Z</time>
      </trkpt>
      <trkpt lat="44.1627" lon="7.52891">
        <ele>1861.25</ele>
        <time>2023-03-18T11:12:14Z</time>
      </trkpt>
      <trkpt lat="44.16268" lon="7.52911">
        <ele>1857.4</ele>
        <time>2023-03-18T11:12:20Z</time>
      </trkpt>
      <trkpt lat="44.16264" lon="7.52923">
        <ele>1855</ele>
        <time>2023-03-18T11:12:32Z</time>
      </trkpt>
      <trkpt lat="44.16258" lon="7.52926">
        <ele>1854.04</ele>
        <time>2023-03-18T11:12:42Z</time>
      </trkpt>
      <trkpt lat="44.16245" lon="7.52936">
        <ele>1852.12</ele>
        <time>2023-03-18T11:12:48Z</time>
      </trkpt>
      <trkpt lat="44.16243" lon="7.52938">
        <ele>1850.68</ele>
        <time>2023-03-18T11:13:02Z</time>
      </trkpt>
      <trkpt lat="44.16242" lon="7.52939">
        <ele>1850.68</ele>
        <time>2023-03-18T11:13:06Z</time>
      </trkpt>
      <trkpt lat="44.16222" lon="7.52972">
        <ele>1845.87</ele>
        <time>2023-03-18T11:13:18Z</time>
      </trkpt>
      <trkpt lat="44.16209" lon="7.5301">
        <ele>1840.1</ele>
        <time>2023-03-18T11:13:29Z</time>
      </trkpt>
      <trkpt lat="44.16204" lon="7.53025">
        <ele>1834.81</ele>
        <time>2023-03-18T11:13:41Z</time>
      </trkpt>
      <trkpt lat="44.16203" lon="7.53026">
        <ele>1834.81</ele>
        <time>2023-03-18T11:13:42Z</time>
      </trkpt>
      <trkpt lat="44.16214" lon="7.53036">
        <ele>1830.01</ele>
        <time>2023-03-18T11:13:48Z</time>
      </trkpt>
      <trkpt lat="44.1622" lon="7.53052">
        <ele>1820.87</ele>
        <time>2023-03-18T11:13:54Z</time>
      </trkpt>
      <trkpt lat="44.1623" lon="7.5305">
        <ele>1818.95</ele>
        <time>2023-03-18T11:13:57Z</time>
      </trkpt>
      <trkpt lat="44.16233" lon="7.53072">
        <ele>1810.78</ele>
        <time>2023-03-18T11:14:03Z</time>
      </trkpt>
      <trkpt lat="44.16245" lon="7.53077">
        <ele>1805.49</ele>
        <time>2023-03-18T11:14:06Z</time>
      </trkpt>
      <trkpt lat="44.16248" lon="7.53077">
        <ele>1804.05</ele>
        <time>2023-03-18T11:14:07Z</time>
      </trkpt>
      <trkpt lat="44.1625" lon="7.53088">
        <ele>1800.21</ele>
        <time>2023-03-18T11:14:09Z</time>
      </trkpt>
      <trkpt lat="44.16248" lon="7.531">
        <ele>1797.8</ele>
        <time>2023-03-18T11:14:10Z</time>
      </trkpt>
      <trkpt lat="44.16258" lon="7.53155">
        <ele>1790.11</ele>
        <time>2023-03-18T11:14:14Z</time>
      </trkpt>
      <trkpt lat="44.16283" lon="7.53223">
        <ele>1781.94</ele>
        <time>2023-03-18T11:14:20Z</time>
      </trkpt>
      <trkpt lat="44.16296" lon="7.53241">
        <ele>1779.54</ele>
        <time>2023-03-18T11:14:23Z</time>
      </trkpt>
      <trkpt lat="44.163" lon="7.53241">
        <ele>1779.54</ele>
        <time>2023-03-18T11:14:24Z</time>
      </trkpt>
      <trkpt lat="44.16304" lon="7.53241">
        <ele>1779.54</ele>
        <time>2023-03-18T11:14:25Z</time>
      </trkpt>
      <trkpt lat="44.16308" lon="7.53239">
        <ele>1779.54</ele>
        <time>2023-03-18T11:14:26Z</time>
      </trkpt>
      <trkpt lat="44.16311" lon="7.53237">
        <ele>1779.06</ele>
        <time>2023-03-18T11:14:27Z</time>
      </trkpt>
      <trkpt lat="44.16312" lon="7.53232">
        <ele>1779.06</ele>
        <time>2023-03-18T11:14:28Z</time>
      </trkpt>
      <trkpt lat="44.16312" lon="7.5323">
        <ele>1778.58</ele>
        <time>2023-03-18T11:14:29Z</time>
      </trkpt>
      <trkpt lat="44.16312" lon="7.53228">
        <ele>1778.58</ele>
        <time>2023-03-18T11:14:30Z</time>
      </trkpt>
      <trkpt lat="44.16313" lon="7.53226">
        <ele>1778.1</ele>
        <time>2023-03-18T11:14:31Z</time>
      </trkpt>
      <trkpt lat="44.16314" lon="7.53224">
        <ele>1777.61</ele>
        <time>2023-03-18T11:14:32Z</time>
      </trkpt>
      <trkpt lat="44.16316" lon="7.53223">
        <ele>1777.13</ele>
        <time>2023-03-18T11:14:33Z</time>
      </trkpt>
      <trkpt lat="44.1632" lon="7.53222">
        <ele>1776.65</ele>
        <time>2023-03-18T11:14:34Z</time>
      </trkpt>
      <trkpt lat="44.16325" lon="7.5322">
        <ele>1775.69</ele>
        <time>2023-03-18T11:14:35Z</time>
      </trkpt>
      <trkpt lat="44.16328" lon="7.5322">
        <ele>1774.73</ele>
        <time>2023-03-18T11:14:36Z</time>
      </trkpt>
      <trkpt lat="44.16329" lon="7.53224">
        <ele>1773.77</ele>
        <time>2023-03-18T11:14:37Z</time>
      </trkpt>
      <trkpt lat="44.16334" lon="7.53241">
        <ele>1771.85</ele>
        <time>2023-03-18T11:14:41Z</time>
      </trkpt>
      <trkpt lat="44.16336" lon="7.53246">
        <ele>1771.85</ele>
        <time>2023-03-18T11:14:42Z</time>
      </trkpt>
      <trkpt lat="44.16343" lon="7.53262">
        <ele>1770.89</ele>
        <time>2023-03-18T11:14:45Z</time>
      </trkpt>
      <trkpt lat="44.16335" lon="7.53284">
        <ele>1768.96</ele>
        <time>2023-03-18T11:14:59Z</time>
      </trkpt>
      <trkpt lat="44.16334" lon="7.53285">
        <ele>1770.41</ele>
        <time>2023-03-18T11:15:09Z</time>
      </trkpt>
      <trkpt lat="44.16321" lon="7.533">
        <ele>1769.92</ele>
        <time>2023-03-18T11:15:19Z</time>
      </trkpt>
      <trkpt lat="44.16311" lon="7.53328">
        <ele>1768.48</ele>
        <time>2023-03-18T11:15:30Z</time>
      </trkpt>
      <trkpt lat="44.16291" lon="7.53399">
        <ele>1766.56</ele>
        <time>2023-03-18T11:15:42Z</time>
      </trkpt>
      <trkpt lat="44.16283" lon="7.53415">
        <ele>1766.08</ele>
        <time>2023-03-18T11:15:49Z</time>
      </trkpt>
      <trkpt lat="44.16287" lon="7.53435">
        <ele>1764.16</ele>
        <time>2023-03-18T11:15:56Z</time>
      </trkpt>
      <trkpt lat="44.16285" lon="7.53444">
        <ele>1762.23</ele>
        <time>2023-03-18T11:16:05Z</time>
      </trkpt>
      <trkpt lat="44.16287" lon="7.53471">
        <ele>1755.99</ele>
        <time>2023-03-18T11:16:11Z</time>
      </trkpt>
      <trkpt lat="44.16289" lon="7.53505">
        <ele>1749.74</ele>
        <time>2023-03-18T11:16:17Z</time>
      </trkpt>
      <trkpt lat="44.16286" lon="7.53511">
        <ele>1748.29</ele>
        <time>2023-03-18T11:16:18Z</time>
      </trkpt>
      <trkpt lat="44.16275" lon="7.5355">
        <ele>1739.16</ele>
        <time>2023-03-18T11:16:25Z</time>
      </trkpt>
      <trkpt lat="44.16271" lon="7.53553">
        <ele>1737.72</ele>
        <time>2023-03-18T11:16:26Z</time>
      </trkpt>
      <trkpt lat="44.16269" lon="7.53583">
        <ele>1731.47</ele>
        <time>2023-03-18T11:16:31Z</time>
      </trkpt>
      <trkpt lat="44.16274" lon="7.53617">
        <ele>1724.26</ele>
        <time>2023-03-18T11:16:37Z</time>
      </trkpt>
      <trkpt lat="44.16276" lon="7.53621">
        <ele>1719.94</ele>
        <time>2023-03-18T11:16:42Z</time>
      </trkpt>
      <trkpt lat="44.16276" lon="7.53622">
        <ele>1719.46</ele>
        <time>2023-03-18T11:16:43Z</time>
      </trkpt>
      <trkpt lat="44.16278" lon="7.5363">
        <ele>1716.57</ele>
        <time>2023-03-18T11:16:50Z</time>
      </trkpt>
      <trkpt lat="44.16276" lon="7.53641">
        <ele>1714.17</ele>
        <time>2023-03-18T11:16:55Z</time>
      </trkpt>
      <trkpt lat="44.16274" lon="7.53648">
        <ele>1711.28</ele>
        <time>2023-03-18T11:16:59Z</time>
      </trkpt>
      <trkpt lat="44.16274" lon="7.53651">
        <ele>1709.84</ele>
        <time>2023-03-18T11:17:02Z</time>
      </trkpt>
      <trkpt lat="44.16271" lon="7.53659">
        <ele>1707.92</ele>
        <time>2023-03-18T11:17:07Z</time>
      </trkpt>
      <trkpt lat="44.16274" lon="7.53669">
        <ele>1705.52</ele>
        <time>2023-03-18T11:17:10Z</time>
      </trkpt>
      <trkpt lat="44.16275" lon="7.53676">
        <ele>1702.63</ele>
        <time>2023-03-18T11:17:18Z</time>
      </trkpt>
      <trkpt lat="44.16276" lon="7.53687">
        <ele>1699.27</ele>
        <time>2023-03-18T11:17:27Z</time>
      </trkpt>
      <trkpt lat="44.16279" lon="7.53693">
        <ele>1696.38</ele>
        <time>2023-03-18T11:17:39Z</time>
      </trkpt>
      <trkpt lat="44.16283" lon="7.53701">
        <ele>1692.54</ele>
        <time>2023-03-18T11:17:49Z</time>
      </trkpt>
      <trkpt lat="44.16286" lon="7.53705">
        <ele>1685.81</ele>
        <time>2023-03-18T11:18:01Z</time>
      </trkpt>
      <trkpt lat="44.16287" lon="7.53713">
        <ele>1684.37</ele>
        <time>2023-03-18T11:18:09Z</time>
      </trkpt>
      <trkpt lat="44.16285" lon="7.53712">
        <ele>1683.89</ele>
        <time>2023-03-18T11:18:18Z</time>
      </trkpt>
      <trkpt lat="44.16281" lon="7.53713">
        <ele>1684.85</ele>
        <time>2023-03-18T11:18:34Z</time>
      </trkpt>
      <trkpt lat="44.1628" lon="7.53713">
        <ele>1686.29</ele>
        <time>2023-03-18T11:18:53Z</time>
      </trkpt>
      <trkpt lat="44.16283" lon="7.53716">
        <ele>1686.29</ele>
        <time>2023-03-18T11:19:08Z</time>
      </trkpt>
      <trkpt lat="44.16284" lon="7.53718">
        <ele>1686.77</ele>
        <time>2023-03-18T11:19:28Z</time>
      </trkpt>
      <trkpt lat="44.16284" lon="7.53713">
        <ele>1687.25</ele>
        <time>2023-03-18T11:19:47Z</time>
      </trkpt>
      <trkpt lat="44.16278" lon="7.5372">
        <ele>1686.29</ele>
        <time>2023-03-18T11:20:06Z</time>
      </trkpt>
      <trkpt lat="44.16271" lon="7.53727">
        <ele>1686.29</ele>
        <time>2023-03-18T11:20:17Z</time>
      </trkpt>
      <trkpt lat="44.1627" lon="7.53729">
        <ele>1686.29</ele>
        <time>2023-03-18T11:20:30Z</time>
      </trkpt>
      <trkpt lat="44.16271" lon="7.5373">
        <ele>1687.25</ele>
        <time>2023-03-18T11:20:42Z</time>
      </trkpt>
      <trkpt lat="44.16272" lon="7.53734">
        <ele>1685.81</ele>
        <time>2023-03-18T11:21:09Z</time>
      </trkpt>
      <trkpt lat="44.16273" lon="7.53734">
        <ele>1684.37</ele>
        <time>2023-03-18T11:21:36Z</time>
      </trkpt>
      <trkpt lat="44.16274" lon="7.53734">
        <ele>1682.93</ele>
        <time>2023-03-18T11:22:09Z</time>
      </trkpt>
      <trkpt lat="44.16273" lon="7.53729">
        <ele>1683.41</ele>
        <time>2023-03-18T11:22:41Z</time>
      </trkpt>
      <trkpt lat="44.16278" lon="7.53731">
        <ele>1681.96</ele>
        <time>2023-03-18T11:23:02Z</time>
      </trkpt>
      <trkpt lat="44.16282" lon="7.53731">
        <ele>1683.41</ele>
        <time>2023-03-18T11:23:23Z</time>
      </trkpt>
      <trkpt lat="44.16281" lon="7.5373">
        <ele>1681</ele>
        <time>2023-03-18T11:23:44Z</time>
      </trkpt>
      <trkpt lat="44.16277" lon="7.5373">
        <ele>1678.6</ele>
        <time>2023-03-18T11:24:10Z</time>
      </trkpt>
      <trkpt lat="44.16275" lon="7.5373">
        <ele>1679.08</ele>
        <time>2023-03-18T11:24:38Z</time>
      </trkpt>
      <trkpt lat="44.16276" lon="7.53732">
        <ele>1679.08</ele>
        <time>2023-03-18T11:24:58Z</time>
      </trkpt>
      <trkpt lat="44.16276" lon="7.53735">
        <ele>1679.56</ele>
        <time>2023-03-18T11:25:18Z</time>
      </trkpt>
      <trkpt lat="44.16276" lon="7.53749">
        <ele>1677.64</ele>
        <time>2023-03-18T11:25:35Z</time>
      </trkpt>
      <trkpt lat="44.16279" lon="7.53758">
        <ele>1675.72</ele>
        <time>2023-03-18T11:25:49Z</time>
      </trkpt>
      <trkpt lat="44.1628" lon="7.53767">
        <ele>1670.91</ele>
        <time>2023-03-18T11:26:02Z</time>
      </trkpt>
      <trkpt lat="44.16281" lon="7.53778">
        <ele>1668.51</ele>
        <time>2023-03-18T11:26:18Z</time>
      </trkpt>
      <trkpt lat="44.16276" lon="7.53784">
        <ele>1666.58</ele>
        <time>2023-03-18T11:26:33Z</time>
      </trkpt>
      <trkpt lat="44.16275" lon="7.53798">
        <ele>1662.74</ele>
        <time>2023-03-18T11:26:48Z</time>
      </trkpt>
      <trkpt lat="44.16274" lon="7.53804">
        <ele>1658.41</ele>
        <time>2023-03-18T11:27:03Z</time>
      </trkpt>
      <trkpt lat="44.16273" lon="7.53815">
        <ele>1653.6</ele>
        <time>2023-03-18T11:27:17Z</time>
      </trkpt>
      <trkpt lat="44.16272" lon="7.53828">
        <ele>1648.32</ele>
        <time>2023-03-18T11:27:33Z</time>
      </trkpt>
      <trkpt lat="44.16268" lon="7.53836">
        <ele>1643.03</ele>
        <time>2023-03-18T11:27:49Z</time>
      </trkpt>
      <trkpt lat="44.16264" lon="7.53833">
        <ele>1639.67</ele>
        <time>2023-03-18T11:28:05Z</time>
      </trkpt>
      <trkpt lat="44.16258" lon="7.53832">
        <ele>1636.78</ele>
        <time>2023-03-18T11:28:19Z</time>
      </trkpt>
      <trkpt lat="44.16248" lon="7.53831">
        <ele>1633.42</ele>
        <time>2023-03-18T11:28:36Z</time>
      </trkpt>
      <trkpt lat="44.16246" lon="7.53829">
        <ele>1632.46</ele>
        <time>2023-03-18T11:28:39Z</time>
      </trkpt>
      <trkpt lat="44.16232" lon="7.53826">
        <ele>1629.57</ele>
        <time>2023-03-18T11:28:55Z</time>
      </trkpt>
      <trkpt lat="44.16223" lon="7.53832">
        <ele>1625.73</ele>
        <time>2023-03-18T11:29:09Z</time>
      </trkpt>
      <trkpt lat="44.16221" lon="7.53835">
        <ele>1624.77</ele>
        <time>2023-03-18T11:29:12Z</time>
      </trkpt>
      <trkpt lat="44.16213" lon="7.53843">
        <ele>1621.4</ele>
        <time>2023-03-18T11:29:29Z</time>
      </trkpt>
      <trkpt lat="44.16208" lon="7.53848">
        <ele>1617.07</ele>
        <time>2023-03-18T11:29:40Z</time>
      </trkpt>
      <trkpt lat="44.16204" lon="7.53852">
        <ele>1614.67</ele>
        <time>2023-03-18T11:29:53Z</time>
      </trkpt>
      <trkpt lat="44.16196" lon="7.53859">
        <ele>1610.83</ele>
        <time>2023-03-18T11:30:10Z</time>
      </trkpt>
      <trkpt lat="44.16201" lon="7.53867">
        <ele>1607.94</ele>
        <time>2023-03-18T11:30:23Z</time>
      </trkpt>
      <trkpt lat="44.16207" lon="7.53877">
        <ele>1606.98</ele>
        <time>2023-03-18T11:30:39Z</time>
      </trkpt>
      <trkpt lat="44.16213" lon="7.53889">
        <ele>1603.14</ele>
        <time>2023-03-18T11:30:54Z</time>
      </trkpt>
      <trkpt lat="44.16213" lon="7.53896">
        <ele>1600.73</ele>
        <time>2023-03-18T11:31:09Z</time>
      </trkpt>
      <trkpt lat="44.1621" lon="7.53891">
        <ele>1595.93</ele>
        <time>2023-03-18T11:31:23Z</time>
      </trkpt>
      <trkpt lat="44.16199" lon="7.53893">
        <ele>1593.04</ele>
        <time>2023-03-18T11:31:40Z</time>
      </trkpt>
      <trkpt lat="44.16196" lon="7.539">
        <ele>1589.2</ele>
        <time>2023-03-18T11:31:55Z</time>
      </trkpt>
      <trkpt lat="44.16207" lon="7.53909">
        <ele>1591.12</ele>
        <time>2023-03-18T11:32:12Z</time>
      </trkpt>
      <trkpt lat="44.16204" lon="7.53909">
        <ele>1591.6</ele>
        <time>2023-03-18T11:32:25Z</time>
      </trkpt>
      <trkpt lat="44.16204" lon="7.53919">
        <ele>1587.75</ele>
        <time>2023-03-18T11:32:38Z</time>
      </trkpt>
      <trkpt lat="44.162" lon="7.53918">
        <ele>1585.35</ele>
        <time>2023-03-18T11:32:53Z</time>
      </trkpt>
      <trkpt lat="44.16197" lon="7.5393">
        <ele>1581.51</ele>
        <time>2023-03-18T11:33:08Z</time>
      </trkpt>
      <trkpt lat="44.16191" lon="7.5393">
        <ele>1579.58</ele>
        <time>2023-03-18T11:33:21Z</time>
      </trkpt>
      <trkpt lat="44.16183" lon="7.5394">
        <ele>1577.18</ele>
        <time>2023-03-18T11:33:35Z</time>
      </trkpt>
      <trkpt lat="44.16177" lon="7.53953">
        <ele>1570.93</ele>
        <time>2023-03-18T11:33:50Z</time>
      </trkpt>
      <trkpt lat="44.16172" lon="7.53963">
        <ele>1567.09</ele>
        <time>2023-03-18T11:34:04Z</time>
      </trkpt>
      <trkpt lat="44.16179" lon="7.53982">
        <ele>1565.64</ele>
        <time>2023-03-18T11:34:18Z</time>
      </trkpt>
      <trkpt lat="44.16178" lon="7.53991">
        <ele>1561.8</ele>
        <time>2023-03-18T11:34:31Z</time>
      </trkpt>
      <trkpt lat="44.16183" lon="7.54001">
        <ele>1556.51</ele>
        <time>2023-03-18T11:34:49Z</time>
      </trkpt>
      <trkpt lat="44.16186" lon="7.54007">
        <ele>1555.55</ele>
        <time>2023-03-18T11:35:02Z</time>
      </trkpt>
      <trkpt lat="44.16176" lon="7.5401">
        <ele>1553.63</ele>
        <time>2023-03-18T11:35:16Z</time>
      </trkpt>
      <trkpt lat="44.16164" lon="7.54013">
        <ele>1551.71</ele>
        <time>2023-03-18T11:35:31Z</time>
      </trkpt>
      <trkpt lat="44.16163" lon="7.54012">
        <ele>1550.74</ele>
        <time>2023-03-18T11:35:34Z</time>
      </trkpt>
      <trkpt lat="44.16153" lon="7.54006">
        <ele>1549.78</ele>
        <time>2023-03-18T11:35:48Z</time>
      </trkpt>
      <trkpt lat="44.1614" lon="7.53997">
        <ele>1550.26</ele>
        <time>2023-03-18T11:36:03Z</time>
      </trkpt>
      <trkpt lat="44.16139" lon="7.53995">
        <ele>1551.22</ele>
        <time>2023-03-18T11:36:05Z</time>
      </trkpt>
      <trkpt lat="44.16123" lon="7.53974">
        <ele>1553.15</ele>
        <time>2023-03-18T11:36:22Z</time>
      </trkpt>
      <trkpt lat="44.16106" lon="7.53959">
        <ele>1554.59</ele>
        <time>2023-03-18T11:36:39Z</time>
      </trkpt>
      <trkpt lat="44.16091" lon="7.53949">
        <ele>1556.03</ele>
        <time>2023-03-18T11:36:55Z</time>
      </trkpt>
      <trkpt lat="44.16078" lon="7.53941">
        <ele>1556.03</ele>
        <time>2023-03-18T11:37:09Z</time>
      </trkpt>
      <trkpt lat="44.16075" lon="7.53938">
        <ele>1556.99</ele>
        <time>2023-03-18T11:37:13Z</time>
      </trkpt>
      <trkpt lat="44.1605" lon="7.53933">
        <ele>1553.63</ele>
        <time>2023-03-18T11:37:32Z</time>
      </trkpt>
      <trkpt lat="44.16037" lon="7.5394">
        <ele>1552.67</ele>
        <time>2023-03-18T11:37:44Z</time>
      </trkpt>
      <trkpt lat="44.16026" lon="7.53946">
        <ele>1552.19</ele>
        <time>2023-03-18T11:37:57Z</time>
      </trkpt>
      <trkpt lat="44.16013" lon="7.53959">
        <ele>1548.34</ele>
        <time>2023-03-18T11:38:12Z</time>
      </trkpt>
      <trkpt lat="44.16004" lon="7.53971">
        <ele>1546.9</ele>
        <time>2023-03-18T11:38:27Z</time>
      </trkpt>
      <trkpt lat="44.16" lon="7.53983">
        <ele>1544.5</ele>
        <time>2023-03-18T11:38:39Z</time>
      </trkpt>
      <trkpt lat="44.15993" lon="7.53998">
        <ele>1541.61</ele>
        <time>2023-03-18T11:38:49Z</time>
      </trkpt>
      <trkpt lat="44.15984" lon="7.54024">
        <ele>1539.21</ele>
        <time>2023-03-18T11:39:08Z</time>
      </trkpt>
      <trkpt lat="44.15982" lon="7.54043">
        <ele>1540.65</ele>
        <time>2023-03-18T11:39:21Z</time>
      </trkpt>
      <trkpt lat="44.15984" lon="7.54057">
        <ele>1539.69</ele>
        <time>2023-03-18T11:39:34Z</time>
      </trkpt>
      <trkpt lat="44.1599" lon="7.54077">
        <ele>1538.73</ele>
        <time>2023-03-18T11:39:46Z</time>
      </trkpt>
      <trkpt lat="44.15993" lon="7.54084">
        <ele>1539.21</ele>
        <time>2023-03-18T11:39:51Z</time>
      </trkpt>
      <trkpt lat="44.16008" lon="7.54094">
        <ele>1537.29</ele>
        <time>2023-03-18T11:40:08Z</time>
      </trkpt>
      <trkpt lat="44.16014" lon="7.54096">
        <ele>1538.25</ele>
        <time>2023-03-18T11:40:15Z</time>
      </trkpt>
      <trkpt lat="44.16031" lon="7.54103">
        <ele>1537.77</ele>
        <time>2023-03-18T11:40:31Z</time>
      </trkpt>
      <trkpt lat="44.16045" lon="7.54116">
        <ele>1537.29</ele>
        <time>2023-03-18T11:40:48Z</time>
      </trkpt>
      <trkpt lat="44.16047" lon="7.54121">
        <ele>1537.29</ele>
        <time>2023-03-18T11:40:52Z</time>
      </trkpt>
      <trkpt lat="44.16051" lon="7.54134">
        <ele>1538.73</ele>
        <time>2023-03-18T11:41:03Z</time>
      </trkpt>
      <trkpt lat="44.16056" lon="7.5415">
        <ele>1539.69</ele>
        <time>2023-03-18T11:41:18Z</time>
      </trkpt>
      <trkpt lat="44.16058" lon="7.54158">
        <ele>1541.61</ele>
        <time>2023-03-18T11:41:34Z</time>
      </trkpt>
      <trkpt lat="44.16065" lon="7.5418">
        <ele>1540.65</ele>
        <time>2023-03-18T11:41:51Z</time>
      </trkpt>
      <trkpt lat="44.16069" lon="7.54187">
        <ele>1540.65</ele>
        <time>2023-03-18T11:41:56Z</time>
      </trkpt>
      <trkpt lat="44.16075" lon="7.54202">
        <ele>1538.73</ele>
        <time>2023-03-18T11:42:12Z</time>
      </trkpt>
      <trkpt lat="44.16081" lon="7.54211">
        <ele>1538.25</ele>
        <time>2023-03-18T11:42:24Z</time>
      </trkpt>
      <trkpt lat="44.16082" lon="7.54215">
        <ele>1538.25</ele>
        <time>2023-03-18T11:42:27Z</time>
      </trkpt>
      <trkpt lat="44.16085" lon="7.54221">
        <ele>1537.77</ele>
        <time>2023-03-18T11:42:33Z</time>
      </trkpt>
      <trkpt lat="44.16097" lon="7.54238">
        <ele>1537.77</ele>
        <time>2023-03-18T11:42:49Z</time>
      </trkpt>
      <trkpt lat="44.16108" lon="7.54254">
        <ele>1536.8</ele>
        <time>2023-03-18T11:43:04Z</time>
      </trkpt>
      <trkpt lat="44.16117" lon="7.54274">
        <ele>1536.32</ele>
        <time>2023-03-18T11:43:21Z</time>
      </trkpt>
      <trkpt lat="44.16117" lon="7.54275">
        <ele>1536.32</ele>
        <time>2023-03-18T11:43:22Z</time>
      </trkpt>
      <trkpt lat="44.16117" lon="7.54279">
        <ele>1535.84</ele>
        <time>2023-03-18T11:43:25Z</time>
      </trkpt>
      <trkpt lat="44.1612" lon="7.54287">
        <ele>1533.44</ele>
        <time>2023-03-18T11:43:40Z</time>
      </trkpt>
      <trkpt lat="44.16121" lon="7.54285">
        <ele>1531.52</ele>
        <time>2023-03-18T11:43:56Z</time>
      </trkpt>
      <trkpt lat="44.16123" lon="7.54289">
        <ele>1527.67</ele>
        <time>2023-03-18T11:44:34Z</time>
      </trkpt>
      <trkpt lat="44.16122" lon="7.54285">
        <ele>1530.56</ele>
        <time>2023-03-18T11:44:58Z</time>
      </trkpt>
      <trkpt lat="44.16121" lon="7.54282">
        <ele>1531.52</ele>
        <time>2023-03-18T11:45:26Z</time>
      </trkpt>
      <trkpt lat="44.16121" lon="7.54286">
        <ele>1529.11</ele>
        <time>2023-03-18T11:46:06Z</time>
      </trkpt>
      <trkpt lat="44.1612" lon="7.54287">
        <ele>1530.56</ele>
        <time>2023-03-18T11:46:39Z</time>
      </trkpt>
      <trkpt lat="44.16121" lon="7.54283">
        <ele>1529.59</ele>
        <time>2023-03-18T11:47:00Z</time>
      </trkpt>
      <trkpt lat="44.16119" lon="7.54287">
        <ele>1529.59</ele>
        <time>2023-03-18T11:47:13Z</time>
      </trkpt>
      <trkpt lat="44.16118" lon="7.54291">
        <ele>1529.59</ele>
        <time>2023-03-18T11:47:29Z</time>
      </trkpt>
      <trkpt lat="44.16118" lon="7.54304">
        <ele>1527.19</ele>
        <time>2023-03-18T11:47:42Z</time>
      </trkpt>
      <trkpt lat="44.16124" lon="7.5436">
        <ele>1524.79</ele>
        <time>2023-03-18T11:47:58Z</time>
      </trkpt>
      <trkpt lat="44.16131" lon="7.54412">
        <ele>1523.83</ele>
        <time>2023-03-18T11:48:14Z</time>
      </trkpt>
      <trkpt lat="44.16132" lon="7.54415">
        <ele>1523.83</ele>
        <time>2023-03-18T11:48:15Z</time>
      </trkpt>
      <trkpt lat="44.16133" lon="7.54417">
        <ele>1523.83</ele>
        <time>2023-03-18T11:48:16Z</time>
      </trkpt>
      <trkpt lat="44.16145" lon="7.54441">
        <ele>1522.87</ele>
        <time>2023-03-18T11:48:21Z</time>
      </trkpt>
      <trkpt lat="44.16151" lon="7.54454">
        <ele>1522.39</ele>
        <time>2023-03-18T11:48:23Z</time>
      </trkpt>
      <trkpt lat="44.16153" lon="7.5446">
        <ele>1521.9</ele>
        <time>2023-03-18T11:48:24Z</time>
      </trkpt>
      <trkpt lat="44.16154" lon="7.54466">
        <ele>1521.42</ele>
        <time>2023-03-18T11:48:25Z</time>
      </trkpt>
      <trkpt lat="44.16159" lon="7.54495">
        <ele>1518.06</ele>
        <time>2023-03-18T11:48:31Z</time>
      </trkpt>
      <trkpt lat="44.16162" lon="7.54499">
        <ele>1517.58</ele>
        <time>2023-03-18T11:48:32Z</time>
      </trkpt>
      <trkpt lat="44.16166" lon="7.54501">
        <ele>1517.1</ele>
        <time>2023-03-18T11:48:33Z</time>
      </trkpt>
      <trkpt lat="44.1617" lon="7.54503">
        <ele>1516.62</ele>
        <time>2023-03-18T11:48:34Z</time>
      </trkpt>
      <trkpt lat="44.16175" lon="7.54505">
        <ele>1515.66</ele>
        <time>2023-03-18T11:48:35Z</time>
      </trkpt>
      <trkpt lat="44.16178" lon="7.54508">
        <ele>1515.18</ele>
        <time>2023-03-18T11:48:36Z</time>
      </trkpt>
      <trkpt lat="44.16181" lon="7.54511">
        <ele>1514.21</ele>
        <time>2023-03-18T11:48:37Z</time>
      </trkpt>
      <trkpt lat="44.16184" lon="7.54514">
        <ele>1513.25</ele>
        <time>2023-03-18T11:48:38Z</time>
      </trkpt>
      <trkpt lat="44.16188" lon="7.54516">
        <ele>1512.77</ele>
        <time>2023-03-18T11:48:39Z</time>
      </trkpt>
      <trkpt lat="44.16192" lon="7.54519">
        <ele>1511.81</ele>
        <time>2023-03-18T11:48:40Z</time>
      </trkpt>
      <trkpt lat="44.16195" lon="7.54525">
        <ele>1511.33</ele>
        <time>2023-03-18T11:48:41Z</time>
      </trkpt>
      <trkpt lat="44.16197" lon="7.54531">
        <ele>1510.37</ele>
        <time>2023-03-18T11:48:42Z</time>
      </trkpt>
      <trkpt lat="44.16199" lon="7.54536">
        <ele>1509.41</ele>
        <time>2023-03-18T11:48:43Z</time>
      </trkpt>
      <trkpt lat="44.16202" lon="7.5454">
        <ele>1508.45</ele>
        <time>2023-03-18T11:48:44Z</time>
      </trkpt>
      <trkpt lat="44.16206" lon="7.54544">
        <ele>1507.48</ele>
        <time>2023-03-18T11:48:45Z</time>
      </trkpt>
      <trkpt lat="44.1621" lon="7.54548">
        <ele>1506.52</ele>
        <time>2023-03-18T11:48:46Z</time>
      </trkpt>
      <trkpt lat="44.16214" lon="7.54552">
        <ele>1505.56</ele>
        <time>2023-03-18T11:48:47Z</time>
      </trkpt>
      <trkpt lat="44.16231" lon="7.54575">
        <ele>1499.79</ele>
        <time>2023-03-18T11:48:52Z</time>
      </trkpt>
      <trkpt lat="44.16233" lon="7.54581">
        <ele>1498.83</ele>
        <time>2023-03-18T11:48:53Z</time>
      </trkpt>
      <trkpt lat="44.16234" lon="7.54588">
        <ele>1497.87</ele>
        <time>2023-03-18T11:48:54Z</time>
      </trkpt>
      <trkpt lat="44.16236" lon="7.54595">
        <ele>1496.43</ele>
        <time>2023-03-18T11:48:55Z</time>
      </trkpt>
      <trkpt lat="44.16239" lon="7.54602">
        <ele>1494.99</ele>
        <time>2023-03-18T11:48:56Z</time>
      </trkpt>
      <trkpt lat="44.16241" lon="7.54611">
        <ele>1494.03</ele>
        <time>2023-03-18T11:48:57Z</time>
      </trkpt>
      <trkpt lat="44.16243" lon="7.5462">
        <ele>1492.58</ele>
        <time>2023-03-18T11:48:58Z</time>
      </trkpt>
      <trkpt lat="44.16243" lon="7.54624">
        <ele>1491.14</ele>
        <time>2023-03-18T11:48:59Z</time>
      </trkpt>
      <trkpt lat="44.16244" lon="7.54627">
        <ele>1483.93</ele>
        <time>2023-03-18T11:49:09Z</time>
      </trkpt>
      <trkpt lat="44.16245" lon="7.54627">
        <ele>1483.45</ele>
        <time>2023-03-18T11:49:10Z</time>
      </trkpt>
      <trkpt lat="44.16246" lon="7.54629">
        <ele>1482.97</ele>
        <time>2023-03-18T11:49:11Z</time>
      </trkpt>
      <trkpt lat="44.16248" lon="7.54633">
        <ele>1482.49</ele>
        <time>2023-03-18T11:49:12Z</time>
      </trkpt>
      <trkpt lat="44.16251" lon="7.54638">
        <ele>1482.01</ele>
        <time>2023-03-18T11:49:13Z</time>
      </trkpt>
      <trkpt lat="44.16254" lon="7.54642">
        <ele>1481.53</ele>
        <time>2023-03-18T11:49:14Z</time>
      </trkpt>
      <trkpt lat="44.16259" lon="7.54646">
        <ele>1480.57</ele>
        <time>2023-03-18T11:49:15Z</time>
      </trkpt>
      <trkpt lat="44.16264" lon="7.54651">
        <ele>1480.09</ele>
        <time>2023-03-18T11:49:16Z</time>
      </trkpt>
      <trkpt lat="44.16266" lon="7.54657">
        <ele>1479.13</ele>
        <time>2023-03-18T11:49:17Z</time>
      </trkpt>
      <trkpt lat="44.16267" lon="7.54664">
        <ele>1478.65</ele>
        <time>2023-03-18T11:49:18Z</time>
      </trkpt>
      <trkpt lat="44.16268" lon="7.54673">
        <ele>1477.68</ele>
        <time>2023-03-18T11:49:19Z</time>
      </trkpt>
      <trkpt lat="44.16269" lon="7.54681">
        <ele>1476.72</ele>
        <time>2023-03-18T11:49:20Z</time>
      </trkpt>
      <trkpt lat="44.16271" lon="7.54704">
        <ele>1474.8</ele>
        <time>2023-03-18T11:49:23Z</time>
      </trkpt>
      <trkpt lat="44.16274" lon="7.54711">
        <ele>1474.32</ele>
        <time>2023-03-18T11:49:24Z</time>
      </trkpt>
      <trkpt lat="44.16277" lon="7.54716">
        <ele>1473.84</ele>
        <time>2023-03-18T11:49:25Z</time>
      </trkpt>
      <trkpt lat="44.16286" lon="7.54728">
        <ele>1472.4</ele>
        <time>2023-03-18T11:49:27Z</time>
      </trkpt>
      <trkpt lat="44.16288" lon="7.54735">
        <ele>1471.44</ele>
        <time>2023-03-18T11:49:28Z</time>
      </trkpt>
      <trkpt lat="44.16291" lon="7.54748">
        <ele>1469.99</ele>
        <time>2023-03-18T11:49:30Z</time>
      </trkpt>
      <trkpt lat="44.16294" lon="7.54754">
        <ele>1469.51</ele>
        <time>2023-03-18T11:49:31Z</time>
      </trkpt>
      <trkpt lat="44.16298" lon="7.54758">
        <ele>1468.55</ele>
        <time>2023-03-18T11:49:32Z</time>
      </trkpt>
      <trkpt lat="44.16302" lon="7.54763">
        <ele>1467.59</ele>
        <time>2023-03-18T11:49:33Z</time>
      </trkpt>
      <trkpt lat="44.16303" lon="7.54767">
        <ele>1467.11</ele>
        <time>2023-03-18T11:49:34Z</time>
      </trkpt>
      <trkpt lat="44.16304" lon="7.54771">
        <ele>1466.63</ele>
        <time>2023-03-18T11:49:35Z</time>
      </trkpt>
      <trkpt lat="44.16304" lon="7.54776">
        <ele>1466.15</ele>
        <time>2023-03-18T11:49:36Z</time>
      </trkpt>
      <trkpt lat="44.16305" lon="7.54781">
        <ele>1465.67</ele>
        <time>2023-03-18T11:49:37Z</time>
      </trkpt>
      <trkpt lat="44.16308" lon="7.54816">
        <ele>1463.26</ele>
        <time>2023-03-18T11:49:42Z</time>
      </trkpt>
      <trkpt lat="44.16308" lon="7.54822">
        <ele>1462.78</ele>
        <time>2023-03-18T11:49:43Z</time>
      </trkpt>
      <trkpt lat="44.16308" lon="7.54829">
        <ele>1462.3</ele>
        <time>2023-03-18T11:49:44Z</time>
      </trkpt>
      <trkpt lat="44.16309" lon="7.54835">
        <ele>1461.82</ele>
        <time>2023-03-18T11:49:45Z</time>
      </trkpt>
      <trkpt lat="44.16311" lon="7.54841">
        <ele>1461.34</ele>
        <time>2023-03-18T11:49:46Z</time>
      </trkpt>
      <trkpt lat="44.16311" lon="7.54845">
        <ele>1460.86</ele>
        <time>2023-03-18T11:49:47Z</time>
      </trkpt>
      <trkpt lat="44.16312" lon="7.54849">
        <ele>1459.9</ele>
        <time>2023-03-18T11:49:52Z</time>
      </trkpt>
      <trkpt lat="44.16315" lon="7.54876">
        <ele>1458.46</ele>
        <time>2023-03-18T11:49:57Z</time>
      </trkpt>
      <trkpt lat="44.16315" lon="7.54883">
        <ele>1457.98</ele>
        <time>2023-03-18T11:49:58Z</time>
      </trkpt>
      <trkpt lat="44.16314" lon="7.54889">
        <ele>1457.5</ele>
        <time>2023-03-18T11:49:59Z</time>
      </trkpt>
      <trkpt lat="44.16315" lon="7.54895">
        <ele>1457.5</ele>
        <time>2023-03-18T11:50:00Z</time>
      </trkpt>
      <trkpt lat="44.16315" lon="7.54901">
        <ele>1457.5</ele>
        <time>2023-03-18T11:50:01Z</time>
      </trkpt>
      <trkpt lat="44.16317" lon="7.54913">
        <ele>1457.02</ele>
        <time>2023-03-18T11:50:03Z</time>
      </trkpt>
      <trkpt lat="44.16321" lon="7.54948">
        <ele>1455.57</ele>
        <time>2023-03-18T11:50:09Z</time>
      </trkpt>
      <trkpt lat="44.16339" lon="7.54964">
        <ele>1452.69</ele>
        <time>2023-03-18T11:50:15Z</time>
      </trkpt>
      <trkpt lat="44.16354" lon="7.54974">
        <ele>1449.32</ele>
        <time>2023-03-18T11:50:19Z</time>
      </trkpt>
      <trkpt lat="44.1636" lon="7.54975">
        <ele>1448.36</ele>
        <time>2023-03-18T11:50:20Z</time>
      </trkpt>
      <trkpt lat="44.16364" lon="7.54978">
        <ele>1447.4</ele>
        <time>2023-03-18T11:50:21Z</time>
      </trkpt>
      <trkpt lat="44.16368" lon="7.54983">
        <ele>1446.92</ele>
        <time>2023-03-18T11:50:22Z</time>
      </trkpt>
      <trkpt lat="44.16369" lon="7.54988">
        <ele>1445.96</ele>
        <time>2023-03-18T11:50:23Z</time>
      </trkpt>
      <trkpt lat="44.16364" lon="7.54992">
        <ele>1445</ele>
        <time>2023-03-18T11:50:24Z</time>
      </trkpt>
      <trkpt lat="44.16363" lon="7.54995">
        <ele>1444.52</ele>
        <time>2023-03-18T11:50:25Z</time>
      </trkpt>
      <trkpt lat="44.16363" lon="7.54998">
        <ele>1443.56</ele>
        <time>2023-03-18T11:50:26Z</time>
      </trkpt>
      <trkpt lat="44.16362" lon="7.55">
        <ele>1443.08</ele>
        <time>2023-03-18T11:50:27Z</time>
      </trkpt>
      <trkpt lat="44.16368" lon="7.55">
        <ele>1439.23</ele>
        <time>2023-03-18T11:50:32Z</time>
      </trkpt>
      <trkpt lat="44.1637" lon="7.55004">
        <ele>1438.75</ele>
        <time>2023-03-18T11:50:33Z</time>
      </trkpt>
      <trkpt lat="44.16371" lon="7.5501">
        <ele>1437.79</ele>
        <time>2023-03-18T11:50:34Z</time>
      </trkpt>
      <trkpt lat="44.16371" lon="7.55015">
        <ele>1437.31</ele>
        <time>2023-03-18T11:50:35Z</time>
      </trkpt>
      <trkpt lat="44.16368" lon="7.55019">
        <ele>1436.35</ele>
        <time>2023-03-18T11:50:36Z</time>
      </trkpt>
      <trkpt lat="44.16365" lon="7.55022">
        <ele>1435.87</ele>
        <time>2023-03-18T11:50:37Z</time>
      </trkpt>
      <trkpt lat="44.16359" lon="7.55029">
        <ele>1431.54</ele>
        <time>2023-03-18T11:50:48Z</time>
      </trkpt>
      <trkpt lat="44.16357" lon="7.55034">
        <ele>1429.14</ele>
        <time>2023-03-18T11:51:02Z</time>
      </trkpt>
      <trkpt lat="44.16366" lon="7.55042">
        <ele>1427.7</ele>
        <time>2023-03-18T11:51:06Z</time>
      </trkpt>
      <trkpt lat="44.16385" lon="7.55056">
        <ele>1422.41</ele>
        <time>2023-03-18T11:51:12Z</time>
      </trkpt>
      <trkpt lat="44.16402" lon="7.55065">
        <ele>1417.12</ele>
        <time>2023-03-18T11:51:17Z</time>
      </trkpt>
      <trkpt lat="44.16416" lon="7.55072">
        <ele>1413.28</ele>
        <time>2023-03-18T11:51:21Z</time>
      </trkpt>
      <trkpt lat="44.1642" lon="7.55075">
        <ele>1411.83</ele>
        <time>2023-03-18T11:51:22Z</time>
      </trkpt>
      <trkpt lat="44.16424" lon="7.55078">
        <ele>1410.39</ele>
        <time>2023-03-18T11:51:23Z</time>
      </trkpt>
      <trkpt lat="44.16433" lon="7.5508">
        <ele>1407.03</ele>
        <time>2023-03-18T11:51:25Z</time>
      </trkpt>
      <trkpt lat="44.16435" lon="7.55084">
        <ele>1406.07</ele>
        <time>2023-03-18T11:51:26Z</time>
      </trkpt>
      <trkpt lat="44.16434" lon="7.5509">
        <ele>1405.1</ele>
        <time>2023-03-18T11:51:27Z</time>
      </trkpt>
      <trkpt lat="44.16434" lon="7.55097">
        <ele>1404.14</ele>
        <time>2023-03-18T11:51:28Z</time>
      </trkpt>
      <trkpt lat="44.16435" lon="7.55103">
        <ele>1403.18</ele>
        <time>2023-03-18T11:51:29Z</time>
      </trkpt>
      <trkpt lat="44.16436" lon="7.5511">
        <ele>1402.7</ele>
        <time>2023-03-18T11:51:30Z</time>
      </trkpt>
      <trkpt lat="44.16438" lon="7.55116">
        <ele>1401.74</ele>
        <time>2023-03-18T11:51:31Z</time>
      </trkpt>
      <trkpt lat="44.16441" lon="7.5512">
        <ele>1401.26</ele>
        <time>2023-03-18T11:51:32Z</time>
      </trkpt>
      <trkpt lat="44.16444" lon="7.55121">
        <ele>1400.3</ele>
        <time>2023-03-18T11:51:33Z</time>
      </trkpt>
      <trkpt lat="44.16451" lon="7.55117">
        <ele>1398.37</ele>
        <time>2023-03-18T11:51:35Z</time>
      </trkpt>
      <trkpt lat="44.16471" lon="7.55102">
        <ele>1393.09</ele>
        <time>2023-03-18T11:51:42Z</time>
      </trkpt>
      <trkpt lat="44.16496" lon="7.55113">
        <ele>1385.88</ele>
        <time>2023-03-18T11:51:49Z</time>
      </trkpt>
      <trkpt lat="44.16504" lon="7.55118">
        <ele>1381.07</ele>
        <time>2023-03-18T11:51:55Z</time>
      </trkpt>
      <trkpt lat="44.16521" lon="7.55152">
        <ele>1378.19</ele>
        <time>2023-03-18T11:52:07Z</time>
      </trkpt>
      <trkpt lat="44.16525" lon="7.55173">
        <ele>1378.19</ele>
        <time>2023-03-18T11:52:13Z</time>
      </trkpt>
      <trkpt lat="44.1653" lon="7.55171">
        <ele>1377.23</ele>
        <time>2023-03-18T11:52:22Z</time>
      </trkpt>
      <trkpt lat="44.16531" lon="7.55168">
        <ele>1376.75</ele>
        <time>2023-03-18T11:52:38Z</time>
      </trkpt>
      <trkpt lat="44.16531" lon="7.55166">
        <ele>1376.26</ele>
        <time>2023-03-18T11:52:55Z</time>
      </trkpt>
      <trkpt lat="44.16531" lon="7.55164">
        <ele>1376.75</ele>
        <time>2023-03-18T11:53:12Z</time>
      </trkpt>
      <trkpt lat="44.16538" lon="7.55158">
        <ele>1376.26</ele>
        <time>2023-03-18T11:53:30Z</time>
      </trkpt>
      <trkpt lat="44.16539" lon="7.55153">
        <ele>1376.26</ele>
        <time>2023-03-18T11:53:34Z</time>
      </trkpt>
      <trkpt lat="44.16544" lon="7.55143">
        <ele>1376.26</ele>
        <time>2023-03-18T11:53:43Z</time>
      </trkpt>
      <trkpt lat="44.16546" lon="7.55139">
        <ele>1376.26</ele>
        <time>2023-03-18T11:53:46Z</time>
      </trkpt>
      <trkpt lat="44.16548" lon="7.55134">
        <ele>1375.3</ele>
        <time>2023-03-18T11:53:51Z</time>
      </trkpt>
      <trkpt lat="44.16553" lon="7.55129">
        <ele>1375.3</ele>
        <time>2023-03-18T11:53:57Z</time>
      </trkpt>
      <trkpt lat="44.16566" lon="7.55126">
        <ele>1372.42</ele>
        <time>2023-03-18T11:54:13Z</time>
      </trkpt>
      <trkpt lat="44.16573" lon="7.55129">
        <ele>1371.46</ele>
        <time>2023-03-18T11:54:22Z</time>
      </trkpt>
      <trkpt lat="44.16574" lon="7.55132">
        <ele>1370.98</ele>
        <time>2023-03-18T11:54:24Z</time>
      </trkpt>
      <trkpt lat="44.1657" lon="7.55153">
        <ele>1370.02</ele>
        <time>2023-03-18T11:54:41Z</time>
      </trkpt>
      <trkpt lat="44.16569" lon="7.55173">
        <ele>1371.94</ele>
        <time>2023-03-18T11:54:55Z</time>
      </trkpt>
      <trkpt lat="44.16567" lon="7.55182">
        <ele>1372.9</ele>
        <time>2023-03-18T11:55:11Z</time>
      </trkpt>
      <trkpt lat="44.1657" lon="7.55188">
        <ele>1373.38</ele>
        <time>2023-03-18T11:55:30Z</time>
      </trkpt>
      <trkpt lat="44.16566" lon="7.55187">
        <ele>1375.78</ele>
        <time>2023-03-18T11:55:49Z</time>
      </trkpt>
      <trkpt lat="44.16566" lon="7.55187">
        <ele>1375.78</ele>
        <time>2023-03-18T11:55:51Z</time>
      </trkpt>
    </trkseg>
  </trk>
</gpx>